MT1063 / G-TCDB 7700 Squawk Report (12th of October, 2018)

Aircraft A321 Reg No. G-TCDB Age 5 years old
Model A321 Jet engines 2 First flight 23-05-13
Registered 03-02-14 Rollout 05-13 Delivered 30-05-13
Construction No. 5603 Line No. N/A Series 211(SL)
ADSHEX 4069EA Airline name Thomas Cook Airlines Owner Thomas Cook Group
Airfield based Manchester International~Gtr Mcr~G First tracked 2014-02-13 17:00:01

Flight history for G-TCDB

Route Flight No Date Playback
Tenerife Sur (TFS) - East Midlands Airport (EMA) MT1447 2018-12-14 20:24:00
East Midlands Airport (EMA) - Tenerife Sur (TFS) MT1446 2018-12-14 14:03:00
Gran Canaria (LPA) - East Midlands Airport (EMA) MT1267 2018-12-13 19:35:00
East Midlands Airport (EMA) - Gran Canaria (LPA) MT1266 2018-12-13 14:52:00
???? MT1375 2018-12-12 19:49:00
Kittila (KTT) - Gatwick (LGW) MT1193 2018-12-12 18:56:00
Manchester (MAN) - Kittila (KTT) MT1370 2018-12-12 14:43:00
Hurghada Intl (HRG) - Manchester (MAN) MT487 2018-12-12 09:37:00
Manchester (MAN) - Hurghada Intl (HRG) MT486 2018-12-11 14:32:00
Rovaniemi (RVN) - Manchester (MAN) MT1369 2018-12-09 23:41:00
East Midlands Airport (EMA) - Rovaniemi (RVN) MT1056 2018-12-09 10:27:00
Tenerife Sur (TFS) - East Midlands Airport (EMA) MT1447 2018-12-07 19:58:00
East Midlands Airport (EMA) - Tenerife Sur (TFS) MT1446 2018-12-07 15:46:00
Arrecife Airport (ACE) - East Midlands Airport (EMA) MT1399 2018-12-06 17:51:00
East Midlands Airport (EMA) - Arrecife Airport (ACE) MT1398 2018-12-06 13:40:00
Menara (RAK) - Manchester (MAN) MT755 2018-12-05 19:15:00
Manchester (MAN) - Menara (RAK) MT754 2018-12-05 12:45:00
Hurghada Intl (HRG) - Manchester (MAN) MT487 2018-12-05 09:22:00
Manchester (MAN) - Hurghada Intl (HRG) MT486 2018-12-04 17:04:00
???? N/A 2018-12-03 21:42:00
Time Lat Lon Altitude Heading Speed Vertical Rate
2018-10-12 11:46:34 GMT 52.454681 -1.738300 0 326 0 0
2018-10-12 11:46:12 GMT 52.454689 -1.738312 0 326 2 0
2018-10-12 11:46:07 GMT 52.454666 -1.738273 0 326 3 0
2018-10-12 11:43:45 GMT 52.449986 -1.739234 0 70 15 0
2018-10-12 11:43:40 GMT 52.449883 -1.739822 0 75 19 0
2018-10-12 11:43:28 GMT 52.449657 -1.741257 0 75 15 0
2018-10-12 11:43:16 GMT 52.449440 -1.742420 0 87 12 0
2018-10-12 11:43:05 GMT 52.449669 -1.743355 0 146 22 0
2018-10-12 11:42:59 GMT 52.450138 -1.743864 0 146 32 0
2018-10-12 11:42:40 GMT 52.453957 -1.748141 0 146 82 0
2018-10-12 11:42:20 GMT 52.462418 -1.757499 550 146 136 -320
2018-10-12 11:42:09 GMT 52.468048 -1.763855 675 146 136 -704
2018-10-12 11:42:06 GMT 52.470051 -1.765974 725 146 136 -768
2018-10-12 11:41:54 GMT 52.475922 -1.772537 875 146 137 -768
2018-10-12 11:41:44 GMT 52.480911 -1.778107 1,000 145 138 -704
2018-10-12 11:41:34 GMT 52.486542 -1.784363 1,100 145 137 -576
2018-10-12 11:41:23 GMT 52.492401 -1.791000 1,250 145 138 -704
2018-10-12 11:41:15 GMT 52.496632 -1.795637 1,350 146 137 -768
2018-10-12 11:41:09 GMT 52.500359 -1.799796 1,425 145 137 -576
2018-10-12 11:41:05 GMT 52.501755 -1.801365 1,450 145 137 -576
2018-10-12 11:40:57 GMT 52.506737 -1.806859 1,575 145 138 -768
2018-10-12 11:40:54 GMT 52.508083 -1.808350 1,600 146 139 -896
2018-10-12 11:40:45 GMT 52.512726 -1.813431 1,700 145 139 -640
2018-10-12 11:40:40 GMT 52.515289 -1.816254 1,775 146 139 -768
2018-10-12 11:40:37 GMT 52.516983 -1.818237 1,825 145 138 -704
2018-10-12 11:40:33 GMT 52.519501 -1.821060 1,875 145 135 -704
2018-10-12 11:40:30 GMT 52.521027 -1.822789 1,900 144 135 -704
2018-10-12 11:40:24 GMT 52.523621 -1.825638 1,975 144 135 -704
2018-10-12 11:40:20 GMT 52.525772 -1.828125 2,175 145 134 -896
2018-10-12 11:40:14 GMT 52.528564 -1.831207 2,125 145 135 -832
2018-10-12 11:40:11 GMT 52.530670 -1.833572 2,150 145 130 -768
2018-10-12 11:40:06 GMT 52.532822 -1.836014 2,300 145 128 -576
2018-10-12 11:40:03 GMT 52.534386 -1.837777 2,250 145 130 -704
2018-10-12 11:40:00 GMT 52.535843 -1.839371 2,275 145 129 -640
2018-10-12 11:39:57 GMT 52.537811 -1.841583 2,325 145 128 -576
2018-10-12 11:39:54 GMT 52.539551 -1.843567 2,375 145 126 -512
2018-10-12 11:39:50 GMT 52.541229 -1.845389 2,425 146 124 -448
2018-10-12 11:39:46 GMT 52.542755 -1.847076 2,600 146 121 -640
2018-10-12 11:39:42 GMT 52.544449 -1.848907 2,475 146 122 -768
2018-10-12 11:39:39 GMT 52.545883 -1.850568 2,500 146 122 -576
2018-10-12 11:39:36 GMT 52.547703 -1.852530 2,550 145 122 -704
2018-10-12 11:39:33 GMT 52.548912 -1.853864 2,575 145 123 -576
2018-10-12 11:39:30 GMT 52.550819 -1.855983 2,675 146 120 -576
2018-10-12 11:39:25 GMT 52.553055 -1.858444 2,675 146 120 -704
2018-10-12 11:39:22 GMT 52.554062 -1.859589 2,675 146 120 -704
2018-10-12 11:39:19 GMT 52.555473 -1.861162 2,725 145 122 -704
2018-10-12 11:39:16 GMT 52.557152 -1.863046 2,750 145 122 -576
2018-10-12 11:39:11 GMT 52.559105 -1.865243 2,800 145 122 -768
2018-10-12 11:39:08 GMT 52.562485 -1.869125 2,900 145 122 -704
2018-10-12 11:39:05 GMT 52.562485 -1.869125 2,900 146 121 -512
2018-10-12 11:39:01 GMT 52.563713 -1.870501 2,900 146 122 -640
2018-10-12 11:38:57 GMT 52.565670 -1.872620 2,950 146 121 -704
2018-10-12 11:38:54 GMT 52.567062 -1.874161 3,025 145 123 -768
2018-10-12 11:38:51 GMT 52.568802 -1.876068 3,025 145 122 -768
2018-10-12 11:38:48 GMT 52.570370 -1.877877 3,150 145 122 -704
2018-10-12 11:38:43 GMT 52.572739 -1.880569 3,125 145 122 -768
2018-10-12 11:38:40 GMT 52.573746 -1.881714 3,175 145 122 -768
2018-10-12 11:38:37 GMT 52.575348 -1.883545 3,350 145 119 -640
2018-10-12 11:38:33 GMT 52.576935 -1.885332 3,250 145 120 -640
2018-10-12 11:38:30 GMT 52.578796 -1.887373 3,300 145 119 -704
2018-10-12 11:38:26 GMT 52.580200 -1.888962 3,350 145 119 -512
2018-10-12 11:38:22 GMT 52.582169 -1.891174 3,450 145 115 -768
2018-10-12 11:38:19 GMT 52.583908 -1.893234 3,450 145 116 -576
2018-10-12 11:38:16 GMT 52.584988 -1.894435 3,450 145 116 -576
2018-10-12 11:38:12 GMT 52.586609 -1.896286 3,500 145 117 -640
2018-10-12 11:38:09 GMT 52.588028 -1.897812 3,500 145 119 -704
2018-10-12 11:38:03 GMT 52.591141 -1.901398 3,600 146 117 -576
2018-10-12 11:38:00 GMT 52.592064 -1.902361 3,625 146 117 -576
2018-10-12 11:37:57 GMT 52.593273 -1.903695 3,625 146 118 -640
2018-10-12 11:37:54 GMT 52.594952 -1.905579 3,675 144 118 -576
2018-10-12 11:37:50 GMT 52.596497 -1.907349 3,725 145 120 -704
2018-10-12 11:37:47 GMT 52.598328 -1.909409 3,750 146 120 -640
2018-10-12 11:37:42 GMT 52.600845 -1.912155 3,825 146 123 -896
2018-10-12 11:37:39 GMT 52.602081 -1.913528 3,825 146 123 -896
2018-10-12 11:37:36 GMT 52.603516 -1.915074 3,900 146 124 -768
2018-10-12 11:37:32 GMT 52.605473 -1.917193 3,950 146 125 -768
2018-10-12 11:37:29 GMT 52.606613 -1.918411 3,975 146 125 -768
2018-10-12 11:37:26 GMT 52.608078 -1.920018 4,025 146 125 -768
2018-10-12 11:37:23 GMT 52.609497 -1.921539 4,050 146 127 -768
2018-10-12 11:37:20 GMT 52.611057 -1.923235 4,125 146 137 -704
2018-10-12 11:37:17 GMT 52.612316 -1.924648 4,150 146 132 -704
2018-10-12 11:37:13 GMT 52.614223 -1.926688 4,200 146 134 -704
2018-10-12 11:37:09 GMT 52.617249 -1.929984 4,225 145 137 -704
2018-10-12 11:37:06 GMT 52.618366 -1.931240 4,250 145 141 -704
2018-10-12 11:37:02 GMT 52.620274 -1.933358 4,300 145 141 -768
2018-10-12 11:36:58 GMT 52.622604 -1.935948 4,350 145 144 -640
2018-10-12 11:36:55 GMT 52.623627 -1.937125 4,400 144 147 -704
2018-10-12 11:36:52 GMT 52.627117 -1.941206 4,450 143 154 -704
2018-10-12 11:36:45 GMT 52.629494 -1.944031 4,475 143 155 -704
2018-10-12 11:36:42 GMT 52.631912 -1.946934 4,525 142 157 -704
2018-10-12 11:36:38 GMT 52.633850 -1.949387 4,600 142 161 -576
2018-10-12 11:36:35 GMT 52.635590 -1.951643 4,600 140 162 -320
2018-10-12 11:36:31 GMT 52.638062 -1.954880 4,625 140 161 -320
2018-10-12 11:36:28 GMT 52.640293 -1.957921 4,650 138 163 -256
2018-10-12 11:36:25 GMT 52.641411 -1.959647 4,700 135 166 -256
2018-10-12 11:36:22 GMT 52.642776 -1.961594 4,675 136 165 -256
2018-10-12 11:36:19 GMT 52.644836 -1.964798 4,700 135 166 -256
2018-10-12 11:36:16 GMT 52.646439 -1.967392 4,700 132 168 -256
2018-10-12 11:36:13 GMT 52.648132 -1.970367 4,725 130 170 -320
2018-10-12 11:36:08 GMT 52.650951 -1.975970 4,750 113 184 -384
2018-10-12 11:36:02 GMT 52.653122 -1.981277 4,775 109 190 -384
2018-10-12 11:35:59 GMT 52.654587 -1.985855 4,775 111 187 -448
2018-10-12 11:35:56 GMT 52.655457 -1.989365 4,800 108 191 -384
2018-10-12 11:35:52 GMT 52.656601 -1.994858 5,575 47 254 -576
2018-10-12 11:35:49 GMT 52.657330 -1.998649 4,900 99 200 -512
2018-10-12 11:35:46 GMT 52.658066 -2.003174 4,900 91 209 -576
2018-10-12 11:35:42 GMT 52.658913 -2.009792 4,900 93 207 -576
2018-10-12 11:35:38 GMT 52.659008 -2.017247 4,975 76 225 -576
2018-10-12 11:35:35 GMT 52.658798 -2.021332 5,000 74 227 -576
2018-10-12 11:35:32 GMT 52.658215 -2.026271 5,025 70 232 -576
2018-10-12 11:35:29 GMT 52.657013 -2.032242 5,075 63 241 -640
2018-10-12 11:35:26 GMT 52.655933 -2.036394 5,125 57 246 -704
2018-10-12 11:35:22 GMT 52.653606 -2.042908 5,150 54 249 -704
2018-10-12 11:35:17 GMT 52.650536 -2.049500 5,225 47 254 -576
2018-10-12 11:35:14 GMT 52.647858 -2.054367 5,250 46 254 -576
2018-10-12 11:35:11 GMT 52.645294 -2.058868 5,275 35 260 -640
2018-10-12 11:35:06 GMT 52.636196 -2.070530 5,350 10 261 -640
2018-10-12 11:35:01 GMT 52.636196 -2.070530 5,375 26 263 -576
2018-10-12 11:34:57 GMT 52.630737 -2.074738 5,425 19 263 -640
2018-10-12 11:34:54 GMT 52.624931 -2.077515 5,475 10 261 -640
2018-10-12 11:34:51 GMT 52.624931 -2.077515 5,500 7 260 -512
2018-10-12 11:34:47 GMT 52.620323 -2.078692 5,525 1 258 -448
2018-10-12 11:34:44 GMT 52.611603 -2.078247 5,600 342 245 -576
2018-10-12 11:34:41 GMT 52.611603 -2.078247 5,600 348 249 -512
2018-10-12 11:34:36 GMT 52.606495 -2.076416 5,625 337 240 -640
2018-10-12 11:34:30 GMT 52.600800 -2.072601 5,675 332 236 -640
2018-10-12 11:34:27 GMT 52.597977 -2.070060 5,700 329 235 -448
2018-10-12 11:34:24 GMT 52.595043 -2.067078 5,700 328 236 -384
2018-10-12 11:34:21 GMT 52.592239 -2.064209 5,750 328 239 -64
2018-10-12 11:34:18 GMT 52.588665 -2.060486 5,750 328 242 0
2018-10-12 11:34:15 GMT 52.586803 -2.058524 5,750 327 245 -128
2018-10-12 11:34:12 GMT 52.582893 -2.054286 5,750 327 252 -768
2018-10-12 11:34:09 GMT 52.580933 -2.052231 6,125 327 255 -704
2018-10-12 11:34:05 GMT 52.576859 -2.047806 5,825 327 253 -704
2018-10-12 11:34:02 GMT 52.573956 -2.044634 5,950 326 264 -512
2018-10-12 11:33:59 GMT 52.570999 -2.041397 5,875 326 262 -512
2018-10-12 11:33:56 GMT 52.564774 -2.034378 5,925 327 286 -1024
2018-10-12 11:33:50 GMT 52.562531 -2.031860 5,950 326 268 -576
2018-10-12 11:33:47 GMT 52.558273 -2.027054 6,000 326 271 -896
2018-10-12 11:33:42 GMT 52.553970 -2.022247 6,075 326 276 -704
2018-10-12 11:33:39 GMT 52.550171 -2.017899 6,150 326 277 -768
2018-10-12 11:33:36 GMT 52.548111 -2.015533 6,150 326 277 -768
2018-10-12 11:33:33 GMT 52.544907 -2.011911 6,175 326 278 -1024
2018-10-12 11:33:30 GMT 52.541229 -2.007673 6,275 326 279 -1024
2018-10-12 11:33:27 GMT 52.537994 -2.004013 6,325 326 282 -960
2018-10-12 11:33:24 GMT 52.530476 -1.995510 6,375 326 283 -960
2018-10-12 11:33:20 GMT 52.530476 -1.995510 6,400 326 283 -1024
2018-10-12 11:33:17 GMT 52.527145 -1.991806 6,425 327 285 -1152
2018-10-12 11:33:14 GMT 52.523865 -1.988211 6,575 331 292 -960
2018-10-12 11:33:11 GMT 52.521118 -1.985386 6,550 331 292 -960
2018-10-12 11:33:07 GMT 52.515564 -1.980057 6,600 334 296 -1152
2018-10-12 11:33:03 GMT 52.510986 -1.976471 6,700 338 302 -1152
2018-10-12 11:33:00 GMT 52.506783 -1.974008 6,725 346 311 -1024
2018-10-12 11:32:57 GMT 52.502335 -1.972046 6,800 350 317 -1024
2018-10-12 11:32:54 GMT 52.498543 -1.970790 6,950 357 325 -896
2018-10-12 11:32:51 GMT 52.494678 -1.970084 6,900 358 327 -832
2018-10-12 11:32:48 GMT 52.490067 -1.969681 6,950 0 331 -768
2018-10-12 11:32:45 GMT 52.486156 -1.969613 7,225 2 335 -832
2018-10-12 11:32:42 GMT 52.480061 -1.970006 7,025 2 336 -896
2018-10-12 11:32:38 GMT 52.473125 -1.970476 7,075 2 339 -1344
2018-10-12 11:32:35 GMT 52.469913 -1.970633 7,225 2 344 -1344
2018-10-12 11:32:31 GMT 52.463581 -1.971104 7,325 2 340 -1920
2018-10-12 11:32:27 GMT 52.457111 -1.971497 7,400 2 341 -1728
2018-10-12 11:32:24 GMT 52.453033 -1.971741 7,475 2 343 -1408
2018-10-12 11:32:21 GMT 52.447800 -1.972124 7,600 2 343 -1408
2018-10-12 11:32:17 GMT 52.441422 -1.972517 7,675 2 344 -1280
2018-10-12 11:32:14 GMT 52.435509 -1.972909 7,775 2 344 -1280
2018-10-12 11:32:10 GMT 52.424835 -1.973572 7,825 2 344 -1024
2018-10-12 11:32:04 GMT 52.419773 -1.973929 7,975 3 343 64
2018-10-12 11:32:01 GMT 52.415867 -1.974165 7,950 1 346 0
2018-10-12 11:31:57 GMT 52.404411 -1.974871 8,000 1 346 -64
2018-10-12 11:31:54 GMT 52.399429 -1.975174 8,000 1 346 -64
2018-10-12 11:31:51 GMT 52.399429 -1.975174 8,000 1 346 0
2018-10-12 11:31:46 GMT 52.392105 -1.975632 8,000 1 346 0
2018-10-12 11:31:43 GMT 52.387051 -1.975891 8,000 1 346 0
2018-10-12 11:31:40 GMT 52.382767 -1.976166 8,000 1 346 0
2018-10-12 11:31:36 GMT 52.376266 -1.976471 8,000 1 346 0
2018-10-12 11:31:33 GMT 52.371128 -1.976754 8,000 1 346 0
2018-10-12 11:31:30 GMT 52.366100 -1.976990 8,000 1 344 0
2018-10-12 11:31:26 GMT 52.358139 -1.977386 8,000 1 344 0
2018-10-12 11:31:23 GMT 52.349297 -1.977853 8,000 2 344 0
2018-10-12 11:31:20 GMT 52.349297 -1.977853 8,000 1 344 0
2018-10-12 11:31:17 GMT 52.345478 -1.978088 8,000 2 344 0
2018-10-12 11:31:14 GMT 52.340698 -1.978455 8,000 2 344 0
2018-10-12 11:31:11 GMT 52.335754 -1.978760 8,000 4 343 64
2018-10-12 11:31:08 GMT 52.330254 -1.979422 8,000 7 344 64
2018-10-12 11:31:05 GMT 52.321701 -1.981049 8,000 13 346 -64
2018-10-12 11:31:02 GMT 52.321701 -1.981049 8,000 14 346 -64
2018-10-12 11:30:59 GMT 52.315567 -1.983109 8,000 15 347 -64
2018-10-12 11:30:56 GMT 52.313049 -1.984177 8,000 20 347 -64
2018-10-12 11:30:52 GMT 52.305023 -1.988682 8,000 22 346 0
2018-10-12 11:30:48 GMT 52.298401 -1.993027 8,000 22 347 0
2018-10-12 11:30:45 GMT 52.289337 -1.999054 8,000 22 346 0
2018-10-12 11:30:41 GMT 52.289337 -1.999054 8,000 22 345 0
2018-10-12 11:30:35 GMT 52.281887 -2.004063 8,000 22 346 0
2018-10-12 11:30:32 GMT 52.276302 -2.007751 8,000 22 346 0
2018-10-12 11:30:29 GMT 52.267868 -2.013397 8,000 22 346 0
2018-10-12 11:30:26 GMT 52.263222 -2.016541 8,000 22 346 0
2018-10-12 11:30:23 GMT 52.263222 -2.016541 8,000 22 346 0
2018-10-12 11:30:20 GMT 52.258804 -2.019501 8,000 22 347 0
2018-10-12 11:30:17 GMT 52.254189 -2.022583 8,000 22 347 0
2018-10-12 11:30:14 GMT 52.250519 -2.024994 8,000 22 347 0
2018-10-12 11:30:11 GMT 52.244843 -2.028732 8,000 22 348 0
2018-10-12 11:30:08 GMT 52.240131 -2.031921 8,000 22 347 0
2018-10-12 11:30:05 GMT 52.236145 -2.034531 8,000 22 347 0
2018-10-12 11:30:02 GMT 52.231979 -2.037354 8,000 22 347 0
2018-10-12 11:29:59 GMT 52.227654 -2.040240 8,000 22 347 0
2018-10-12 11:29:56 GMT 52.221416 -2.044399 8,000 22 347 0
2018-10-12 11:29:53 GMT 52.218575 -2.046204 8,000 22 347 0
2018-10-12 11:29:50 GMT 52.207870 -2.053345 8,000 22 348 0
2018-10-12 11:29:47 GMT 52.207870 -2.053345 8,000 22 347 0
2018-10-12 11:29:44 GMT 52.205475 -2.054901 8,000 22 347 0
2018-10-12 11:29:41 GMT 52.200302 -2.058334 8,000 22 347 0
2018-10-12 11:29:38 GMT 52.197098 -2.060471 8,000 22 347 0
2018-10-12 11:29:34 GMT 52.190048 -2.065125 8,000 22 347 0
2018-10-12 11:29:31 GMT 52.185287 -2.068253 8,000 21 348 0
2018-10-12 11:29:28 GMT 52.176086 -2.074356 8,000 22 348 0
2018-10-12 11:29:24 GMT 52.176086 -2.074356 8,000 22 348 0
2018-10-12 11:29:21 GMT 52.169724 -2.078552 8,000 22 349 0
2018-10-12 11:29:18 GMT 52.166153 -2.080917 8,000 22 349 0
2018-10-12 11:29:14 GMT 52.159313 -2.085440 8,000 22 349 0
2018-10-12 11:29:10 GMT 52.154938 -2.088318 8,000 22 350 0
2018-10-12 11:29:06 GMT 52.148209 -2.092743 8,000 22 350 64
2018-10-12 11:29:03 GMT 52.143585 -2.095795 8,000 22 350 0
2018-10-12 11:29:00 GMT 52.139786 -2.098312 8,000 22 350 0
2018-10-12 11:28:57 GMT 52.134430 -2.101822 8,000 22 350 0
2018-10-12 11:28:53 GMT 52.124268 -2.108612 8,000 22 353 0
2018-10-12 11:28:50 GMT 52.118820 -2.112198 8,000 22 352 0
2018-10-12 11:28:46 GMT 52.118820 -2.112198 8,000 22 352 0
2018-10-12 11:28:43 GMT 52.112320 -2.116547 8,000 22 352 0
2018-10-12 11:28:40 GMT 52.101917 -2.123422 8,000 22 353 0
2018-10-12 11:28:36 GMT 52.101917 -2.123422 8,000 22 353 0
2018-10-12 11:28:32 GMT 52.095818 -2.127502 8,000 21 353 0
2018-10-12 11:28:26 GMT 52.088242 -2.132492 8,000 22 353 0
2018-10-12 11:28:21 GMT 52.079956 -2.137909 8,000 22 353 0
2018-10-12 11:28:18 GMT 52.076065 -2.140503 8,000 22 353 0
2018-10-12 11:28:15 GMT 52.070572 -2.144089 8,000 22 353 0
2018-10-12 11:28:12 GMT 52.066071 -2.147042 8,000 22 353 0
2018-10-12 11:28:09 GMT 52.062813 -2.149161 8,000 22 353 0
2018-10-12 11:28:05 GMT 52.056293 -2.153477 8,000 22 353 0
2018-10-12 11:28:02 GMT 52.050987 -2.156930 8,000 22 353 0
2018-10-12 11:27:58 GMT 52.041584 -2.163130 8,000 22 353 0
2018-10-12 11:27:55 GMT 52.039398 -2.164612 8,000 22 353 0
2018-10-12 11:27:52 GMT 52.034363 -2.167892 8,000 22 353 0
2018-10-12 11:27:49 GMT 52.031387 -2.169876 8,000 22 353 0
2018-10-12 11:27:45 GMT 52.024246 -2.174530 8,000 22 353 0
2018-10-12 11:27:42 GMT 52.021362 -2.176437 8,000 22 353 0
2018-10-12 11:27:39 GMT 52.015594 -2.180252 8,000 22 353 0
2018-10-12 11:27:36 GMT 52.011745 -2.182748 8,000 22 353 0
2018-10-12 11:27:33 GMT 52.002480 -2.188869 8,000 22 353 0
2018-10-12 11:27:30 GMT 52.002480 -2.188869 8,000 22 353 0
2018-10-12 11:27:26 GMT 51.996872 -2.192535 8,000 22 353 0
2018-10-12 11:27:22 GMT 51.989723 -2.197266 8,000 22 354 0
2018-10-12 11:27:19 GMT 51.985107 -2.200394 8,000 22 354 0
2018-10-12 11:27:16 GMT 51.980972 -2.203073 8,000 22 354 0
2018-10-12 11:27:11 GMT 51.973160 -2.208252 8,000 21 353 0
2018-10-12 11:27:08 GMT 51.970230 -2.210159 8,000 21 353 0
2018-10-12 11:27:05 GMT 51.964867 -2.213667 8,000 21 353 0
2018-10-12 11:27:01 GMT 51.958740 -2.217636 8,000 21 352 0
2018-10-12 11:26:58 GMT 51.954346 -2.220535 8,000 21 352 0
2018-10-12 11:26:55 GMT 51.949738 -2.223476 8,000 21 352 0
2018-10-12 11:26:51 GMT 51.943684 -2.227478 8,000 22 351 0
2018-10-12 11:26:48 GMT 51.938377 -2.230931 8,000 22 351 0
2018-10-12 11:26:44 GMT 51.933929 -2.233887 8,000 22 351 0
2018-10-12 11:26:41 GMT 51.928024 -2.237701 8,000 22 351 0
2018-10-12 11:26:38 GMT 51.924088 -2.240295 8,000 22 351 0
2018-10-12 11:26:35 GMT 51.919373 -2.243347 8,000 22 351 64
2018-10-12 11:26:32 GMT 51.911144 -2.248823 8,000 22 350 64
2018-10-12 11:26:29 GMT 51.911144 -2.248823 8,000 22 351 64
2018-10-12 11:26:26 GMT 51.906509 -2.251816 8,000 22 350 64
2018-10-12 11:26:23 GMT 51.901154 -2.255402 8,000 22 350 64
2018-10-12 11:26:19 GMT 51.895020 -2.259369 8,000 22 349 0
2018-10-12 11:26:16 GMT 51.890663 -2.262268 8,000 22 350 64
2018-10-12 11:26:12 GMT 51.884007 -2.266693 7,975 22 348 0
2018-10-12 11:26:09 GMT 51.880051 -2.269345 7,975 22 348 0
2018-10-12 11:26:06 GMT 51.874786 -2.272797 8,000 22 318 0
2018-10-12 11:26:02 GMT 51.870163 -2.275803 7,975 21 345 -64
2018-10-12 11:25:59 GMT 51.865570 -2.278824 8,000 22 344 -64
2018-10-12 11:25:56 GMT 51.861328 -2.281593 8,000 22 343 -64
2018-10-12 11:25:53 GMT 51.854725 -2.285919 8,000 21 340 -128
2018-10-12 11:25:45 GMT 51.843273 -2.293320 8,025 21 325 -64
2018-10-12 11:25:42 GMT 51.839733 -2.295685 8,000 22 314 0
2018-10-12 11:25:38 GMT 51.834057 -2.299347 8,000 22 316 0
2018-10-12 11:25:34 GMT 51.828701 -2.302856 8,000 22 315 -64
2018-10-12 11:25:31 GMT 51.825630 -2.304916 8,000 22 314 0
2018-10-12 11:25:27 GMT 51.820183 -2.308426 8,000 22 314 0
2018-10-12 11:25:24 GMT 51.815434 -2.311554 8,000 22 314 0
2018-10-12 11:25:21 GMT 51.810452 -2.314835 8,000 22 314 0
2018-10-12 11:25:18 GMT 51.803982 -2.319031 8,000 21 315 0
2018-10-12 11:25:12 GMT 51.799747 -2.321777 8,000 22 314 0
2018-10-12 11:25:09 GMT 51.795593 -2.324499 8,000 21 315 0
2018-10-12 11:25:05 GMT 51.789917 -2.328211 8,000 21 315 0
2018-10-12 11:25:02 GMT 51.785175 -2.331238 8,000 21 314 -64
2018-10-12 11:24:58 GMT 51.779819 -2.334595 8,000 21 314 -64
2018-10-12 11:24:54 GMT 51.776276 -2.336822 8,000 20 314 -64
2018-10-12 11:24:51 GMT 51.771629 -2.339706 8,000 20 313 -64
2018-10-12 11:24:46 GMT 51.763992 -2.344284 8,000 25 315 64
2018-10-12 11:24:43 GMT 51.760502 -2.346344 8,000 20 313 -64
2018-10-12 11:24:36 GMT 51.751144 -2.352039 8,025 22 315 192
2018-10-12 11:24:33 GMT 51.747887 -2.354050 8,025 22 315 192
2018-10-12 11:24:30 GMT 51.743088 -2.357607 8,000 60 311 -64
2018-10-12 11:24:25 GMT 51.736496 -2.363842 8,000 38 317 0
2018-10-12 11:24:22 GMT 51.733429 -2.367628 8,000 48 315 0
2018-10-12 11:24:19 GMT 51.729675 -2.372973 8,000 48 315 0
2018-10-12 11:24:16 GMT 51.727249 -2.377204 8,000 60 311 -64
2018-10-12 11:24:13 GMT 51.724377 -2.382889 8,000 56 312 -64
2018-10-12 11:24:10 GMT 51.721939 -2.388858 8,000 61 310 -64
2018-10-12 11:24:07 GMT 51.719330 -2.396504 8,000 69 306 -64
2018-10-12 11:24:02 GMT 51.716698 -2.407608 8,000 93 285 -128
2018-10-12 11:23:59 GMT 51.715805 -2.412984 8,000 83 296 -128
2018-10-12 11:23:55 GMT 51.714787 -2.424316 8,000 100 275 -128
2018-10-12 11:23:52 GMT 51.714706 -2.427682 8,000 89 290 -128
2018-10-12 11:23:49 GMT 51.714706 -2.435031 8,000 96 282 -128
2018-10-12 11:23:45 GMT 51.715393 -2.445221 8,000 100 275 -128
2018-10-12 11:23:42 GMT 51.716091 -2.450714 8,000 107 268 -128
2018-10-12 11:23:39 GMT 51.716557 -2.453766 8,000 108 266 -64
2018-10-12 11:23:36 GMT 51.717861 -2.461090 8,000 108 265 -64
2018-10-12 11:23:33 GMT 51.719009 -2.466579 8,000 108 265 0
2018-10-12 11:23:28 GMT 51.721210 -2.477112 8,000 108 264 0
2018-10-12 11:23:25 GMT 51.722469 -2.483215 8,000 107 264 0
2018-10-12 11:23:21 GMT 51.723587 -2.488632 8,000 105 266 256
2018-10-12 11:23:18 GMT 51.724686 -2.494565 8,000 100 270 256
2018-10-12 11:23:15 GMT 51.725681 -2.500229 8,000 99 271 256
2018-10-12 11:23:12 GMT 51.726658 -2.506409 8,000 97 273 192
2018-10-12 11:23:06 GMT 51.727589 -2.518387 7,975 91 282 128
2018-10-12 11:23:02 GMT 51.727432 -2.526930 8,000 82 293 -64
2018-10-12 11:22:56 GMT 51.726288 -2.539623 8,000 77 298 -64
2018-10-12 11:22:53 GMT 51.725052 -2.548457 8,000 76 298 0
2018-10-12 11:22:50 GMT 51.724285 -2.553482 8,025 72 301 192
2018-10-12 11:22:45 GMT 51.720699 -2.571869 8,000 66 305 64
2018-10-12 11:22:42 GMT 51.720699 -2.571869 8,000 63 307 64
2018-10-12 11:22:38 GMT 51.718918 -2.578150 8,000 60 309 64
2018-10-12 11:22:35 GMT 51.716789 -2.584229 8,000 52 313 0
2018-10-12 11:22:31 GMT 51.713104 -2.592848 8,000 45 316 0
2018-10-12 11:22:24 GMT 51.707336 -2.602943 8,000 39 317 0
2018-10-12 11:22:21 GMT 51.702026 -2.609847 8,000 33 317 -64
2018-10-12 11:22:18 GMT 51.700195 -2.611851 8,000 28 316 -64
2018-10-12 11:22:14 GMT 51.693054 -2.618383 8,000 22 314 -64
2018-10-12 11:22:11 GMT 51.691185 -2.619629 8,000 19 313 -64
2018-10-12 11:22:08 GMT 51.686279 -2.622466 8,000 11 309 -128
2018-10-12 11:22:03 GMT 51.679001 -2.625213 8,000 7 306 -128
2018-10-12 11:22:00 GMT 51.673683 -2.626114 8,000 4 303 -128
2018-10-12 11:21:56 GMT 51.670349 -2.626252 8,000 0 299 -128
2018-10-12 11:21:53 GMT 51.665268 -2.625732 8,000 351 289 -128
2018-10-12 11:21:49 GMT 51.659271 -2.623951 8,000 344 282 -192
2018-10-12 11:21:45 GMT 51.654739 -2.621798 8,000 338 274 -256
2018-10-12 11:21:41 GMT 51.649521 -2.618161 8,000 332 267 -256
2018-10-12 11:21:38 GMT 51.646309 -2.615280 8,000 329 264 -128
2018-10-12 11:21:34 GMT 51.642540 -2.611618 8,000 328 263 0
2018-10-12 11:21:28 GMT 51.636486 -2.605362 8,000 328 263 0
2018-10-12 11:21:24 GMT 51.632484 -2.601242 8,000 328 263 0
2018-10-12 11:21:21 GMT 51.629642 -2.598343 8,000 328 263 0
2018-10-12 11:21:18 GMT 51.625641 -2.594223 8,000 328 264 -64
2018-10-12 11:21:12 GMT 51.619728 -2.588120 8,000 328 264 -64
2018-10-12 11:21:09 GMT 51.617538 -2.585907 8,000 328 264 0
2018-10-12 11:21:05 GMT 51.612808 -2.581045 8,000 328 264 0
2018-10-12 11:21:02 GMT 51.609116 -2.577286 8,000 326 262 0
2018-10-12 11:20:59 GMT 51.603062 -2.570953 8,025 327 262 -64
2018-10-12 11:20:55 GMT 51.602554 -2.570430 8,000 327 263 -64
2018-10-12 11:20:51 GMT 51.597839 -2.565233 8,000 324 259 64
2018-10-12 11:20:48 GMT 51.595779 -2.562784 8,000 286 217 -128
2018-10-12 11:20:45 GMT 51.592117 -2.558033 8,000 319 252 -64
2018-10-12 11:20:42 GMT 51.590424 -2.555361 8,000 314 246 -128
2018-10-12 11:20:39 GMT 51.584629 -2.542572 8,000 302 233 -128
2018-10-12 11:20:34 GMT 51.584629 -2.542572 8,000 288 220 -128
2018-10-12 11:20:28 GMT 51.581928 -2.529984 8,000 281 213 -128
2018-10-12 11:20:25 GMT 51.581451 -2.525222 8,000 276 209 0
2018-10-12 11:20:22 GMT 51.581451 -2.525222 8,000 276 209 0
2018-10-12 11:20:19 GMT 51.581135 -2.520676 8,000 276 209 0
2018-10-12 11:20:16 GMT 51.580765 -2.513865 8,000 275 210 0
2018-10-12 11:20:12 GMT 51.580437 -2.508087 8,000 275 210 0
2018-10-12 11:20:08 GMT 51.580170 -2.503175 8,000 275 210 -64
2018-10-12 11:20:05 GMT 51.579849 -2.497163 8,000 275 211 -64
2018-10-12 11:20:02 GMT 51.579437 -2.489071 8,000 275 212 0
2018-10-12 11:19:56 GMT 51.579025 -2.481797 8,000 275 212 -64
2018-10-12 11:19:53 GMT 51.578842 -2.478159 8,000 275 212 -128
2018-10-12 11:19:49 GMT 51.578568 -2.472889 8,000 275 212 -128
2018-10-12 11:19:46 GMT 51.578339 -2.468806 8,025 275 211 -128
2018-10-12 11:19:43 GMT 51.578064 -2.463239 8,025 275 210 -128
2018-10-12 11:19:39 GMT 51.577744 -2.457671 8,025 275 209 -128
2018-10-12 11:19:36 GMT 51.577377 -2.451139 8,025 275 209 -768
2018-10-12 11:19:33 GMT 51.577194 -2.447947 8,075 275 209 -896
2018-10-12 11:19:30 GMT 51.576946 -2.443542 8,075 275 209 -960
2018-10-12 11:19:26 GMT 51.576645 -2.438148 8,100 275 208 -1024
2018-10-12 11:19:23 GMT 51.576324 -2.432358 8,550 275 208 -1024
2018-10-12 11:19:19 GMT 51.576050 -2.426568 8,250 275 208 -1024
2018-10-12 11:19:15 GMT 51.575737 -2.420578 8,300 275 207 -1024
2018-10-12 11:19:12 GMT 51.575409 -2.414171 8,350 275 207 -1024
2018-10-12 11:19:09 GMT 51.575226 -2.410460 8,400 275 207 -1024
2018-10-12 11:19:05 GMT 51.574993 -2.406082 8,525 275 207 -1088
2018-10-12 11:19:02 GMT 51.574768 -2.401552 8,500 275 207 -1152
2018-10-12 11:18:59 GMT 51.574528 -2.396164 8,575 275 207 -1152
2018-10-12 11:18:56 GMT 51.574245 -2.390518 8,625 275 207 -1088
2018-10-12 11:18:53 GMT 51.574036 -2.386557 8,675 275 207 -1024
2018-10-12 11:18:50 GMT 51.573830 -2.381439 8,700 275 207 -1024
2018-10-12 11:18:46 GMT 51.573502 -2.374420 8,800 274 207 -1088
2018-10-12 11:18:43 GMT 51.573349 -2.371043 8,850 274 208 -1088
2018-10-12 11:18:40 GMT 51.573166 -2.366811 8,950 274 207 -1088
2018-10-12 11:18:37 GMT 51.572990 -2.362366 8,925 274 208 -1088
2018-10-12 11:18:34 GMT 51.572758 -2.356949 9,125 274 209 -1152
2018-10-12 11:18:30 GMT 51.572525 -2.350616 9,075 274 209 -1152
2018-10-12 11:18:27 GMT 51.572296 -2.345433 9,100 274 209 -1152
2018-10-12 11:18:23 GMT 51.572105 -2.340775 9,200 274 210 -1344
2018-10-12 11:18:19 GMT 51.571873 -2.334366 9,300 274 210 -1408
2018-10-12 11:18:16 GMT 51.571640 -2.328033 9,375 274 210 -1280
2018-10-12 11:18:13 GMT 51.571548 -2.325134 9,400 274 210 -1280
2018-10-12 11:18:09 GMT 51.571243 -2.318115 9,525 274 210 -1280
2018-10-12 11:18:06 GMT 51.571079 -2.313461 9,550 274 211 -1152
2018-10-12 11:18:02 GMT 51.570602 -2.301636 9,700 274 211 -1280
2018-10-12 11:17:59 GMT 51.570602 -2.301636 9,700 274 211 -1280
2018-10-12 11:17:53 GMT 51.570290 -2.293472 9,825 274 211 -1536
2018-10-12 11:17:50 GMT 51.569916 -2.283969 9,975 274 210 -1216
2018-10-12 11:17:42 GMT 51.569592 -2.275620 10,250 275 215 -1408
2018-10-12 11:17:39 GMT 51.569412 -2.270829 10,125 274 213 -896
2018-10-12 11:17:33 GMT 51.569046 -2.261922 10,175 275 217 -1344
2018-10-12 11:17:30 GMT 51.568802 -2.257156 10,225 274 215 -1472
2018-10-12 11:17:27 GMT 51.568615 -2.252808 10,325 275 215 -1408
2018-10-12 11:17:23 GMT 51.568336 -2.246628 10,500 275 217 -1344
2018-10-12 11:17:20 GMT 51.568054 -2.240372 10,475 275 216 -1088
2018-10-12 11:17:17 GMT 51.567776 -2.234344 10,525 274 216 -1152
2018-10-12 11:17:14 GMT 51.567627 -2.231932 10,600 275 217 -1280
2018-10-12 11:17:11 GMT 51.567398 -2.226661 10,825 274 218 -1344
2018-10-12 11:17:08 GMT 51.567215 -2.222727 10,825 274 218 -1344
2018-10-12 11:17:05 GMT 51.566940 -2.216863 10,800 274 218 -1280
2018-10-12 11:17:02 GMT 51.566704 -2.211151 11,050 274 222 -1152
2018-10-12 11:16:59 GMT 51.566528 -2.206693 10,900 274 218 -1152
2018-10-12 11:16:55 GMT 51.566254 -2.200309 10,975 274 219 -1088
2018-10-12 11:16:52 GMT 51.566071 -2.196226 11,050 274 222 -1152
2018-10-12 11:16:49 GMT 51.565681 -2.186050 11,250 274 223 -1216
2018-10-12 11:16:43 GMT 51.565475 -2.180786 11,100 274 221 -1088
2018-10-12 11:16:40 GMT 51.565262 -2.175598 11,200 274 222 -1216
2018-10-12 11:16:36 GMT 51.565018 -2.169800 11,350 274 223 -1216
2018-10-12 11:16:31 GMT 51.564697 -2.161040 11,400 274 224 -1280
2018-10-12 11:16:28 GMT 51.564472 -2.155304 11,500 274 224 -1344
2018-10-12 11:16:25 GMT 51.564285 -2.151242 11,500 274 224 -1344
2018-10-12 11:16:22 GMT 51.564102 -2.146936 11,600 274 224 -1408
2018-10-12 11:16:19 GMT 51.563828 -2.140255 11,600 274 224 -1408
2018-10-12 11:16:16 GMT 51.563599 -2.134614 11,750 274 224 -1280
2018-10-12 11:16:13 GMT 51.563461 -2.131125 11,775 274 224 -1472
2018-10-12 11:16:09 GMT 51.563213 -2.125168 11,825 274 224 -1472
2018-10-12 11:16:06 GMT 51.562775 -2.114720 12,025 274 225 -1088
2018-10-12 11:15:59 GMT 51.562237 -2.101974 12,150 274 225 -1152
2018-10-12 11:15:56 GMT 51.562237 -2.101974 12,125 274 226 -1280
2018-10-12 11:15:53 GMT 51.562141 -2.099380 12,125 274 226 -1280
2018-10-12 11:15:50 GMT 51.561905 -2.093564 12,300 274 227 -1472
2018-10-12 11:15:47 GMT 51.561630 -2.086883 12,375 274 227 -1536
2018-10-12 11:15:44 GMT 51.561443 -2.082443 12,475 274 227 -1536
2018-10-12 11:15:41 GMT 51.561306 -2.078018 12,425 274 226 -1536
2018-10-12 11:15:38 GMT 51.561028 -2.072067 13,025 274 226 -1408
2018-10-12 11:15:35 GMT 51.560886 -2.068176 12,600 274 227 -1408
2018-10-12 11:15:32 GMT 51.560654 -2.062607 13,000 274 227 -1472
2018-10-12 11:15:28 GMT 51.560329 -2.054596 12,775 274 227 -1472
2018-10-12 11:15:25 GMT 51.560120 -2.050286 12,850 275 227 -1216
2018-10-12 11:15:19 GMT 51.559708 -2.040710 12,975 274 227 -1280
2018-10-12 11:15:16 GMT 51.559349 -2.032547 13,050 275 227 -1216
2018-10-12 11:15:13 GMT 51.559303 -2.031708 13,075 274 228 -1216
2018-10-12 11:15:10 GMT 51.558979 -2.024155 13,150 274 229 -1216
2018-10-12 11:15:07 GMT 51.558838 -2.020519 13,250 274 229 -1152
2018-10-12 11:15:04 GMT 51.558605 -2.015457 13,300 274 230 -1344
2018-10-12 11:15:01 GMT 51.558334 -2.009681 13,300 274 229 -1280
2018-10-12 11:14:58 GMT 51.558151 -2.005673 13,375 275 229 -1472
2018-10-12 11:14:55 GMT 51.557861 -1.998596 13,425 275 229 -1472
2018-10-12 11:14:52 GMT 51.557674 -1.995163 13,525 275 229 -1344
2018-10-12 11:14:49 GMT 51.557442 -1.990356 13,575 274 229 -1344
2018-10-12 11:14:46 GMT 51.557236 -1.985408 13,625 275 230 -1280
2018-10-12 11:14:43 GMT 51.556961 -1.979469 13,700 275 230 -1280
2018-10-12 11:14:40 GMT 51.556648 -1.973190 13,775 275 231 -1216
2018-10-12 11:14:37 GMT 51.556458 -1.968705 13,850 275 231 -1216
2018-10-12 11:14:34 GMT 51.556274 -1.964920 13,850 274 231 -1216
2018-10-12 11:14:31 GMT 51.556000 -1.958758 13,950 274 232 -1344
2018-10-12 11:14:28 GMT 51.555817 -1.954453 14,275 274 234 -1088
2018-10-12 11:14:25 GMT 51.555626 -1.949844 14,100 274 232 -1344
2018-10-12 11:14:22 GMT 51.555302 -1.942520 14,525 272 260 -1216
2018-10-12 11:14:19 GMT 51.555130 -1.938345 14,275 274 233 -1344
2018-10-12 11:14:16 GMT 51.554882 -1.932526 14,275 274 233 -1216
2018-10-12 11:14:13 GMT 51.554649 -1.926193 14,350 274 234 -1152
2018-10-12 11:14:10 GMT 51.554508 -1.922760 14,375 274 235 -1088
2018-10-12 11:14:07 GMT 51.554230 -1.915817 14,450 274 235 -1024
2018-10-12 11:14:04 GMT 51.554043 -1.911392 14,700 273 253 -896
2018-10-12 11:14:01 GMT 51.553810 -1.905365 14,525 274 238 -768
2018-10-12 11:13:58 GMT 51.553711 -1.902491 14,575 274 239 -832
2018-10-12 11:13:55 GMT 51.553482 -1.896552 14,650 273 248 -768
2018-10-12 11:13:52 GMT 51.553253 -1.890411 14,625 274 242 -832
2018-10-12 11:13:49 GMT 51.553116 -1.885863 14,825 273 247 -768
2018-10-12 11:13:46 GMT 51.552879 -1.880264 14,700 274 244 -768
2018-10-12 11:13:43 GMT 51.552505 -1.868210 14,775 273 248 -768
2018-10-12 11:13:40 GMT 51.552505 -1.868210 14,800 273 248 -768
2018-10-12 11:13:37 GMT 51.552338 -1.862702 14,925 273 253 -896
2018-10-12 11:13:33 GMT 51.552063 -1.852384 14,975 273 252 -832
2018-10-12 11:13:27 GMT 51.551853 -1.845856 14,950 273 253 -896
2018-10-12 11:13:24 GMT 51.551716 -1.839752 14,975 273 255 -896
2018-10-12 11:13:21 GMT 51.551559 -1.833826 15,100 273 257 -896
2018-10-12 11:13:18 GMT 51.551342 -1.827087 15,075 273 257 -896
2018-10-12 11:13:15 GMT 51.551250 -1.823044 15,150 272 258 -896
2018-10-12 11:13:12 GMT 51.551102 -1.817124 15,150 272 259 -1088
2018-10-12 11:13:09 GMT 51.551010 -1.811185 15,225 272 261 -1024
2018-10-12 11:13:03 GMT 51.550785 -1.800003 15,300 272 269 -1088
2018-10-12 11:13:00 GMT 51.550598 -1.787654 15,375 272 273 -2112
2018-10-12 11:12:53 GMT 51.550369 -1.774069 15,475 272 272 -1792
2018-10-12 11:12:50 GMT 51.550369 -1.774069 15,575 272 273 -2304
2018-10-12 11:12:47 GMT 51.550278 -1.766646 15,650 272 273 -2176
2018-10-12 11:12:42 GMT 51.550087 -1.755829 15,800 272 273 -2368
2018-10-12 11:12:39 GMT 51.550003 -1.751132 17,100 284 285 -2240
2018-10-12 11:12:36 GMT 51.549820 -1.738735 16,125 272 273 -2368
2018-10-12 11:12:33 GMT 51.549820 -1.738735 16,150 272 273 -2432
2018-10-12 11:12:30 GMT 51.549667 -1.731262 16,225 272 273 -2432
2018-10-12 11:12:27 GMT 51.549545 -1.727006 16,325 273 273 -2368
2018-10-12 11:12:24 GMT 51.549408 -1.721587 16,475 273 273 -2368
2018-10-12 11:12:21 GMT 51.549248 -1.715240 16,875 277 276 -2240
2018-10-12 11:12:18 GMT 51.549015 -1.707916 16,775 275 274 -2240
2018-10-12 11:12:15 GMT 51.548813 -1.702287 17,150 278 277 -2112
2018-10-12 11:12:12 GMT 51.548504 -1.696472 16,925 279 278 -2112
2018-10-12 11:12:09 GMT 51.547852 -1.688406 17,150 284 285 -2176
2018-10-12 11:12:06 GMT 51.547478 -1.684113 17,150 281 280 -1920
2018-10-12 11:12:03 GMT 51.546875 -1.679001 17,275 283 283 -1984
2018-10-12 11:12:00 GMT 51.545849 -1.670990 18,075 284 289 -1728
2018-10-12 11:11:57 GMT 51.545059 -1.665691 17,425 284 285 -2112
2018-10-12 11:11:54 GMT 51.544128 -1.659470 17,550 284 285 -2240
2018-10-12 11:11:51 GMT 51.542870 -1.651077 17,675 284 285 -2240
2018-10-12 11:11:48 GMT 51.541214 -1.640081 17,800 284 285 -2240
2018-10-12 11:11:45 GMT 51.541214 -1.640081 17,875 284 285 -2176
2018-10-12 11:11:41 GMT 51.540169 -1.632996 18,625 284 289 -1728
2018-10-12 11:11:38 GMT 51.539192 -1.626511 18,100 284 286 -2112
2018-10-12 11:11:35 GMT 51.538193 -1.619741 18,225 284 288 -1856
2018-10-12 11:11:32 GMT 51.537369 -1.614322 18,275 284 288 -1920
2018-10-12 11:11:29 GMT 51.536224 -1.606379 18,400 284 289 -1728
2018-10-12 11:11:26 GMT 51.535469 -1.601334 18,525 284 290 -1600
2018-10-12 11:11:23 GMT 51.534393 -1.593760 18,600 283 291 -1344
2018-10-12 11:11:20 GMT 51.533203 -1.585594 18,625 283 291 -1344
2018-10-12 11:11:17 GMT 51.532444 -1.580505 18,675 283 291 -1280
2018-10-12 11:11:14 GMT 51.532013 -1.577429 20,325 283 294 -1920
2018-10-12 11:11:11 GMT 51.530777 -1.568521 18,950 283 295 -1728
2018-10-12 11:11:08 GMT 51.529835 -1.561813 18,850 283 295 -1344
2018-10-12 11:11:04 GMT 51.529083 -1.556718 18,975 283 295 -1984
2018-10-12 11:11:01 GMT 51.527973 -1.548843 19,075 283 294 -1856
2018-10-12 11:10:58 GMT 51.526997 -1.541824 19,225 283 294 -1856
2018-10-12 11:10:55 GMT 51.525925 -1.534374 19,275 283 294 -1856
2018-10-12 11:10:52 GMT 51.524948 -1.527557 19,350 283 294 -1728
2018-10-12 11:10:49 GMT 51.524323 -1.523091 19,400 284 295 -1600
2018-10-12 11:10:46 GMT 51.523132 -1.514969 19,525 284 296 -1792
2018-10-12 11:10:43 GMT 51.522354 -1.509804 19,650 284 297 -1792
2018-10-12 11:10:40 GMT 51.521175 -1.501923 19,625 285 302 -2112
2018-10-12 11:10:37 GMT 51.520527 -1.497803 19,700 284 298 -1728
2018-10-12 11:10:34 GMT 51.519268 -1.489639 19,875 285 300 -2112
2018-10-12 11:10:31 GMT 51.518661 -1.485596 20,025 285 300 -2176
2018-10-12 11:10:28 GMT 51.517406 -1.477814 20,075 285 300 -2240
2018-10-12 11:10:25 GMT 51.516220 -1.470238 20,125 284 301 -2176
2018-10-12 11:10:21 GMT 51.515125 -1.463318 20,475 285 302 -2112
2018-10-12 11:10:18 GMT 51.513702 -1.454204 20,450 285 302 -2112
2018-10-12 11:10:14 GMT 51.512470 -1.446152 20,500 285 302 -2048
2018-10-12 11:10:11 GMT 51.511215 -1.438370 20,625 285 303 -2048
2018-10-12 11:10:07 GMT 51.510269 -1.432380 20,775 285 304 -2048
2018-10-12 11:10:04 GMT 51.509075 -1.424866 20,925 285 304 -2112
2018-10-12 11:10:01 GMT 51.508373 -1.420288 20,875 285 304 -2112
2018-10-12 11:09:58 GMT 51.507202 -1.412931 21,000 285 304 -2112
2018-10-12 11:09:55 GMT 51.506149 -1.406176 21,425 285 305 -1920
2018-10-12 11:09:52 GMT 51.504791 -1.397552 22,000 284 307 -1792
2018-10-12 11:09:49 GMT 51.503719 -1.390762 21,325 284 307 -1728
2018-10-12 11:09:46 GMT 51.502670 -1.384129 21,500 284 308 -1920
2018-10-12 11:09:43 GMT 51.502029 -1.379823 21,425 284 307 -1856
2018-10-12 11:09:40 GMT 51.501160 -1.374108 21,550 284 308 -1920
2018-10-12 11:09:37 GMT 51.500015 -1.366536 21,700 284 308 -1920
2018-10-12 11:09:34 GMT 51.499054 -1.360078 21,975 279 309 -64
2018-10-12 11:09:31 GMT 51.497910 -1.352061 21,850 282 308 -1216
2018-10-12 11:09:28 GMT 51.497314 -1.347384 21,925 282 308 -960
2018-10-12 11:09:25 GMT 51.495525 -1.332855 22,000 280 309 -320
2018-10-12 11:09:19 GMT 51.494797 -1.325931 22,000 279 309 -64
2018-10-12 11:09:16 GMT 51.494083 -1.318741 22,000 278 309 -64
2018-10-12 11:09:13 GMT 51.493618 -1.313171 22,000 278 308 -64
2018-10-12 11:09:10 GMT 51.492783 -1.303068 22,000 278 308 0
2018-10-12 11:09:07 GMT 51.492313 -1.296692 22,000 278 309 0
2018-10-12 11:09:04 GMT 51.491730 -1.289483 22,000 277 309 0
2018-10-12 11:09:01 GMT 51.491245 -1.282654 22,000 277 309 0
2018-10-12 11:08:58 GMT 51.490871 -1.277924 22,000 277 309 0
2018-10-12 11:08:55 GMT 51.490219 -1.269737 22,000 277 309 0
2018-10-12 11:08:52 GMT 51.489304 -1.257341 22,000 277 311 0
2018-10-12 11:08:49 GMT 51.489304 -1.257341 22,000 277 310 0
2018-10-12 11:08:46 GMT 51.488823 -1.250687 22,000 277 310 0
2018-10-12 11:08:43 GMT 51.488159 -1.242123 22,000 277 311 0
2018-10-12 11:08:40 GMT 51.487755 -1.236496 22,000 277 311 0
2018-10-12 11:08:37 GMT 51.487103 -1.227798 22,000 277 311 0
2018-10-12 11:08:34 GMT 51.486774 -1.223297 22,000 277 311 0
2018-10-12 11:08:31 GMT 51.486237 -1.215994 22,000 277 312 -64
2018-10-12 11:08:28 GMT 51.485657 -1.208115 22,000 277 312 0
2018-10-12 11:08:25 GMT 51.484772 -1.196248 22,000 277 312 0
2018-10-12 11:08:22 GMT 51.484772 -1.196248 22,000 277 312 -64
2018-10-12 11:08:19 GMT 51.484177 -1.188082 22,000 277 310 0
2018-10-12 11:08:16 GMT 51.483582 -1.179768 22,000 277 310 0
2018-10-12 11:08:13 GMT 51.483051 -1.172714 22,000 277 310 0
2018-10-12 11:08:10 GMT 51.482620 -1.166407 22,000 277 309 0
2018-10-12 11:08:07 GMT 51.481701 -1.153717 22,000 277 307 0
2018-10-12 11:08:04 GMT 51.481701 -1.153717 22,000 277 307 0
2018-10-12 11:08:01 GMT 51.480816 -1.141281 22,000 277 307 0
2018-10-12 11:07:58 GMT 51.480816 -1.141281 22,000 277 307 0
2018-10-12 11:07:55 GMT 51.480240 -1.133522 22,000 277 307 0
2018-10-12 11:07:52 GMT 51.479828 -1.128029 22,000 284 315 0
2018-10-12 11:07:49 GMT 51.478592 -1.112069 22,000 277 307 -64
2018-10-12 11:07:46 GMT 51.478592 -1.112069 22,000 277 307 -64
2018-10-12 11:07:43 GMT 51.478302 -1.108017 22,000 278 308 0
2018-10-12 11:07:40 GMT 51.477650 -1.099701 22,000 278 308 0
2018-10-12 11:07:37 GMT 51.477127 -1.092917 22,000 278 308 0
2018-10-12 11:07:34 GMT 51.475983 -1.078219 22,000 278 308 0
2018-10-12 11:07:31 GMT 51.475983 -1.078219 22,000 278 308 0
2018-10-12 11:07:28 GMT 51.475616 -1.073765 22,000 278 308 0
2018-10-12 11:07:25 GMT 51.474930 -1.065006 22,000 278 308 0
2018-10-12 11:07:22 GMT 51.474346 -1.057739 22,000 278 308 0
2018-10-12 11:07:19 GMT 51.473969 -1.052980 22,000 278 308 0
2018-10-12 11:07:16 GMT 51.473415 -1.045456 22,000 278 309 -64
2018-10-12 11:07:13 GMT 51.472763 -1.037140 22,000 278 309 0
2018-10-12 11:07:10 GMT 51.472389 -1.032562 22,000 278 309 0
2018-10-12 11:07:07 GMT 51.471725 -1.024549 22,000 280 310 0
2018-10-12 11:07:04 GMT 51.470993 -1.016310 22,000 280 311 0
2018-10-12 11:07:01 GMT 51.470203 -1.008682 22,000 280 311 0
2018-10-12 11:06:58 GMT 51.469849 -1.005620 22,000 282 313 64
2018-10-12 11:06:55 GMT 51.468750 -0.997158 22,000 284 315 0
2018-10-12 11:06:52 GMT 51.467922 -0.991592 22,000 286 317 -64
2018-10-12 11:06:49 GMT 51.466946 -0.985718 22,000 289 317 -64
2018-10-12 11:06:46 GMT 51.465176 -0.976257 22,000 288 318 0
2018-10-12 11:06:43 GMT 51.464245 -0.971756 22,000 289 318 -64
2018-10-12 11:06:40 GMT 51.462204 -0.961972 22,000 289 318 -64
2018-10-12 11:06:37 GMT 51.461288 -0.957666 22,000 289 317 -64
2018-10-12 11:06:34 GMT 51.459587 -0.949478 22,000 289 317 -64
2018-10-12 11:06:31 GMT 51.458611 -0.944977 22,025 289 317 -192
2018-10-12 11:06:28 GMT 51.456841 -0.936508 22,125 304 348 -1472
2018-10-12 11:06:25 GMT 51.455475 -0.929978 22,175 289 317 -512
2018-10-12 11:06:22 GMT 51.454422 -0.925004 22,100 289 317 -768
2018-10-12 11:06:19 GMT 51.452374 -0.915298 22,100 289 317 -896
2018-10-12 11:06:16 GMT 51.451080 -0.909044 22,175 289 317 -960
2018-10-12 11:06:13 GMT 51.449203 -0.900062 22,150 289 317 -960
2018-10-12 11:06:10 GMT 51.448742 -0.897903 22,225 289 317 -960
2018-10-12 11:06:07 GMT 51.447006 -0.889818 22,275 289 318 -960
2018-10-12 11:06:04 GMT 51.445576 -0.882950 22,350 289 318 -960
2018-10-12 11:06:01 GMT 51.444553 -0.877991 22,375 289 318 -896
2018-10-12 11:05:58 GMT 51.443062 -0.870895 22,375 289 318 -896
2018-10-12 11:05:55 GMT 51.441200 -0.861969 22,450 289 318 -896
2018-10-12 11:05:52 GMT 51.440414 -0.858196 22,900 295 330 -1664
2018-10-12 11:05:49 GMT 51.438721 -0.850104 22,650 289 319 -896
2018-10-12 11:05:46 GMT 51.437290 -0.843277 22,600 289 320 -896
2018-10-12 11:05:40 GMT 51.434738 -0.831027 22,700 289 320 -1088
2018-10-12 11:05:37 GMT 51.433044 -0.822935 22,700 290 322 -1280
2018-10-12 11:05:34 GMT 51.431900 -0.817591 22,750 290 323 -1408
2018-10-12 11:05:31 GMT 51.430355 -0.810623 22,775 291 325 -1536
2018-10-12 11:05:28 GMT 51.427872 -0.800517 22,925 295 331 -1664
2018-10-12 11:05:25 GMT 51.426910 -0.797195 23,025 298 334 -1664
2018-10-12 11:05:22 GMT 51.424988 -0.790719 23,050 299 336 -1664
2018-10-12 11:05:19 GMT 51.422058 -0.781959 23,150 302 339 -1664
2018-10-12 11:05:16 GMT 51.419647 -0.775604 23,300 304 342 -1600
2018-10-12 11:05:13 GMT 51.416977 -0.768969 23,400 304 341 -1664
2018-10-12 11:05:07 GMT 51.411987 -0.756869 23,500 304 342 -1600
2018-10-12 11:05:04 GMT 51.409058 -0.749668 23,500 304 342 -1600
2018-10-12 11:05:01 GMT 51.407318 -0.745511 23,675 304 342 -1600
2018-10-12 11:04:57 GMT 51.402889 -0.734711 23,725 304 343 -1600
2018-10-12 11:04:54 GMT 51.401165 -0.730515 23,825 304 345 -1536
2018-10-12 11:04:51 GMT 51.398254 -0.723539 23,875 304 344 -1600
2018-10-12 11:04:48 GMT 51.395161 -0.715942 23,975 304 344 -1536
2018-10-12 11:04:45 GMT 51.393311 -0.711513 24,050 304 346 -1472
2018-10-12 11:04:42 GMT 51.390179 -0.703964 24,175 304 347 -1472
2018-10-12 11:04:39 GMT 51.387451 -0.697261 24,300 304 346 -1472
2018-10-12 11:04:36 GMT 51.384781 -0.690689 24,300 304 347 -1472
2018-10-12 11:04:33 GMT 51.382278 -0.684715 24,525 303 351 -1536
2018-10-12 11:04:30 GMT 51.380032 -0.679245 24,350 304 347 -1472
2018-10-12 11:04:27 GMT 51.373764 -0.663782 24,500 303 348 -1472
2018-10-12 11:04:23 GMT 51.373764 -0.663782 24,525 303 350 -1536
2018-10-12 11:04:20 GMT 51.370907 -0.656738 24,575 303 350 -1472
2018-10-12 11:04:16 GMT 51.367371 -0.647964 24,750 303 351 -1536
2018-10-12 11:04:13 GMT 51.365414 -0.643158 24,825 303 351 -1472
2018-10-12 11:04:10 GMT 51.363281 -0.637875 24,875 303 351 -1472
2018-10-12 11:04:07 GMT 51.359207 -0.627854 24,900 303 352 -1536
2018-10-12 11:04:04 GMT 51.356430 -0.621033 25,025 303 353 -1600
2018-10-12 11:04:01 GMT 51.354263 -0.615680 25,150 303 354 -1600
2018-10-12 11:03:58 GMT 51.351913 -0.609894 25,100 303 353 -1600
2018-10-12 11:03:55 GMT 51.348679 -0.601873 25,225 303 355 -1600
2018-10-12 11:03:52 GMT 51.346329 -0.596008 25,300 303 355 -1600
2018-10-12 11:03:49 GMT 51.343918 -0.590070 25,350 303 356 -1664
2018-10-12 11:03:46 GMT 51.338879 -0.577545 25,550 303 357 -1664
2018-10-12 11:03:40 GMT 51.335060 -0.568161 25,725 303 356 -1408
2018-10-12 11:03:37 GMT 51.333340 -0.563736 25,750 303 357 -1536
2018-10-12 11:03:34 GMT 51.329941 -0.555267 25,750 303 357 -1472
2018-10-12 11:03:31 GMT 51.328033 -0.550461 25,875 303 356 -960
2018-10-12 11:03:28 GMT 51.322769 -0.537262 25,925 303 356 -768
2018-10-12 11:03:25 GMT 51.322769 -0.537262 25,950 302 354 -128
2018-10-12 11:03:22 GMT 51.320114 -0.530536 25,975 303 356 -448
2018-10-12 11:03:19 GMT 51.316589 -0.521554 25,975 302 355 -256
2018-10-12 11:03:16 GMT 51.314804 -0.516951 26,000 302 354 -128
2018-10-12 11:03:13 GMT 51.311508 -0.508489 26,000 302 354 -128
2018-10-12 11:03:10 GMT 51.308121 -0.499804 26,050 302 352 -192
2018-10-12 11:03:07 GMT 51.306244 -0.495053 26,025 302 352 -320
2018-10-12 11:03:04 GMT 51.304012 -0.489273 26,025 302 352 -320
2018-10-12 11:03:01 GMT 51.299076 -0.476608 26,050 302 351 -576
2018-10-12 11:02:58 GMT 51.299076 -0.476608 26,075 302 351 -640
2018-10-12 11:02:55 GMT 51.296173 -0.469072 26,125 302 351 -960
2018-10-12 11:02:52 GMT 51.294094 -0.463715 26,150 302 351 -1088
2018-10-12 11:02:49 GMT 51.290558 -0.454636 26,175 302 354 -1728
2018-10-12 11:02:46 GMT 51.288464 -0.449066 26,225 302 352 -1600
2018-10-12 11:02:42 GMT 51.285252 -0.440826 26,425 302 352 -1664
2018-10-12 11:02:39 GMT 51.282578 -0.433960 26,400 302 352 -1664
2018-10-12 11:02:36 GMT 51.280315 -0.428085 26,475 302 354 -1728
2018-10-12 11:02:33 GMT 51.277012 -0.419388 26,600 302 354 -1792
2018-10-12 11:02:30 GMT 51.274685 -0.413361 26,700 302 354 -1856
2018-10-12 11:02:27 GMT 51.272915 -0.408707 26,850 301 355 -1920
2018-10-12 11:02:24 GMT 51.269608 -0.400009 26,825 301 355 -1920
2018-10-12 11:02:21 GMT 51.267151 -0.393429 26,925 301 355 -1984
2018-10-12 11:02:18 GMT 51.264442 -0.386276 27,075 301 356 -1856
2018-10-12 11:02:15 GMT 51.262344 -0.380661 27,100 301 356 -1792
2018-10-12 11:02:12 GMT 51.258728 -0.370863 27,250 301 357 -1792
2018-10-12 11:02:09 GMT 51.257492 -0.367522 27,525 301 358 -1792
2018-10-12 11:02:06 GMT 51.254898 -0.360413 27,350 300 362 -2048
2018-10-12 11:02:03 GMT 51.252365 -0.353567 27,425 301 358 -1856
2018-10-12 11:02:00 GMT 51.250351 -0.348074 27,525 301 358 -1856
2018-10-12 11:01:57 GMT 51.248055 -0.341873 27,600 301 359 -1920
2018-10-12 11:01:54 GMT 51.245041 -0.333673 27,825 301 359 -2112
2018-10-12 11:01:51 GMT 51.242111 -0.325581 27,825 301 359 -2112
2018-10-12 11:01:48 GMT 51.239910 -0.319595 28,000 300 360 -2112
2018-10-12 11:01:45 GMT 51.236801 -0.311032 28,075 300 360 -2112
2018-10-12 11:01:42 GMT 51.235062 -0.306207 28,175 300 360 -2112
2018-10-12 11:01:39 GMT 51.231995 -0.297893 28,225 300 360 -2176
2018-10-12 11:01:36 GMT 51.227097 -0.284308 28,400 301 360 -2240
2018-10-12 11:01:33 GMT 51.227097 -0.284308 28,450 301 360 -2112
2018-10-12 11:01:30 GMT 51.225037 -0.278741 28,550 301 360 -1984
2018-10-12 11:01:27 GMT 51.221741 -0.269685 28,825 301 361 -2048
2018-10-12 11:01:24 GMT 51.219658 -0.263901 28,700 301 361 -1984
2018-10-12 11:01:21 GMT 51.217564 -0.258102 28,775 301 361 -1984
2018-10-12 11:01:18 GMT 51.214256 -0.249100 28,975 300 362 -2048
2018-10-12 11:01:12 GMT 51.209137 -0.234985 29,150 300 362 -2048
2018-10-12 11:01:09 GMT 51.206680 -0.228115 29,650 300 362 -2048
2018-10-12 11:01:06 GMT 51.204987 -0.223438 29,300 300 363 -1984
2018-10-12 11:01:03 GMT 51.202480 -0.216599 29,400 300 363 -1984
2018-10-12 11:01:00 GMT 51.199223 -0.207596 29,575 300 363 -1728
2018-10-12 11:00:57 GMT 51.193954 -0.193003 29,650 300 363 -1728
2018-10-12 11:00:54 GMT 51.193954 -0.193003 29,725 300 364 -1536
2018-10-12 11:00:51 GMT 51.192379 -0.188675 29,825 300 364 -1344
2018-10-12 11:00:48 GMT 51.186375 -0.172119 29,950 300 365 -704
2018-10-12 11:00:45 GMT 51.186375 -0.172119 29,900 300 365 -896
2018-10-12 11:00:42 GMT 51.184231 -0.166168 29,950 300 366 -512
2018-10-12 11:00:39 GMT 51.181160 -0.157700 29,975 300 370 -64
2018-10-12 11:00:36 GMT 51.179672 -0.153512 30,000 300 372 -64
2018-10-12 11:00:33 GMT 51.176834 -0.145717 30,000 300 367 -64
2018-10-12 11:00:30 GMT 51.174175 -0.138321 30,000 300 369 -64
2018-10-12 11:00:27 GMT 51.172028 -0.132281 30,000 300 371 -64
2018-10-12 11:00:24 GMT 51.168640 -0.122705 30,000 300 390 -64
2018-10-12 11:00:21 GMT 51.166351 -0.116321 30,000 300 374 -64
2018-10-12 11:00:17 GMT 51.163700 -0.108871 30,000 300 375 -64
2018-10-12 11:00:14 GMT 51.160442 -0.099640 30,000 300 378 -64
2018-10-12 11:00:11 GMT 51.158386 -0.093829 30,000 300 379 -64
2018-10-12 11:00:08 GMT 51.155647 -0.086136 30,000 300 387 -64
2018-10-12 11:00:05 GMT 51.150620 -0.071869 30,000 300 383 -128
2018-10-12 10:59:59 GMT 51.144894 -0.055466 30,025 300 388 -64
2018-10-12 10:59:56 GMT 51.144894 -0.055466 30,000 300 389 -64
2018-10-12 10:59:53 GMT 51.142365 -0.048325 30,025 300 390 -64
2018-10-12 10:59:50 GMT 51.137238 -0.033776 30,000 300 397 0
2018-10-12 10:59:47 GMT 51.137238 -0.033776 30,000 300 395 0
2018-10-12 10:59:44 GMT 51.131699 -0.017890 29,975 299 406 0
2018-10-12 10:59:41 GMT 51.131699 -0.017890 30,000 299 413 0
2018-10-12 10:59:37 GMT 51.127945 -0.007200 29,975 299 406 0
2018-10-12 10:59:34 GMT 51.122635 0.008091 30,000 299 412 64
2018-10-12 10:59:31 GMT 51.120270 0.014801 29,975 299 417 0
2018-10-12 10:59:28 GMT 51.117233 0.023606 29,975 300 418 0
2018-10-12 10:59:25 GMT 51.117233 0.023606 29,975 299 419 0
2018-10-12 10:59:22 GMT 51.113434 0.034444 30,000 299 422 0
2018-10-12 10:59:19 GMT 51.111145 0.041050 30,000 299 422 -64
2018-10-12 10:59:16 GMT 51.108307 0.049210 30,000 299 422 0
2018-10-12 10:59:13 GMT 51.103184 0.064011 30,000 299 422 0
2018-10-12 10:59:10 GMT 51.103184 0.064011 30,000 299 422 0
2018-10-12 10:59:07 GMT 51.100857 0.070801 30,000 299 422 0
2018-10-12 10:59:04 GMT 51.097961 0.079205 30,000 299 422 0
2018-10-12 10:59:00 GMT 51.093224 0.092926 30,000 299 422 0
2018-10-12 10:58:57 GMT 51.090500 0.100881 30,000 299 422 0
2018-10-12 10:58:54 GMT 51.088242 0.107498 30,000 299 422 0
2018-10-12 10:58:51 GMT 51.082561 0.124054 30,000 299 422 0
2018-10-12 10:58:45 GMT 51.078651 0.135422 30,000 299 423 0
2018-10-12 10:58:42 GMT 51.076977 0.140152 30,000 299 423 0
2018-10-12 10:58:39 GMT 51.074066 0.148538 30,000 299 422 0
2018-10-12 10:58:35 GMT 51.070644 0.158386 30,000 318 421 -960
2018-10-12 10:58:32 GMT 51.066788 0.169546 30,000 299 421 0
2018-10-12 10:58:28 GMT 51.062531 0.181720 30,000 299 421 0
2018-10-12 10:58:25 GMT 51.057983 0.194855 30,000 299 420 0
2018-10-12 10:58:22 GMT 51.057983 0.194855 30,000 299 419 0
2018-10-12 10:58:19 GMT 51.055481 0.202059 30,000 299 418 -64
2018-10-12 10:58:16 GMT 51.052723 0.210190 30,000 299 418 -64
2018-10-12 10:58:13 GMT 51.049850 0.218613 30,000 299 418 0
2018-10-12 10:58:10 GMT 51.047043 0.226898 30,000 299 417 -64
2018-10-12 10:58:07 GMT 51.044483 0.234451 30,000 299 417 -64
2018-10-12 10:58:04 GMT 51.041794 0.242442 30,000 299 416 0
2018-10-12 10:58:01 GMT 51.038406 0.252537 30,000 298 416 0
2018-10-12 10:57:58 GMT 51.036148 0.259247 30,000 298 416 0
2018-10-12 10:57:55 GMT 51.033096 0.268423 30,000 298 416 0
2018-10-12 10:57:52 GMT 51.028061 0.283343 30,000 298 416 0
2018-10-12 10:57:49 GMT 51.025864 0.290024 30,000 298 416 0
2018-10-12 10:57:43 GMT 51.021484 0.303116 30,000 298 417 0
2018-10-12 10:57:40 GMT 51.020233 0.306875 30,000 298 416 0
2018-10-12 10:57:37 GMT 51.017948 0.313721 30,000 298 416 0
2018-10-12 10:57:34 GMT 51.015289 0.321647 30,000 298 416 0
2018-10-12 10:57:31 GMT 51.012455 0.330200 30,000 298 416 0
2018-10-12 10:57:28 GMT 51.009659 0.338572 30,000 298 416 0
2018-10-12 10:57:25 GMT 51.006226 0.349039 30,000 298 416 0
2018-10-12 10:57:22 GMT 51.003937 0.355942 30,000 298 417 0
2018-10-12 10:57:19 GMT 50.998161 0.373230 30,000 298 418 0
2018-10-12 10:57:13 GMT 50.995605 0.380958 30,000 298 418 0
2018-10-12 10:57:10 GMT 50.990158 0.397364 30,000 298 418 0
2018-10-12 10:57:07 GMT 50.990158 0.397364 30,000 298 420 0
2018-10-12 10:57:04 GMT 50.987503 0.405273 30,000 298 419 0
2018-10-12 10:57:01 GMT 50.985268 0.412140 30,000 298 419 0
2018-10-12 10:56:58 GMT 50.982056 0.421753 30,000 305 426 0
2018-10-12 10:56:55 GMT 50.979729 0.428696 30,000 298 419 0
2018-10-12 10:56:52 GMT 50.975647 0.441012 30,000 298 419 0
2018-10-12 10:56:49 GMT 50.970428 0.456749 30,000 298 419 0
2018-10-12 10:56:45 GMT 50.970428 0.456749 30,000 298 419 0
2018-10-12 10:56:42 GMT 50.967716 0.464783 30,000 298 420 0
2018-10-12 10:56:39 GMT 50.964386 0.474862 30,000 298 420 0
2018-10-12 10:56:36 GMT 50.961945 0.482254 30,000 298 420 0
2018-10-12 10:56:33 GMT 50.958454 0.492783 30,000 298 420 0
2018-10-12 10:56:29 GMT 50.954868 0.503616 30,000 298 420 0
2018-10-12 10:56:26 GMT 50.953949 0.506336 30,000 298 420 0
2018-10-12 10:56:23 GMT 50.949783 0.519030 30,000 298 420 0
2018-10-12 10:56:20 GMT 50.947605 0.525665 30,000 298 420 0
2018-10-12 10:56:17 GMT 50.945419 0.532150 30,000 298 420 0
2018-10-12 10:56:14 GMT 50.942688 0.540483 30,000 298 420 0
2018-10-12 10:56:11 GMT 50.939972 0.548782 30,000 298 420 0
2018-10-12 10:56:06 GMT 50.933548 0.568314 30,000 298 420 0
2018-10-12 10:56:03 GMT 50.932571 0.571289 30,000 298 420 0
2018-10-12 10:56:00 GMT 50.929916 0.579529 30,000 298 420 0
2018-10-12 10:55:57 GMT 50.926483 0.589996 30,000 318 421 -960
2018-10-12 10:55:54 GMT 50.923820 0.598145 30,000 298 421 0
2018-10-12 10:55:51 GMT 50.921402 0.605510 30,000 298 421 0
2018-10-12 10:55:48 GMT 50.919209 0.612259 30,000 298 420 0
2018-10-12 10:55:44 GMT 50.915771 0.622583 30,000 299 421 64
2018-10-12 10:55:41 GMT 50.912430 0.632456 30,000 301 424 0
2018-10-12 10:55:38 GMT 50.907619 0.645676 30,000 304 425 0
2018-10-12 10:55:32 GMT 50.903664 0.655594 30,225 306 426 0
2018-10-12 10:55:29 GMT 50.900776 0.662079 30,000 309 429 0
2018-10-12 10:55:26 GMT 50.896072 0.672073 30,025 310 429 -64
2018-10-12 10:55:21 GMT 50.890091 0.683454 31,050 318 418 -1088
2018-10-12 10:55:17 GMT 50.885738 0.690918 30,000 315 430 -64
2018-10-12 10:55:14 GMT 50.881393 0.697929 30,025 318 428 -1024
2018-10-12 10:55:11 GMT 50.875450 0.706863 30,050 318 430 -320
2018-10-12 10:55:08 GMT 50.871403 0.712814 30,050 318 428 -704
2018-10-12 10:55:05 GMT 50.867798 0.717971 30,125 318 428 -832
2018-10-12 10:55:02 GMT 50.862030 0.726360 30,100 318 428 -896
2018-10-12 10:54:59 GMT 50.858368 0.731704 30,175 318 427 -960
2018-10-12 10:54:56 GMT 50.854691 0.737000 30,175 318 427 -960
2018-10-12 10:54:53 GMT 50.849854 0.744027 30,200 318 427 -960
2018-10-12 10:54:50 GMT 50.845982 0.749588 30,425 318 421 -960
2018-10-12 10:54:47 GMT 50.837997 0.761174 30,425 318 424 -960
2018-10-12 10:54:41 GMT 50.832962 0.768523 30,450 318 421 -960
2018-10-12 10:54:38 GMT 50.828014 0.775681 30,525 318 421 -960
2018-10-12 10:54:35 GMT 50.823898 0.781588 30,525 318 421 -960
2018-10-12 10:54:31 GMT 50.818588 0.789308 30,600 318 419 -960
2018-10-12 10:54:28 GMT 50.814880 0.794653 30,625 318 419 -1024
2018-10-12 10:54:25 GMT 50.810791 0.800629 30,700 318 418 -1088
2018-10-12 10:54:22 GMT 50.805717 0.807953 30,775 318 418 -1088
2018-10-12 10:54:18 GMT 50.800552 0.815438 30,800 318 418 -1088
2018-10-12 10:54:15 GMT 50.796173 0.821838 30,875 318 411 -896
2018-10-12 10:54:12 GMT 50.791145 0.829086 30,875 318 418 -1088
2018-10-12 10:54:08 GMT 50.785141 0.837784 30,975 318 418 -1152
2018-10-12 10:54:05 GMT 50.780685 0.844314 31,100 318 417 -1088
2018-10-12 10:54:01 GMT 50.774780 0.852851 31,225 318 416 -960
2018-10-12 10:53:58 GMT 50.772079 0.856785 31,100 318 416 -1024
2018-10-12 10:53:54 GMT 50.762470 0.870743 31,250 318 414 -896
2018-10-12 10:53:51 GMT 50.761230 0.872522 31,250 318 414 -896
2018-10-12 10:53:48 GMT 50.757706 0.877570 31,350 318 409 -896
2018-10-12 10:53:45 GMT 50.754322 0.882568 31,325 318 411 -896
2018-10-12 10:53:42 GMT 50.743011 0.898895 31,425 318 409 -896
2018-10-12 10:53:36 GMT 50.740952 0.901918 31,500 318 406 -960
2018-10-12 10:53:33 GMT 50.736145 0.908822 31,525 318 404 -1088
2018-10-12 10:53:30 GMT 50.732574 0.913944 31,575 318 405 -1024
2018-10-12 10:53:27 GMT 50.727859 0.920773 31,700 318 404 -1024
2018-10-12 10:53:22 GMT 50.722000 0.929161 31,925 318 403 -1024
2018-10-12 10:53:19 GMT 50.718384 0.934372 31,775 318 404 -1024
2018-10-12 10:53:16 GMT 50.713531 0.941410 31,925 318 404 -960
2018-10-12 10:53:13 GMT 50.707809 0.949649 31,850 318 403 -960
2018-10-12 10:53:09 GMT 50.703323 0.956107 31,925 318 403 -960
2018-10-12 10:53:05 GMT 50.698273 0.963364 32,025 318 403 -1024
2018-10-12 10:53:02 GMT 50.694077 0.969395 32,100 318 402 -1024
2018-10-12 10:52:59 GMT 50.688313 0.977707 32,075 318 403 -1024
2018-10-12 10:52:56 GMT 50.684097 0.983796 32,150 318 404 -1024
2018-10-12 10:52:53 GMT 50.681442 0.987582 32,275 318 404 -1024
2018-10-12 10:52:50 GMT 50.677231 0.993652 32,250 318 403 -1024
2018-10-12 10:52:47 GMT 50.667664 1.007417 32,300 318 403 -1024
2018-10-12 10:52:44 GMT 50.667664 1.007417 32,325 318 404 -1024
2018-10-12 10:52:41 GMT 50.663498 1.013415 32,400 318 414 -960
2018-10-12 10:52:38 GMT 50.660706 1.017423 32,425 318 404 -1024
2018-10-12 10:52:35 GMT 50.655853 1.024403 32,500 318 405 -1024
2018-10-12 10:52:31 GMT 50.651047 1.031342 32,550 318 406 -1024
2018-10-12 10:52:27 GMT 50.645668 1.039025 32,600 318 407 -1024
2018-10-12 10:52:23 GMT 50.640690 1.046225 32,725 318 407 -1024
2018-10-12 10:52:20 GMT 50.636444 1.052302 32,800 318 410 -1024
2018-10-12 10:52:17 GMT 50.632263 1.058325 32,825 318 411 -1024
2018-10-12 10:52:14 GMT 50.628021 1.064445 32,925 318 410 -1024
2018-10-12 10:52:11 GMT 50.622986 1.071601 32,875 318 412 -1024
2018-10-12 10:52:08 GMT 50.618668 1.077774 33,025 318 412 -1024
2018-10-12 10:52:02 GMT 50.609451 1.090838 33,050 318 414 -960
2018-10-12 10:51:59 GMT 50.606277 1.095380 33,125 318 414 -960
2018-10-12 10:51:56 GMT 50.602524 1.100729 33,100 318 414 -960
2018-10-12 10:51:53 GMT 50.598141 1.106947 33,150 318 416 -960
2018-10-12 10:51:50 GMT 50.593781 1.113233 33,250 318 421 -1088
2018-10-12 10:51:47 GMT 50.589390 1.119566 33,325 318 421 0
2018-10-12 10:51:44 GMT 50.584965 1.125876 33,325 318 422 -960
2018-10-12 10:51:40 GMT 50.579407 1.133760 33,375 318 419 -1024
2018-10-12 10:51:37 GMT 50.574463 1.140843 33,425 318 419 -1024
2018-10-12 10:51:31 GMT 50.565125 1.154215 33,600 318 421 -1088
2018-10-12 10:51:27 GMT 50.559494 1.162238 33,625 318 421 -1088
2018-10-12 10:51:24 GMT 50.556564 1.166358 33,750 318 422 -960
2018-10-12 10:51:21 GMT 50.546604 1.180511 33,750 318 421 -1088
2018-10-12 10:51:18 GMT 50.546604 1.180511 33,750 318 421 -1088
2018-10-12 10:51:13 GMT 50.535900 1.195728 33,850 318 424 -960
2018-10-12 10:51:08 GMT 50.533630 1.198955 33,925 318 424 -1024
2018-10-12 10:51:05 GMT 50.529011 1.205527 33,975 318 424 -1024
2018-10-12 10:51:00 GMT 50.521328 1.216439 34,100 318 424 -960
2018-10-12 10:50:56 GMT 50.515465 1.224753 34,125 318 424 -960
2018-10-12 10:50:53 GMT 50.512344 1.229207 34,150 318 424 -960
2018-10-12 10:50:50 GMT 50.506290 1.237892 34,225 318 423 -960
2018-10-12 10:50:47 GMT 50.503407 1.241975 34,350 318 422 -960
2018-10-12 10:50:44 GMT 50.494656 1.254446 34,525 318 419 -960
2018-10-12 10:50:38 GMT 50.488174 1.263717 34,525 318 422 -960
2018-10-12 10:50:35 GMT 50.484604 1.268776 34,525 318 422 -960
2018-10-12 10:50:32 GMT 50.480225 1.275008 34,525 318 421 -960
2018-10-12 10:50:29 GMT 50.477291 1.279239 35,850 318 421 -960
2018-10-12 10:50:26 GMT 50.471424 1.287553 34,775 318 421 -960
2018-10-12 10:50:22 GMT 50.467163 1.293568 34,675 319 418 0
2018-10-12 10:50:18 GMT 50.459415 1.304552 34,750 318 421 -960
2018-10-12 10:50:14 GMT 50.454899 1.310936 34,800 318 420 -960
2018-10-12 10:50:11 GMT 50.451176 1.316207 35,025 319 418 0
2018-10-12 10:50:08 GMT 50.447067 1.322046 34,900 318 419 -960
2018-10-12 10:50:05 GMT 50.441071 1.330502 35,050 318 417 -896
2018-10-12 10:50:02 GMT 50.437347 1.335730 35,025 318 419 -960
2018-10-12 10:49:58 GMT 50.431530 1.343969 35,050 318 418 -896
2018-10-12 10:49:55 GMT 50.427200 1.350162 35,100 318 418 -896
2018-10-12 10:49:52 GMT 50.421799 1.357777 35,200 318 417 -896
2018-10-12 10:49:48 GMT 50.417377 1.364012 35,200 318 417 -896
2018-10-12 10:49:44 GMT 50.411556 1.372326 35,325 318 416 -960
2018-10-12 10:49:41 GMT 50.407242 1.378495 35,475 319 417 -1024
2018-10-12 10:49:35 GMT 50.398991 1.390216 35,475 318 416 -960
2018-10-12 10:49:32 GMT 50.394974 1.395914 35,500 319 417 -1024
2018-10-12 10:49:29 GMT 50.390751 1.401870 35,475 319 418 -1088
2018-10-12 10:49:26 GMT 50.386093 1.408418 35,700 319 418 -1088
2018-10-12 10:49:23 GMT 50.382507 1.413450 35,600 319 418 -1088
2018-10-12 10:49:20 GMT 50.378403 1.419188 35,750 319 418 0
2018-10-12 10:49:17 GMT 50.368313 1.433493 35,775 319 418 -1088
2018-10-12 10:49:11 GMT 50.364727 1.438467 35,800 318 419 -832
2018-10-12 10:49:08 GMT 50.359932 1.445296 36,000 318 419 -832
2018-10-12 10:49:05 GMT 50.355789 1.451135 35,900 318 419 -192
2018-10-12 10:49:02 GMT 50.347736 1.462444 36,000 318 419 0
2018-10-12 10:48:55 GMT 50.342522 1.469867 36,000 319 418 0
2018-10-12 10:48:52 GMT 50.335510 1.479757 36,000 318 419 0
2018-10-12 10:48:48 GMT 50.331848 1.484889 36,000 318 419 0
2018-10-12 10:48:44 GMT 50.326630 1.492261 36,000 318 419 0
2018-10-12 10:48:41 GMT 50.322037 1.498743 36,000 319 419 0
2018-10-12 10:48:38 GMT 50.317749 1.504838 36,000 319 418 0
2018-10-12 10:48:35 GMT 50.311523 1.513511 36,000 319 418 0
2018-10-12 10:48:32 GMT 50.308445 1.517895 36,000 319 418 0
2018-10-12 10:48:29 GMT 50.302826 1.525799 36,000 319 419 0
2018-10-12 10:48:23 GMT 50.294769 1.537074 36,000 319 419 0
2018-10-12 10:48:19 GMT 50.289047 1.545097 36,000 319 419 0
2018-10-12 10:48:14 GMT 50.281258 1.555976 36,000 319 419 0
2018-10-12 10:48:11 GMT 50.274124 1.565985 36,000 319 419 0
2018-10-12 10:48:08 GMT 50.274124 1.565985 36,000 319 419 0
2018-10-12 10:48:03 GMT 50.266571 1.576538 36,000 319 419 0
2018-10-12 10:48:00 GMT 50.262451 1.582320 36,000 318 419 0
2018-10-12 10:47:57 GMT 50.258011 1.588536 36,000 319 419 0
2018-10-12 10:47:53 GMT 50.252769 1.595838 36,000 319 419 0
2018-10-12 10:47:50 GMT 50.246201 1.605088 36,000 319 419 0
2018-10-12 10:47:47 GMT 50.241920 1.611130 36,000 319 419 0
2018-10-12 10:47:43 GMT 50.238476 1.615955 36,000 318 419 -64
2018-10-12 10:47:40 GMT 50.234070 1.622074 36,000 318 419 0
2018-10-12 10:47:37 GMT 50.229679 1.628278 36,000 319 419 0
2018-10-12 10:47:33 GMT 50.223858 1.636443 36,000 318 419 0
2018-10-12 10:47:29 GMT 50.217808 1.644906 36,000 318 419 0
2018-10-12 10:47:26 GMT 50.210815 1.654743 36,000 319 419 0
2018-10-12 10:47:23 GMT 50.209335 1.656783 36,000 319 419 0
2018-10-12 10:47:19 GMT 50.199005 1.671295 36,000 319 419 0
2018-10-12 10:47:16 GMT 50.194950 1.676900 36,000 319 419 0
2018-10-12 10:47:13 GMT 50.194950 1.676900 36,000 319 418 0
2018-10-12 10:47:10 GMT 50.190018 1.683803 36,000 319 419 0
2018-10-12 10:47:06 GMT 50.185547 1.690088 36,000 319 419 0
2018-10-12 10:47:02 GMT 50.176437 1.702809 36,000 319 418 0
2018-10-12 10:46:59 GMT 50.174980 1.704885 36,000 319 418 0
2018-10-12 10:46:56 GMT 50.170120 1.711627 36,000 319 418 0
2018-10-12 10:46:52 GMT 50.165085 1.718710 36,000 319 419 0
2018-10-12 10:46:48 GMT 50.156754 1.730347 36,000 323 416 64
2018-10-12 10:46:43 GMT 50.146816 1.744228 36,000 319 419 0
2018-10-12 10:46:40 GMT 50.142380 1.750440 36,000 319 419 0
2018-10-12 10:46:37 GMT 50.142380 1.750440 36,000 319 419 0
2018-10-12 10:46:34 GMT 50.139313 1.754777 36,000 319 419 0
2018-10-12 10:46:31 GMT 50.134758 1.761079 36,000 319 418 0
2018-10-12 10:46:28 GMT 50.121872 1.779062 36,000 319 418 0
2018-10-12 10:46:23 GMT 50.121872 1.779062 36,000 319 418 0
2018-10-12 10:46:19 GMT 50.116379 1.786724 36,000 319 418 0
2018-10-12 10:46:16 GMT 50.113358 1.790844 36,000 328 420 0
2018-10-12 10:46:12 GMT 50.107452 1.799084 36,000 319 418 0
2018-10-12 10:46:09 GMT 50.098160 1.811805 36,000 313 414 -64
2018-10-12 10:46:03 GMT 50.093792 1.817792 36,000 319 418 0
2018-10-12 10:45:59 GMT 50.088860 1.824621 36,000 317 416 0
2018-10-12 10:45:56 GMT 50.082199 1.834123 36,000 318 417 0
2018-10-12 10:45:53 GMT 50.079735 1.837686 36,000 314 414 0
2018-10-12 10:45:50 GMT 50.076096 1.843101 36,000 313 412 -64
2018-10-12 10:45:47 GMT 50.070236 1.852064 36,000 314 413 -64
2018-10-12 10:45:44 GMT 50.066792 1.857432 36,000 314 413 -64
2018-10-12 10:45:41 GMT 50.062775 1.863917 36,000 313 413 -64
2018-10-12 10:45:36 GMT 50.052639 1.880889 36,000 313 413 -64
2018-10-12 10:45:33 GMT 50.052639 1.880889 36,000 313 412 -64
2018-10-12 10:45:30 GMT 50.048592 1.887793 36,000 313 412 -64
2018-10-12 10:45:27 GMT 50.044739 1.894419 36,000 312 411 -64
2018-10-12 10:45:23 GMT 50.039474 1.903526 36,000 312 411 -64
2018-10-12 10:45:19 GMT 50.034210 1.912633 36,000 312 410 0
2018-10-12 10:45:15 GMT 50.029312 1.921090 36,025 312 410 0
2018-10-12 10:45:11 GMT 50.024940 1.928769 36,000 313 410 64
2018-10-12 10:45:07 GMT 50.020241 1.936934 36,000 315 412 64
2018-10-12 10:45:04 GMT 50.016678 1.943062 36,000 313 411 64
2018-10-12 10:45:01 GMT 50.011642 1.951519 36,000 332 420 0
2018-10-12 10:44:58 GMT 50.007393 1.958165 36,000 319 415 64
2018-10-12 10:44:54 GMT 50.002670 1.965107 36,000 320 415 64
2018-10-12 10:44:50 GMT 49.988937 1.982815 36,000 332 422 64
2018-10-12 10:44:45 GMT 49.988937 1.982815 36,000 325 417 64
2018-10-12 10:44:41 GMT 49.976620 1.996023 36,000 332 421 0
2018-10-12 10:44:37 GMT 49.976620 1.996023 36,000 332 422 64
2018-10-12 10:44:34 GMT 49.970428 2.001961 36,000 332 422 64
2018-10-12 10:44:31 GMT 49.965454 2.006450 36,000 332 421 0
2018-10-12 10:44:28 GMT 49.960793 2.010350 36,000 332 421 0
2018-10-12 10:44:25 GMT 49.955292 2.014979 36,000 332 421 0
2018-10-12 10:44:19 GMT 49.945942 2.022672 36,000 332 421 0
2018-10-12 10:44:16 GMT 49.941742 2.026182 36,000 332 421 0
2018-10-12 10:44:12 GMT 49.935699 2.031135 36,000 332 421 0
2018-10-12 10:44:09 GMT 49.928764 2.036925 36,000 332 421 0
2018-10-12 10:44:04 GMT 49.920044 2.044108 36,000 332 421 0
2018-10-12 10:43:57 GMT 49.908051 2.053998 36,000 332 421 0
2018-10-12 10:43:53 GMT 49.900589 2.060153 36,000 332 421 0
2018-10-12 10:43:49 GMT 49.894363 2.065355 36,000 332 421 0
2018-10-12 10:43:46 GMT 49.884121 2.073818 36,000 332 421 0
2018-10-12 10:43:43 GMT 49.884121 2.073818 36,000 332 419 -64
2018-10-12 10:43:37 GMT 49.874393 2.081909 36,000 332 421 0
2018-10-12 10:43:33 GMT 49.867500 2.087625 36,000 332 421 0
2018-10-12 10:43:29 GMT 49.858063 2.095498 36,000 332 420 0
2018-10-12 10:43:24 GMT 49.851379 2.101063 36,000 332 420 0
2018-10-12 10:43:21 GMT 49.845978 2.105617 36,000 332 420 0
2018-10-12 10:43:17 GMT 49.839756 2.110785 36,000 332 417 -64
2018-10-12 10:43:14 GMT 49.833752 2.115759 36,000 332 419 0
2018-10-12 10:43:11 GMT 49.829376 2.119471 36,000 332 420 -64
2018-10-12 10:43:08 GMT 49.823742 2.124147 36,000 332 419 0
2018-10-12 10:43:05 GMT 49.819366 2.127859 36,000 332 419 0
2018-10-12 10:43:00 GMT 49.809731 2.135950 36,000 332 419 -64
2018-10-12 10:42:54 GMT 49.800659 2.143563 36,025 332 419 -64
2018-10-12 10:42:50 GMT 49.785244 2.156587 36,025 332 418 -64
2018-10-12 10:42:45 GMT 49.785244 2.156587 36,025 332 419 0
2018-10-12 10:42:41 GMT 49.778030 2.162674 36,050 332 417 0
2018-10-12 10:42:34 GMT 49.765041 2.173586 36,025 332 418 -64
2018-10-12 10:42:31 GMT 49.760605 2.177317 36,050 332 418 -64
2018-10-12 10:42:24 GMT 49.748978 2.187074 36,025 332 418 0
2018-10-12 10:42:19 GMT 49.740143 2.194519 36,025 332 418 0
2018-10-12 10:42:14 GMT 49.731384 2.201868 36,050 332 418 -64
2018-10-12 10:42:11 GMT 49.726273 2.206156 36,050 332 418 -64
2018-10-12 10:42:04 GMT 49.716110 2.214612 36,050 332 418 -64
2018-10-12 10:42:01 GMT 49.708466 2.221045 36,050 332 417 -64
2018-10-12 10:41:58 GMT 49.705811 2.223214 36,050 332 418 -64
2018-10-12 10:41:53 GMT 49.695694 2.231742 36,050 332 417 0
2018-10-12 10:41:50 GMT 49.677101 2.247446 36,050 332 417 -64
2018-10-12 10:41:43 GMT 49.677101 2.247446 36,050 332 417 0
2018-10-12 10:41:40 GMT 49.674454 2.249668 36,050 332 417 0
2018-10-12 10:41:36 GMT 49.668091 2.255016 36,050 332 413 64
2018-10-12 10:41:33 GMT 49.662231 2.259931 36,050 332 417 64
2018-10-12 10:41:30 GMT 49.657242 2.264195 36,050 332 417 64
2018-10-12 10:41:27 GMT 49.652149 2.268454 36,050 332 417 64
2018-10-12 10:41:20 GMT 49.640396 2.278362 36,050 332 416 64
2018-10-12 10:41:17 GMT 49.633850 2.283855 36,050 332 417 0
2018-10-12 10:41:12 GMT 49.625851 2.290649 36,000 332 412 64
2018-10-12 10:41:09 GMT 49.621445 2.294336 36,025 332 416 64
2018-10-12 10:41:06 GMT 49.616447 2.298518 36,025 332 416 64
2018-10-12 10:41:01 GMT 49.602947 2.309950 36,025 332 416 64
2018-10-12 10:40:58 GMT 49.602947 2.309950 36,025 332 416 64
2018-10-12 10:40:55 GMT 49.598053 2.314140 36,025 332 415 64
2018-10-12 10:40:52 GMT 49.592705 2.318635 36,025 332 412 64
2018-10-12 10:40:49 GMT 49.587662 2.322886 36,025 332 415 64
2018-10-12 10:40:45 GMT 49.581253 2.328359 36,025 332 415 64
2018-10-12 10:40:39 GMT 49.570999 2.336980 36,000 332 414 64
2018-10-12 10:40:34 GMT 49.562164 2.344468 36,000 332 412 64
2018-10-12 10:40:29 GMT 49.552826 2.352303 36,000 332 413 64
2018-10-12 10:40:26 GMT 49.549530 2.355122 36,000 332 413 64
2018-10-12 10:40:23 GMT 49.544220 2.359603 36,000 332 412 64
2018-10-12 10:40:20 GMT 49.539825 2.363289 35,975 332 411 64
2018-10-12 10:40:17 GMT 49.535351 2.367034 35,975 332 412 64
2018-10-12 10:40:14 GMT 49.528603 2.372750 35,975 332 411 64
2018-10-12 10:40:07 GMT 49.517986 2.381732 35,975 332 412 64
2018-10-12 10:40:02 GMT 49.509659 2.388731 35,975 332 411 64
2018-10-12 10:39:59 GMT 49.496475 2.399934 35,950 332 411 64
2018-10-12 10:39:55 GMT 49.496475 2.399934 35,950 331 410 0
2018-10-12 10:39:52 GMT 49.493042 2.402826 35,950 332 409 0
2018-10-12 10:39:49 GMT 49.488800 2.406451 35,950 332 409 0
2018-10-12 10:39:46 GMT 49.482925 2.411427 35,950 332 409 0
2018-10-12 10:39:43 GMT 49.476242 2.417064 35,950 332 409 0
2018-10-12 10:39:40 GMT 49.472275 2.420481 35,950 332 409 0
2018-10-12 10:39:35 GMT 49.465103 2.426568 35,950 332 408 0
2018-10-12 10:39:32 GMT 49.459854 2.431014 35,950 332 409 0
2018-10-12 10:39:29 GMT 49.454678 2.435402 35,950 332 406 0
2018-10-12 10:39:25 GMT 49.448441 2.440746 35,950 331 405 -64
2018-10-12 10:39:22 GMT 49.437195 2.450240 35,950 332 407 0
2018-10-12 10:39:19 GMT 49.437195 2.450240 35,950 332 407 0
2018-10-12 10:39:14 GMT 49.429539 2.456706 35,950 331 405 0
2018-10-12 10:39:10 GMT 49.423965 2.461430 35,950 332 406 0
2018-10-12 10:39:07 GMT 49.418461 2.466069 35,950 332 406 0
2018-10-12 10:39:04 GMT 49.413246 2.470478 35,950 331 405 -64
2018-10-12 10:39:01 GMT 49.407257 2.475516 35,950 332 406 -64
2018-10-12 10:38:57 GMT 49.400665 2.481150 35,950 331 405 -64
2018-10-12 10:38:54 GMT 49.397278 2.484037 35,975 331 405 -64
2018-10-12 10:38:51 GMT 49.385265 2.494258 35,975 331 405 -64
2018-10-12 10:38:48 GMT 49.385265 2.494258 35,950 331 405 -64
2018-10-12 10:38:43 GMT 49.372093 2.505461 35,975 331 405 -64
2018-10-12 10:38:39 GMT 49.372093 2.505461 36,000 331 406 -64
2018-10-12 10:38:33 GMT 49.362167 2.513968 35,975 331 405 -64
2018-10-12 10:38:30 GMT 49.356358 2.518905 35,975 331 405 0
2018-10-12 10:38:23 GMT 49.346302 2.527506 35,975 331 405 0
2018-10-12 10:38:20 GMT 49.340343 2.532565 35,975 331 405 0
2018-10-12 10:38:15 GMT 49.333733 2.538275 35,975 331 405 0
2018-10-12 10:38:12 GMT 49.328613 2.542631 35,975 331 405 -64
2018-10-12 10:38:08 GMT 49.316605 2.552876 35,975 331 405 -64
2018-10-12 10:38:02 GMT 49.311340 2.557357 36,000 331 406 -64
2018-10-12 10:37:57 GMT 49.303616 2.563934 36,000 331 406 -64
2018-10-12 10:37:54 GMT 49.293045 2.572984 36,000 331 406 -64
2018-10-12 10:37:51 GMT 49.293045 2.572984 36,000 331 406 -64
2018-10-12 10:37:48 GMT 49.288254 2.577089 36,000 331 406 -64
2018-10-12 10:37:45 GMT 49.283432 2.581153 36,000 332 406 0
2018-10-12 10:37:41 GMT 49.276657 2.586999 36,000 331 406 -64
2018-10-12 10:37:38 GMT 49.267536 2.594725 36,025 332 406 0
2018-10-12 10:37:35 GMT 49.267536 2.594725 36,000 331 406 -64
2018-10-12 10:37:30 GMT 49.259399 2.601647 36,025 332 407 0
2018-10-12 10:37:27 GMT 49.252270 2.607735 36,025 325 405 0
2018-10-12 10:37:24 GMT 49.250427 2.609253 36,025 332 406 0
2018-10-12 10:37:20 GMT 49.242645 2.615873 36,025 332 406 0
2018-10-12 10:37:17 GMT 49.237381 2.620380 36,025 332 406 0
2018-10-12 10:37:14 GMT 49.233032 2.623972 36,025 332 406 0
2018-10-12 10:37:09 GMT 49.224380 2.631296 36,025 332 407 0
2018-10-12 10:37:05 GMT 49.217697 2.637000 36,025 332 407 0
2018-10-12 10:37:01 GMT 49.210052 2.643480 36,025 331 408 -64
2018-10-12 10:36:57 GMT 49.203140 2.649325 36,025 331 408 0
2018-10-12 10:36:54 GMT 49.199844 2.652071 36,025 331 408 0
2018-10-12 10:36:50 GMT 49.193253 2.657705 36,025 331 408 0
2018-10-12 10:36:46 GMT 49.186256 2.663606 36,025 331 408 0
2018-10-12 10:36:43 GMT 49.181488 2.667635 36,025 332 407 0
2018-10-12 10:36:40 GMT 49.176620 2.671774 36,025 332 407 0
2018-10-12 10:36:36 GMT 49.169777 2.677556 36,025 332 407 0
2018-10-12 10:36:33 GMT 49.164780 2.681720 36,025 331 408 0
2018-10-12 10:36:30 GMT 49.160049 2.685724 36,025 330 406 -64
2018-10-12 10:36:27 GMT 49.155254 2.689771 36,025 329 406 -64
2018-10-12 10:36:24 GMT 49.149994 2.694252 36,025 331 407 0
2018-10-12 10:36:16 GMT 49.135887 2.706467 36,025 330 406 -64
2018-10-12 10:36:13 GMT 49.132488 2.709503 36,025 325 405 0
2018-10-12 10:36:09 GMT 49.126064 2.715502 36,025 328 406 -64
2018-10-12 10:36:06 GMT 49.121037 2.720345 36,025 327 406 -64
2018-10-12 10:36:03 GMT 49.116028 2.725384 36,025 327 405 -64
2018-10-12 10:35:58 GMT 49.109573 2.732004 36,025 326 405 -64
2018-10-12 10:35:55 GMT 49.103165 2.738765 36,025 325 405 0
2018-10-12 10:35:52 GMT 49.099869 2.742286 36,025 325 405 0
2018-10-12 10:35:49 GMT 49.094376 2.748272 36,025 325 405 0
2018-10-12 10:35:46 GMT 49.089104 2.753882 36,025 325 405 0
2018-10-12 10:35:43 GMT 49.083702 2.759664 36,025 325 405 0
2018-10-12 10:35:40 GMT 49.081329 2.762146 36,025 325 405 0
2018-10-12 10:35:37 GMT 49.077557 2.766242 36,025 325 405 0
2018-10-12 10:35:34 GMT 49.070621 2.773614 36,025 326 405 0
2018-10-12 10:35:31 GMT 49.067501 2.776939 36,025 326 405 0
2018-10-12 10:35:25 GMT 49.056145 2.789009 36,025 326 405 0
2018-10-12 10:35:21 GMT 49.050835 2.794647 36,025 326 405 0
2018-10-12 10:35:14 GMT 49.040642 2.805561 36,025 326 405 64
2018-10-12 10:35:11 GMT 49.035187 2.811303 36,025 326 405 64
2018-10-12 10:35:07 GMT 49.029922 2.816937 36,025 326 405 0
2018-10-12 10:35:04 GMT 49.025894 2.821233 36,000 326 405 0
2018-10-12 10:35:01 GMT 49.021229 2.826233 36,000 326 405 0
2018-10-12 10:34:56 GMT 49.011383 2.836656 36,000 326 405 0
2018-10-12 10:34:53 GMT 49.009731 2.838448 36,000 325 404 0
2018-10-12 10:34:50 GMT 48.999023 2.849825 36,000 325 403 64
2018-10-12 10:34:46 GMT 48.999023 2.849825 36,000 325 404 0
2018-10-12 10:34:43 GMT 48.993576 2.855578 36,000 325 403 64
2018-10-12 10:34:40 GMT 48.978214 2.871985 36,000 325 403 64
2018-10-12 10:34:33 GMT 48.978214 2.871985 36,000 325 403 0
2018-10-12 10:34:30 GMT 48.972954 2.877623 36,000 325 403 0
2018-10-12 10:34:23 GMT 48.962173 2.889123 36,000 326 402 0
2018-10-12 10:34:19 GMT 48.956940 2.894681 36,000 326 402 0
2018-10-12 10:34:15 GMT 48.951305 2.900607 35,975 326 402 0
2018-10-12 10:34:12 GMT 48.946095 2.906173 35,975 326 402 0
2018-10-12 10:34:08 GMT 48.939762 2.912895 36,000 326 402 0
2018-10-12 10:34:02 GMT 48.929661 2.923592 36,000 325 401 0
2018-10-12 10:33:58 GMT 48.924026 2.929519 35,975 326 402 0
2018-10-12 10:33:51 GMT 48.914299 2.939855 35,975 326 402 0
2018-10-12 10:33:48 GMT 48.909805 2.944618 35,975 325 401 0
2018-10-12 10:33:45 GMT 48.904907 2.949759 35,975 325 401 0
2018-10-12 10:33:41 GMT 48.898453 2.956660 35,975 325 401 0
2018-10-12 10:33:38 GMT 48.893909 2.961466 35,975 325 401 0
2018-10-12 10:33:34 GMT 48.887901 2.967899 35,975 326 401 0
2018-10-12 10:33:31 GMT 48.875847 2.980547 35,975 330 403 64
2018-10-12 10:33:26 GMT 48.875847 2.980547 35,975 327 401 0
2018-10-12 10:33:23 GMT 48.871841 2.984595 35,975 330 403 64
2018-10-12 10:33:20 GMT 48.866398 2.989944 35,975 334 404 64
2018-10-12 10:33:16 GMT 48.855377 3.000254 35,975 330 403 64
2018-10-12 10:33:13 GMT 48.855377 3.000254 35,975 332 403 64
2018-10-12 10:33:10 GMT 48.851532 3.003704 35,975 332 403 64
2018-10-12 10:33:06 GMT 48.844006 3.010254 35,975 332 403 64
2018-10-12 10:33:03 GMT 48.840652 3.013073 35,975 333 404 64
2018-10-12 10:33:00 GMT 48.834415 3.018205 35,975 333 403 64
2018-10-12 10:32:55 GMT 48.824844 3.025607 35,975 335 404 64
2018-10-12 10:32:52 GMT 48.821274 3.028212 35,975 337 405 64
2018-10-12 10:32:49 GMT 48.816257 3.031865 35,975 336 404 64
2018-10-12 10:32:44 GMT 48.802807 3.040972 35,975 337 405 0
2018-10-12 10:32:38 GMT 48.797516 3.044410 35,975 337 405 0
2018-10-12 10:32:34 GMT 48.790558 3.048917 35,975 337 405 0
2018-10-12 10:32:31 GMT 48.785202 3.052368 35,975 337 405 0
2018-10-12 10:32:27 GMT 48.768169 3.063379 35,975 337 405 0
2018-10-12 10:32:22 GMT 48.768169 3.063379 35,975 338 405 0
2018-10-12 10:32:19 GMT 48.762726 3.066848 35,975 337 405 0
2018-10-12 10:32:14 GMT 48.754299 3.072341 35,975 337 404 0
2018-10-12 10:32:11 GMT 48.750992 3.074437 35,975 337 404 0
2018-10-12 10:32:08 GMT 48.745743 3.077792 35,975 337 404 0
2018-10-12 10:32:04 GMT 48.737865 3.082894 36,000 337 405 0
2018-10-12 10:32:01 GMT 48.733910 3.085496 36,000 337 405 0
2018-10-12 10:31:58 GMT 48.728088 3.089182 36,000 337 404 0
2018-10-12 10:31:51 GMT 48.709515 3.101180 36,000 337 404 0
2018-10-12 10:31:47 GMT 48.709515 3.101180 36,000 337 405 0
2018-10-12 10:31:40 GMT 48.696899 3.109348 36,000 337 405 0
2018-10-12 10:31:36 GMT 48.691406 3.112934 36,000 337 405 0
2018-10-12 10:31:32 GMT 48.683308 3.118166 36,000 337 405 0
2018-10-12 10:31:29 GMT 48.678978 3.120912 36,000 338 405 0
2018-10-12 10:31:26 GMT 48.673157 3.124671 36,000 337 405 0
2018-10-12 10:31:19 GMT 48.660141 3.133005 36,000 338 405 -64
2018-10-12 10:31:15 GMT 48.654957 3.136380 36,000 338 405 0
2018-10-12 10:31:11 GMT 48.646408 3.141808 36,000 337 405 0
2018-10-12 10:31:08 GMT 48.641224 3.145198 36,000 337 405 0
2018-10-12 10:31:01 GMT 48.629379 3.152794 36,000 337 405 0
2018-10-12 10:30:57 GMT 48.622971 3.156950 36,000 337 405 -64
2018-10-12 10:30:53 GMT 48.616875 3.160882 36,000 337 405 -64
2018-10-12 10:30:49 GMT 48.610081 3.165291 36,000 337 405 -64
2018-10-12 10:30:45 GMT 48.603840 3.169267 36,025 337 405 0
2018-10-12 10:30:38 GMT 48.591660 3.177162 36,000 337 405 0
2018-10-12 10:30:35 GMT 48.585159 3.181246 36,025 337 405 0
2018-10-12 10:30:32 GMT 48.581451 3.183641 36,025 337 406 0
2018-10-12 10:30:29 GMT 48.572792 3.189215 36,000 337 406 0
2018-10-12 10:30:24 GMT 48.565620 3.193841 36,000 337 406 0
2018-10-12 10:30:21 GMT 48.561943 3.196154 36,000 337 406 0
2018-10-12 10:30:17 GMT 48.555241 3.200491 36,000 338 405 0
2018-10-12 10:30:14 GMT 48.548492 3.204828 36,000 338 406 0
2018-10-12 10:30:11 GMT 48.543976 3.207646 36,000 338 406 0
2018-10-12 10:30:06 GMT 48.534477 3.213718 36,000 337 406 0
2018-10-12 10:30:02 GMT 48.527729 3.218055 36,000 337 406 0
2018-10-12 10:29:59 GMT 48.522217 3.221600 36,000 338 404 0
2018-10-12 10:29:56 GMT 48.518921 3.223713 36,000 337 406 0
2018-10-12 10:29:50 GMT 48.507339 3.231065 36,000 337 406 0
2018-10-12 10:29:45 GMT 48.498642 3.236671 36,000 337 406 0
2018-10-12 10:29:39 GMT 48.488625 3.243135 36,000 337 406 0
2018-10-12 10:29:35 GMT 48.482155 3.247255 36,000 337 406 0
2018-10-12 10:29:31 GMT 48.475124 3.251736 36,000 337 406 0
2018-10-12 10:29:28 GMT 48.469574 3.255334 36,000 337 406 0
2018-10-12 10:29:25 GMT 48.464127 3.258784 36,000 338 407 0
2018-10-12 10:29:21 GMT 48.457077 3.263292 36,000 338 407 0
2018-10-12 10:29:18 GMT 48.452225 3.266461 36,000 338 405 0
2018-10-12 10:29:14 GMT 48.445175 3.270968 36,000 338 406 0
2018-10-12 10:29:10 GMT 48.438164 3.275444 36,000 338 406 0
2018-10-12 10:29:05 GMT 48.427689 3.282093 36,000 338 406 0
2018-10-12 10:28:59 GMT 48.419128 3.287518 36,000 338 404 -64
2018-10-12 10:28:54 GMT 48.409019 3.293875 36,000 338 405 0
2018-10-12 10:28:48 GMT 48.399895 3.299585 36,000 338 404 -64
2018-10-12 10:28:45 GMT 48.396126 3.301970 36,000 338 405 0
2018-10-12 10:28:42 GMT 48.390106 3.305688 36,000 338 405 0
2018-10-12 10:28:39 GMT 48.383377 3.309913 36,000 338 405 0
2018-10-12 10:28:35 GMT 48.377922 3.313318 36,000 338 404 0
2018-10-12 10:28:31 GMT 48.370895 3.317727 36,000 338 404 0
2018-10-12 10:28:28 GMT 48.365936 3.320829 36,000 338 404 -64
2018-10-12 10:28:24 GMT 48.359116 3.325054 36,000 338 404 0
2018-10-12 10:28:21 GMT 48.353855 3.328279 36,000 338 404 0
2018-10-12 10:28:15 GMT 48.342316 3.335407 36,000 338 404 0
2018-10-12 10:28:12 GMT 48.337875 3.338154 36,000 338 404 -64
2018-10-12 10:28:08 GMT 48.331192 3.342309 36,000 338 404 -64
2018-10-12 10:28:03 GMT 48.322620 3.347578 36,000 338 404 -64
2018-10-12 10:28:00 GMT 48.316986 3.351119 36,000 338 404 -64
2018-10-12 10:27:57 GMT 48.312145 3.354083 36,000 338 404 -64
2018-10-12 10:27:54 GMT 48.305347 3.358275 36,000 338 405 0
2018-10-12 10:27:51 GMT 48.302742 3.359937 36,000 338 406 0
2018-10-12 10:27:48 GMT 48.294689 3.364924 36,000 338 407 0
2018-10-12 10:27:41 GMT 48.283127 3.372169 36,000 338 410 0
2018-10-12 10:27:36 GMT 48.276123 3.376465 36,025 338 411 -64
2018-10-12 10:27:30 GMT 48.265137 3.383296 36,000 338 412 -64
2018-10-12 10:27:27 GMT 48.257492 3.388053 36,000 338 413 -64
2018-10-12 10:27:21 GMT 48.248428 3.393649 36,000 338 415 -128
2018-10-12 10:27:14 GMT 48.237488 3.400480 36,025 338 415 0
2018-10-12 10:27:10 GMT 48.229614 3.405339 36,025 338 415 0
2018-10-12 10:27:05 GMT 48.221554 3.410388 36,025 338 415 64
2018-10-12 10:27:00 GMT 48.210800 3.417037 36,025 338 415 64
2018-10-12 10:26:53 GMT 48.200188 3.423542 36,025 338 416 0
2018-10-12 10:26:49 GMT 48.192169 3.428509 36,000 338 416 0
2018-10-12 10:26:45 GMT 48.180679 3.435622 36,000 338 415 0
2018-10-12 10:26:42 GMT 48.180679 3.435622 36,000 338 415 0
2018-10-12 10:26:38 GMT 48.173309 3.440129 36,000 338 415 0
2018-10-12 10:26:33 GMT 48.163605 3.446115 36,000 338 415 0
2018-10-12 10:26:30 GMT 48.158195 3.449496 36,000 338 415 0
2018-10-12 10:26:27 GMT 48.151840 3.453415 36,000 338 415 0
2018-10-12 10:26:24 GMT 48.147259 3.456257 36,000 338 415 0
2018-10-12 10:26:20 GMT 48.141220 3.459938 36,000 338 415 0
2018-10-12 10:26:17 GMT 48.135315 3.463646 36,000 338 415 0
2018-10-12 10:26:12 GMT 48.126167 3.469285 36,000 338 415 0
2018-10-12 10:26:09 GMT 48.122307 3.471680 36,000 338 414 0
2018-10-12 10:26:05 GMT 48.115135 3.476046 36,000 338 414 0
2018-10-12 10:25:59 GMT 48.102814 3.483696 36,000 338 414 0
2018-10-12 10:25:55 GMT 48.097633 3.486892 36,000 338 414 0
2018-10-12 10:25:48 GMT 48.085144 3.494614 35,975 338 413 0
2018-10-12 10:25:44 GMT 48.077454 3.499352 36,000 338 413 0
2018-10-12 10:25:38 GMT 48.066513 3.506081 36,000 338 413 0
2018-10-12 10:25:33 GMT 48.048519 3.517104 35,975 338 412 0
2018-10-12 10:25:28 GMT 48.048519 3.517104 35,975 338 413 0
2018-10-12 10:25:22 GMT 48.038315 3.523384 36,000 338 413 0
2018-10-12 10:25:17 GMT 48.028885 3.529152 35,975 338 413 0
2018-10-12 10:25:11 GMT 48.013321 3.538765 35,975 338 413 0
2018-10-12 10:25:08 GMT 48.013321 3.538765 35,975 338 413 0
2018-10-12 10:24:59 GMT 47.997391 3.548584 35,975 338 413 0
2018-10-12 10:24:55 GMT 47.990517 3.552809 35,975 338 411 0
2018-10-12 10:24:50 GMT 47.980648 3.558866 36,000 338 412 0
2018-10-12 10:24:47 GMT 47.976196 3.561562 35,975 338 412 0
2018-10-12 10:24:42 GMT 47.967499 3.566849 35,975 338 412 0
2018-10-12 10:24:37 GMT 47.959560 3.571683 36,000 338 412 0
2018-10-12 10:24:33 GMT 47.951553 3.576543 35,975 338 412 0
2018-10-12 10:24:28 GMT 47.938656 3.584360 35,975 338 411 0
2018-10-12 10:24:18 GMT 47.923946 3.593374 35,975 338 411 0
2018-10-12 10:24:15 GMT 47.920223 3.595628 35,975 338 411 0
2018-10-12 10:24:12 GMT 47.909328 3.602248 35,975 338 411 0
2018-10-12 10:24:09 GMT 47.909328 3.602248 36,000 338 411 0
2018-10-12 10:24:04 GMT 47.900986 3.607361 36,000 338 411 0
2018-10-12 10:23:59 GMT 47.891235 3.613266 35,975 338 411 0
2018-10-12 10:23:55 GMT 47.885635 3.616685 35,975 338 411 0
2018-10-12 10:23:52 GMT 47.879654 3.620407 35,975 338 411 0
2018-10-12 10:23:49 GMT 47.872742 3.624596 36,000 338 411 0
2018-10-12 10:23:44 GMT 47.865417 3.629059 36,000 338 411 0
2018-10-12 10:23:41 GMT 47.860123 3.632249 36,000 338 411 0
2018-10-12 10:23:37 GMT 47.854164 3.635841 36,000 338 411 0
2018-10-12 10:23:34 GMT 47.846066 3.640771 36,000 338 411 0
2018-10-12 10:23:31 GMT 47.842712 3.642813 36,000 338 411 0
2018-10-12 10:23:27 GMT 47.835022 3.647461 36,000 338 411 0
2018-10-12 10:23:20 GMT 47.822929 3.654785 36,000 338 411 0
2018-10-12 10:23:17 GMT 47.818272 3.657602 36,000 338 411 0
2018-10-12 10:23:14 GMT 47.811058 3.662039 36,000 338 411 -64
2018-10-12 10:23:09 GMT 47.803391 3.666687 36,000 338 411 -64
2018-10-12 10:23:01 GMT 47.788513 3.675682 36,000 338 411 0
2018-10-12 10:22:53 GMT 47.775723 3.683519 36,000 338 411 0
2018-10-12 10:22:48 GMT 47.767731 3.688385 36,000 338 411 0
2018-10-12 10:22:42 GMT 47.754356 3.696477 36,000 338 410 0
2018-10-12 10:22:39 GMT 47.749924 3.699097 36,000 339 411 0
2018-10-12 10:22:36 GMT 47.742050 3.703835 36,000 338 411 0
2018-10-12 10:22:32 GMT 47.738617 3.705894 36,000 339 411 0
2018-10-12 10:22:26 GMT 47.728088 3.712212 36,000 338 412 0
2018-10-12 10:22:21 GMT 47.719860 3.717182 36,000 338 411 0
2018-10-12 10:22:16 GMT 47.710190 3.722992 36,000 338 411 0
2018-10-12 10:22:10 GMT 47.699238 3.729647 36,000 338 411 0
2018-10-12 10:22:05 GMT 47.691326 3.734506 36,000 338 411 0
2018-10-12 10:22:00 GMT 47.681175 3.740633 36,000 338 411 0
2018-10-12 10:21:55 GMT 47.673065 3.745583 36,000 338 411 0
2018-10-12 10:21:49 GMT 47.663067 3.751620 36,000 338 410 0
2018-10-12 10:21:43 GMT 47.653431 3.757465 36,000 338 411 0
2018-10-12 10:21:39 GMT 47.645657 3.762184 36,000 338 411 0
2018-10-12 10:21:33 GMT 47.635601 3.768240 36,000 338 411 0
2018-10-12 10:21:27 GMT 47.621868 3.776480 36,000 338 411 0
2018-10-12 10:21:22 GMT 47.616486 3.779709 36,000 338 411 0
2018-10-12 10:21:19 GMT 47.611256 3.782889 36,000 338 411 0
2018-10-12 10:21:15 GMT 47.602875 3.787959 36,000 338 410 0
2018-10-12 10:21:12 GMT 47.597427 3.791199 36,000 338 410 0
2018-10-12 10:21:06 GMT 47.587463 3.797218 36,000 338 411 0
2018-10-12 10:21:01 GMT 47.578033 3.802849 36,000 338 411 0
2018-10-12 10:20:57 GMT 47.571030 3.807106 36,000 338 410 0
2018-10-12 10:20:50 GMT 47.558807 3.814453 36,000 338 410 0
2018-10-12 10:20:45 GMT 47.551064 3.819087 36,000 338 410 0
2018-10-12 10:20:41 GMT 47.542191 3.824341 36,000 339 410 0
2018-10-12 10:20:38 GMT 47.537979 3.826881 36,000 339 410 0
2018-10-12 10:20:35 GMT 47.532673 3.830003 36,000 339 410 -64
2018-10-12 10:20:27 GMT 47.518337 3.838595 36,000 338 410 -64
2018-10-12 10:20:20 GMT 47.506348 3.845695 36,025 338 410 -128
2018-10-12 10:20:14 GMT 47.495453 3.852219 36,025 338 410 -128
2018-10-12 10:20:08 GMT 47.484074 3.859089 36,050 338 410 -64
2018-10-12 10:20:05 GMT 47.479477 3.861832 36,025 338 410 -64
2018-10-12 10:19:57 GMT 47.466011 3.869934 36,050 338 410 64
2018-10-12 10:19:54 GMT 47.460239 3.873455 36,050 338 410 64
2018-10-12 10:19:46 GMT 47.447021 3.881332 36,025 338 410 0
2018-10-12 10:19:43 GMT 47.441570 3.884583 36,025 338 410 0
2018-10-12 10:19:35 GMT 47.427422 3.893034 36,025 338 410 0
2018-10-12 10:19:32 GMT 47.422211 3.896164 36,025 338 410 0
2018-10-12 10:19:27 GMT 47.413174 3.901555 36,025 338 410 0
2018-10-12 10:19:23 GMT 47.406284 3.905640 36,025 339 409 64
2018-10-12 10:19:14 GMT 47.390442 3.915115 36,025 338 410 0
2018-10-12 10:19:10 GMT 47.383713 3.919167 36,000 338 410 0
2018-10-12 10:19:05 GMT 47.373184 3.925484 36,025 338 410 0
2018-10-12 10:19:01 GMT 47.367928 3.928528 36,000 338 410 0
2018-10-12 10:18:53 GMT 47.353027 3.937401 36,025 338 410 0
2018-10-12 10:18:50 GMT 47.348373 3.940178 36,025 338 410 0
2018-10-12 10:18:45 GMT 47.338348 3.946152 36,025 338 410 0
2018-10-12 10:18:41 GMT 47.332779 3.949444 36,000 338 410 0
2018-10-12 10:18:37 GMT 47.324341 3.954529 36,025 339 409 0
2018-10-12 10:18:31 GMT 47.315510 3.959726 36,000 339 409 0
2018-10-12 10:18:27 GMT 47.306717 3.964966 36,000 339 409 0
2018-10-12 10:18:21 GMT 47.292389 3.973480 36,000 339 408 64
2018-10-12 10:18:11 GMT 47.278839 3.981445 36,000 339 408 64
2018-10-12 10:18:04 GMT 47.256592 3.994698 36,000 339 408 0
2018-10-12 10:17:58 GMT 47.256592 3.994698 36,000 339 408 0
2018-10-12 10:17:55 GMT 47.251080 3.997967 36,000 339 408 0
2018-10-12 10:17:48 GMT 47.238697 4.005291 36,000 339 408 0
2018-10-12 10:17:45 GMT 47.232147 4.009186 36,000 339 407 0
2018-10-12 10:17:36 GMT 47.219559 4.016602 36,000 339 407 0
2018-10-12 10:17:33 GMT 47.212326 4.020859 36,000 339 407 0
2018-10-12 10:17:27 GMT 47.203316 4.026137 36,000 339 407 0
2018-10-12 10:17:23 GMT 47.194977 4.031021 36,000 339 406 0
2018-10-12 10:17:16 GMT 47.182461 4.038462 36,000 339 406 0
2018-10-12 10:17:13 GMT 47.176575 4.041939 36,000 339 406 0
2018-10-12 10:17:10 GMT 47.170532 4.045509 36,000 339 406 0
2018-10-12 10:17:06 GMT 47.166000 4.048187 36,000 339 406 0
2018-10-12 10:17:02 GMT 47.156719 4.053673 36,000 338 405 -64
2018-10-12 10:16:59 GMT 47.153553 4.055504 36,000 338 405 -64
2018-10-12 10:16:54 GMT 47.144806 4.060684 36,000 338 405 0
2018-10-12 10:16:48 GMT 47.133907 4.067195 36,000 339 404 0
2018-10-12 10:16:42 GMT 47.123669 4.073252 36,025 338 405 64
2018-10-12 10:16:39 GMT 47.119385 4.075857 36,000 339 405 0
2018-10-12 10:16:32 GMT 47.105698 4.083886 36,000 339 405 64
2018-10-12 10:16:28 GMT 47.099899 4.087326 36,000 339 405 0
2018-10-12 10:16:21 GMT 47.086807 4.095085 36,000 339 405 0
2018-10-12 10:16:18 GMT 47.082458 4.097626 36,000 339 404 0
2018-10-12 10:16:11 GMT 47.068314 4.105934 36,000 339 404 0
2018-10-12 10:16:08 GMT 47.065063 4.107857 35,975 339 404 0
2018-10-12 10:15:59 GMT 47.049370 4.117056 35,975 339 404 0
2018-10-12 10:15:55 GMT 47.041946 4.121384 35,975 339 403 0
2018-10-12 10:15:49 GMT 47.032845 4.126704 35,975 339 403 0
2018-10-12 10:15:46 GMT 47.027390 4.129898 35,975 339 403 0
2018-10-12 10:15:40 GMT 47.014317 4.137550 35,975 339 402 0
2018-10-12 10:15:36 GMT 47.008636 4.140860 35,975 339 402 0
2018-10-12 10:15:30 GMT 46.998688 4.146721 35,975 339 402 0
2018-10-12 10:15:26 GMT 46.992599 4.150291 35,975 339 402 0
2018-10-12 10:15:19 GMT 46.978683 4.158463 35,975 339 402 0
2018-10-12 10:15:16 GMT 46.973583 4.161424 35,975 339 402 0
2018-10-12 10:15:08 GMT 46.959522 4.169664 36,000 339 402 0
2018-10-12 10:15:04 GMT 46.954651 4.172470 36,000 339 402 0
2018-10-12 10:14:57 GMT 46.942440 4.179594 36,000 339 401 0
2018-10-12 10:14:54 GMT 46.937302 4.182564 36,000 339 402 0
2018-10-12 10:14:48 GMT 46.926407 4.188881 36,000 339 402 0
2018-10-12 10:14:45 GMT 46.920364 4.192383 36,000 339 402 0
2018-10-12 10:14:38 GMT 46.907619 4.199735 36,000 339 401 0
2018-10-12 10:14:34 GMT 46.902191 4.202957 36,000 339 401 0
2018-10-12 10:14:27 GMT 46.890301 4.209806 36,000 339 402 0
2018-10-12 10:14:24 GMT 46.884342 4.213327 36,000 339 402 0
2018-10-12 10:14:14 GMT 46.865479 4.224444 36,000 339 401 0
2018-10-12 10:14:08 GMT 46.858429 4.228531 36,000 340 403 0
2018-10-12 10:14:05 GMT 46.849709 4.233307 36,000 341 403 0
2018-10-12 10:13:55 GMT 46.834122 4.241259 36,000 343 403 -64
2018-10-12 10:13:52 GMT 46.828712 4.243813 36,000 344 403 -64
2018-10-12 10:13:46 GMT 46.817726 4.248619 36,000 345 404 -64
2018-10-12 10:13:43 GMT 46.813023 4.250542 36,025 346 404 -64
2018-10-12 10:13:40 GMT 46.807709 4.252647 36,025 346 403 -64
2018-10-12 10:13:34 GMT 46.796768 4.256599 36,025 348 404 0
2018-10-12 10:13:31 GMT 46.791283 4.258438 36,025 349 404 0
2018-10-12 10:13:23 GMT 46.774933 4.263298 36,025 351 405 0
2018-10-12 10:13:19 GMT 46.769165 4.264839 36,000 354 405 0
2018-10-12 10:13:12 GMT 46.751762 4.268669 36,025 354 405 0
2018-10-12 10:13:03 GMT 46.739319 4.270868 36,025 354 405 0
2018-10-12 10:13:00 GMT 46.733700 4.271896 36,025 354 405 0
2018-10-12 10:12:54 GMT 46.722931 4.273749 36,025 354 405 0
2018-10-12 10:12:51 GMT 46.716980 4.274820 36,025 354 405 0
2018-10-12 10:12:41 GMT 46.699062 4.277939 36,000 354 405 0
2018-10-12 10:12:37 GMT 46.690613 4.279443 36,025 354 405 0
2018-10-12 10:12:31 GMT 46.679932 4.281372 36,000 354 405 0
2018-10-12 10:12:28 GMT 46.674820 4.282256 36,000 354 405 0
2018-10-12 10:12:20 GMT 46.660309 4.284802 36,000 354 405 0
2018-10-12 10:12:17 GMT 46.654469 4.285835 36,000 354 406 0
2018-10-12 10:12:11 GMT 46.641632 4.288084 36,000 354 406 0
2018-10-12 10:12:08 GMT 46.635754 4.289131 36,000 354 406 0
2018-10-12 10:12:00 GMT 46.621738 4.291534 36,000 354 405 0
2018-10-12 10:11:56 GMT 46.615173 4.292640 36,000 354 406 0
2018-10-12 10:11:52 GMT 46.606846 4.294075 36,000 354 405 0
2018-10-12 10:11:49 GMT 46.602375 4.294830 36,000 354 405 0
2018-10-12 10:11:46 GMT 46.595947 4.295922 36,000 354 405 0
2018-10-12 10:11:39 GMT 46.583382 4.298126 36,000 354 405 0
2018-10-12 10:11:36 GMT 46.576305 4.299362 36,000 354 404 0
2018-10-12 10:11:30 GMT 46.566513 4.301080 36,000 354 405 0
2018-10-12 10:11:27 GMT 46.561596 4.301903 36,000 354 405 0
2018-10-12 10:11:24 GMT 46.556030 4.302889 36,000 354 405 0
2018-10-12 10:11:21 GMT 46.547836 4.304363 36,000 354 405 0
2018-10-12 10:11:18 GMT 46.543488 4.305061 36,000 354 405 0
2018-10-12 10:11:15 GMT 46.536530 4.306306 35,975 354 404 0
2018-10-12 10:11:10 GMT 46.529068 4.307578 35,975 354 404 0
2018-10-12 10:11:07 GMT 46.523281 4.308632 35,975 354 404 0
2018-10-12 10:11:03 GMT 46.516579 4.309799 35,975 354 404 0
2018-10-12 10:10:58 GMT 46.507599 4.311330 35,975 354 404 0
2018-10-12 10:10:54 GMT 46.497070 4.313139 35,975 354 404 0
2018-10-12 10:10:49 GMT 46.488968 4.314545 35,975 354 404 0
2018-10-12 10:10:45 GMT 46.483528 4.315498 35,975 354 404 0
2018-10-12 10:10:42 GMT 46.477615 4.316488 35,975 354 404 0
2018-10-12 10:10:38 GMT 46.469513 4.317895 35,975 354 404 0
2018-10-12 10:10:33 GMT 46.457737 4.319962 36,000 354 404 0
2018-10-12 10:10:28 GMT 46.450287 4.321266 36,000 354 404 0
2018-10-12 10:10:24 GMT 46.444382 4.322249 35,975 354 404 0
2018-10-12 10:10:21 GMT 46.438465 4.323326 36,000 354 404 0
2018-10-12 10:10:18 GMT 46.430737 4.324631 36,000 354 404 0
2018-10-12 10:10:11 GMT 46.419022 4.326671 36,000 354 404 0
2018-10-12 10:10:07 GMT 46.411514 4.327943 36,000 354 404 0
2018-10-12 10:10:03 GMT 46.404945 4.329094 36,000 354 404 0
2018-10-12 10:10:00 GMT 46.399429 4.330020 36,000 354 404 0
2018-10-12 10:09:57 GMT 46.387398 4.332115 36,000 354 404 0
2018-10-12 10:09:54 GMT 46.387398 4.332115 36,000 354 404 0
2018-10-12 10:09:51 GMT 46.379807 4.333420 36,000 354 404 0
2018-10-12 10:09:46 GMT 46.366974 4.335647 36,000 354 404 0
2018-10-12 10:09:43 GMT 46.360535 4.336784 36,000 354 404 0
2018-10-12 10:09:39 GMT 46.360535 4.336784 36,000 354 404 0
2018-10-12 10:09:36 GMT 46.354202 4.337925 36,000 354 404 0
2018-10-12 10:09:33 GMT 46.348297 4.338930 36,000 354 404 0
2018-10-12 10:09:29 GMT 46.341541 4.340424 36,000 354 404 0
2018-10-12 10:09:26 GMT 46.335072 4.341179 36,000 354 404 0
2018-10-12 10:09:22 GMT 46.328613 4.342279 36,000 354 404 0
2018-10-12 10:09:18 GMT 46.321152 4.343552 36,000 354 404 -64
2018-10-12 10:09:14 GMT 46.313553 4.344892 36,000 354 404 0
2018-10-12 10:09:09 GMT 46.302567 4.346768 36,000 354 404 0
2018-10-12 10:09:05 GMT 46.296898 4.347771 36,000 354 404 0
2018-10-12 10:09:02 GMT 46.283615 4.350050 36,000 354 404 0
2018-10-12 10:08:59 GMT 46.283615 4.350050 36,000 354 404 0
2018-10-12 10:08:55 GMT 46.277847 4.351055 36,000 354 404 0
2018-10-12 10:08:49 GMT 46.267105 4.352921 36,000 354 404 0
2018-10-12 10:08:44 GMT 46.258392 4.354404 36,000 354 404 0
2018-10-12 10:08:41 GMT 46.252117 4.355461 36,000 354 404 0
2018-10-12 10:08:38 GMT 46.244854 4.356697 36,000 354 405 0
2018-10-12 10:08:35 GMT 46.239990 4.357553 36,000 354 404 -64
2018-10-12 10:08:27 GMT 46.226326 4.359924 36,000 354 404 0
2018-10-12 10:08:23 GMT 46.219017 4.361160 36,000 354 405 0
2018-10-12 10:08:18 GMT 46.209549 4.362845 36,000 354 405 0
2018-10-12 10:08:15 GMT 46.197876 4.364855 36,000 354 405 0
2018-10-12 10:08:09 GMT 46.192017 4.365860 36,025 354 405 0
2018-10-12 10:08:06 GMT 46.187302 4.366663 36,000 354 405 0
2018-10-12 10:08:02 GMT 46.180252 4.367869 36,025 354 405 0
2018-10-12 10:07:58 GMT 46.171673 4.369331 36,025 354 405 0
2018-10-12 10:07:55 GMT 46.167156 4.370087 36,025 354 405 0
2018-10-12 10:07:52 GMT 46.161484 4.371085 36,025 354 405 0
2018-10-12 10:07:47 GMT 46.151375 4.372833 36,025 354 405 0
2018-10-12 10:07:43 GMT 46.144768 4.373932 36,025 354 405 0
2018-10-12 10:07:36 GMT 46.125259 4.377296 36,025 354 405 0
2018-10-12 10:07:33 GMT 46.125259 4.377296 36,025 354 405 0
2018-10-12 10:07:27 GMT 46.115253 4.379013 36,025 354 405 0
2018-10-12 10:07:24 GMT 46.108315 4.380180 36,025 354 405 0
2018-10-12 10:07:21 GMT 46.103287 4.381004 36,025 354 405 0
2018-10-12 10:07:15 GMT 46.092396 4.382858 36,025 354 405 0
2018-10-12 10:07:11 GMT 46.084713 4.384163 36,025 354 405 0
2018-10-12 10:07:06 GMT 46.076111 4.385622 36,025 354 405 0
2018-10-12 10:07:03 GMT 46.069107 4.386827 36,025 354 405 0
2018-10-12 10:07:00 GMT 46.063438 4.387802 36,025 354 405 0
2018-10-12 10:06:56 GMT 46.056747 4.388971 36,025 354 405 0
2018-10-12 10:06:53 GMT 46.051895 4.389793 36,025 354 405 0
2018-10-12 10:06:50 GMT 46.044399 4.391029 36,000 354 405 0
2018-10-12 10:06:47 GMT 46.037659 4.392187 36,000 354 406 0
2018-10-12 10:06:44 GMT 46.026901 4.393995 36,025 354 406 0
2018-10-12 10:06:41 GMT 46.026901 4.393995 36,000 354 406 0
2018-10-12 10:06:36 GMT 46.019073 4.395335 36,025 354 406 0
2018-10-12 10:06:32 GMT 46.012756 4.396407 36,000 354 406 0
2018-10-12 10:06:29 GMT 46.005478 4.397613 36,025 354 406 0
2018-10-12 10:06:25 GMT 45.999523 4.398651 36,000 354 406 0
2018-10-12 10:06:21 GMT 45.991375 4.400024 36,000 354 406 0
2018-10-12 10:06:18 GMT 45.984303 4.401192 36,025 354 406 0
2018-10-12 10:06:15 GMT 45.980576 4.401810 36,000 354 404 0
2018-10-12 10:06:11 GMT 45.971054 4.403441 36,025 354 406 0
2018-10-12 10:06:07 GMT 45.964279 4.404580 36,025 354 406 64
2018-10-12 10:06:01 GMT 45.954227 4.406342 36,000 354 406 0
2018-10-12 10:05:58 GMT 45.946732 4.407578 36,000 354 406 0
2018-10-12 10:05:54 GMT 45.941620 4.408465 36,000 354 406 0
2018-10-12 10:05:51 GMT 45.934753 4.409604 36,000 354 406 0
2018-10-12 10:05:48 GMT 45.929214 4.410542 36,000 354 406 0
2018-10-12 10:05:45 GMT 45.921844 4.411815 36,000 354 406 0
2018-10-12 10:05:40 GMT 45.915298 4.412953 36,000 354 406 0
2018-10-12 10:05:37 GMT 45.907974 4.414226 36,000 354 406 0
2018-10-12 10:05:34 GMT 45.903168 4.415030 36,000 354 406 0
2018-10-12 10:05:29 GMT 45.894779 4.416435 36,000 354 406 0
2018-10-12 10:05:26 GMT 45.888290 4.417509 36,000 354 406 0
2018-10-12 10:05:23 GMT 45.883610 4.418358 36,000 354 405 0
2018-10-12 10:05:19 GMT 45.873413 4.420054 36,000 354 405 0
2018-10-12 10:05:16 GMT 45.869568 4.420724 36,000 354 405 0
2018-10-12 10:05:13 GMT 45.864616 4.421516 36,000 354 405 0
2018-10-12 10:05:08 GMT 45.854645 4.423270 36,000 354 405 0
2018-10-12 10:05:05 GMT 45.849812 4.424057 36,000 354 405 0
2018-10-12 10:05:02 GMT 45.833038 4.426954 36,000 354 405 0
2018-10-12 10:04:56 GMT 45.833038 4.426954 36,000 354 405 0
2018-10-12 10:04:52 GMT 45.825806 4.428160 36,000 354 405 0
2018-10-12 10:04:47 GMT 45.815277 4.429969 35,975 354 405 0
2018-10-12 10:04:44 GMT 45.810471 4.430773 36,000 354 405 0
2018-10-12 10:04:41 GMT 45.803741 4.431912 36,000 354 405 0
2018-10-12 10:04:37 GMT 45.794693 4.433464 36,000 354 404 0
2018-10-12 10:04:34 GMT 45.790783 4.434082 36,000 354 404 0
2018-10-12 10:04:30 GMT 45.784378 4.435194 36,000 354 404 0
2018-10-12 10:04:26 GMT 45.774815 4.436829 36,000 354 404 0
2018-10-12 10:04:21 GMT 45.766800 4.438209 36,000 354 404 0
2018-10-12 10:04:15 GMT 45.755402 4.440151 36,000 354 404 0
2018-10-12 10:04:11 GMT 45.748306 4.441357 36,000 354 404 0
2018-10-12 10:04:05 GMT 45.736313 4.443434 36,000 354 404 0
2018-10-12 10:04:01 GMT 45.729630 4.444573 36,000 354 403 0
2018-10-12 10:03:55 GMT 45.718998 4.446304 36,000 354 403 0
2018-10-12 10:03:52 GMT 45.711136 4.447654 36,000 354 403 0
2018-10-12 10:03:49 GMT 45.696655 4.450081 36,000 354 403 0
2018-10-12 10:03:43 GMT 45.696655 4.450081 36,000 354 403 0
2018-10-12 10:03:40 GMT 45.692001 4.450870 36,000 354 403 0
2018-10-12 10:03:33 GMT 45.678082 4.453171 36,000 354 403 0
2018-10-12 10:03:30 GMT 45.673645 4.453884 36,000 354 403 0
2018-10-12 10:03:22 GMT 45.658585 4.456363 36,000 354 403 0
2018-10-12 10:03:19 GMT 45.652943 4.457291 36,000 354 403 0
2018-10-12 10:03:13 GMT 45.638649 4.459625 36,000 354 402 0
2018-10-12 10:03:08 GMT 45.632767 4.460650 36,000 354 402 0
2018-10-12 10:03:05 GMT 45.624802 4.461990 36,000 354 402 0
2018-10-12 10:03:00 GMT 45.616882 4.463330 36,000 354 402 0
2018-10-12 10:02:51 GMT 45.599854 4.466210 36,000 354 402 0
2018-10-12 10:02:48 GMT 45.585300 4.468689 36,000 354 402 0
2018-10-12 10:02:44 GMT 45.585300 4.468689 36,000 354 402 0
2018-10-12 10:02:40 GMT 45.578644 4.469788 36,000 354 402 0
2018-10-12 10:02:36 GMT 45.573074 4.470699 36,000 354 402 0
2018-10-12 10:02:31 GMT 45.561676 4.472641 36,000 354 402 0
2018-10-12 10:02:26 GMT 45.554535 4.473847 36,000 354 402 0
2018-10-12 10:02:18 GMT 45.533157 4.477452 36,000 354 402 0
2018-10-12 10:02:11 GMT 45.526016 4.478629 36,000 354 402 0
2018-10-12 10:02:08 GMT 45.520126 4.479608 36,000 354 402 0
2018-10-12 10:01:59 GMT 45.496666 4.483494 36,000 354 402 0
2018-10-12 10:01:55 GMT 45.496666 4.483494 36,000 354 402 0
2018-10-12 10:01:48 GMT 45.482933 4.485771 36,000 354 402 0
2018-10-12 10:01:44 GMT 45.477036 4.486738 36,000 354 402 0
2018-10-12 10:01:40 GMT 45.467571 4.488317 36,000 354 402 0
2018-10-12 10:01:36 GMT 45.460632 4.489456 36,000 354 402 0
2018-10-12 10:01:33 GMT 45.456165 4.490193 36,000 354 402 0
2018-10-12 10:01:28 GMT 45.442108 4.492537 36,000 354 401 0
2018-10-12 10:01:25 GMT 45.442108 4.492537 36,000 354 401 0
2018-10-12 10:01:22 GMT 45.436707 4.493408 36,000 354 401 0
2018-10-12 10:01:15 GMT 45.422832 4.495753 36,000 354 401 0
2018-10-12 10:01:12 GMT 45.417389 4.496678 36,000 354 401 0
2018-10-12 10:01:09 GMT 45.409927 4.497920 36,000 354 401 0
2018-10-12 10:01:05 GMT 45.403564 4.498967 36,000 354 401 0
2018-10-12 10:01:01 GMT 45.397137 4.500040 36,000 354 401 0
2018-10-12 10:00:58 GMT 45.391388 4.500994 36,000 354 401 0
2018-10-12 10:00:55 GMT 45.384201 4.502171 36,000 354 401 0
2018-10-12 10:00:49 GMT 45.375488 4.503591 36,000 354 401 0
2018-10-12 10:00:45 GMT 45.365250 4.505265 36,000 354 401 0
2018-10-12 10:00:39 GMT 45.356171 4.506739 36,000 354 400 0
2018-10-12 10:00:35 GMT 45.350025 4.507744 36,000 354 400 0
2018-10-12 10:00:32 GMT 45.342300 4.509017 36,000 354 400 0
2018-10-12 10:00:27 GMT 45.332104 4.510759 36,000 354 400 0
2018-10-12 10:00:24 GMT 45.328148 4.511428 36,000 354 400 0
2018-10-12 10:00:21 GMT 45.322449 4.512373 36,000 354 400 0
2018-10-12 10:00:17 GMT 45.309013 4.514644 36,000 354 400 0
2018-10-12 10:00:13 GMT 45.309013 4.514644 36,000 354 400 0
2018-10-12 10:00:07 GMT 45.296036 4.516820 36,025 354 400 0
2018-10-12 10:00:02 GMT 45.288940 4.517997 36,000 354 400 0
2018-10-12 09:59:59 GMT 45.283039 4.518931 36,000 354 400 0
2018-10-12 09:59:56 GMT 45.277588 4.519828 36,025 354 400 0
2018-10-12 09:59:53 GMT 45.270859 4.520939 36,000 354 400 0
2018-10-12 09:59:50 GMT 45.264233 4.522013 36,000 354 400 0
2018-10-12 09:59:45 GMT 45.257759 4.523085 36,000 354 400 -64
2018-10-12 09:59:42 GMT 45.250961 4.524224 36,000 354 400 -64
2018-10-12 09:59:37 GMT 45.242165 4.525697 36,025 354 400 -64
2018-10-12 09:59:32 GMT 45.231689 4.527439 36,025 354 400 0
2018-10-12 09:59:28 GMT 45.223824 4.528712 36,025 354 400 0
2018-10-12 09:59:21 GMT 45.212128 4.530683 36,025 354 399 0
2018-10-12 09:59:17 GMT 45.203613 4.532057 36,025 354 399 0
2018-10-12 09:59:14 GMT 45.199997 4.532710 36,025 354 399 0
2018-10-12 09:59:11 GMT 45.191704 4.534071 36,025 354 399 0
2018-10-12 09:59:02 GMT 45.178711 4.536307 36,025 354 399 0
2018-10-12 09:58:57 GMT 45.168045 4.538073 36,025 354 399 0
2018-10-12 09:58:52 GMT 45.157719 4.539832 36,025 354 399 0
2018-10-12 09:58:49 GMT 45.154041 4.540435 36,025 354 399 0
2018-10-12 09:58:44 GMT 45.142963 4.542244 36,025 354 399 0
2018-10-12 09:58:41 GMT 45.130783 4.544285 36,025 354 399 0
2018-10-12 09:58:32 GMT 45.120804 4.545928 36,025 354 399 64
2018-10-12 09:58:29 GMT 45.115585 4.546770 36,025 354 399 0
2018-10-12 09:58:26 GMT 45.111603 4.547424 36,025 354 399 0
2018-10-12 09:58:20 GMT 45.099529 4.549479 36,025 354 399 0
2018-10-12 09:58:17 GMT 45.094803 4.550236 36,000 354 398 0
2018-10-12 09:58:09 GMT 45.080109 4.552656 36,000 354 399 0
2018-10-12 09:58:06 GMT 45.074753 4.553571 36,000 354 399 0
2018-10-12 09:58:00 GMT 45.061752 4.555664 36,000 354 398 0
2018-10-12 09:57:57 GMT 45.058235 4.556245 36,000 354 398 0
2018-10-12 09:57:54 GMT 45.052872 4.557168 36,000 354 398 0
2018-10-12 09:57:47 GMT 45.039848 4.559259 36,000 354 398 0
2018-10-12 09:57:44 GMT 45.034882 4.560111 35,975 354 397 0
2018-10-12 09:57:37 GMT 45.019821 4.562596 36,000 354 398 64
2018-10-12 09:57:34 GMT 45.016014 4.563212 36,000 354 398 64
2018-10-12 09:57:26 GMT 45.001511 4.565539 36,000 354 398 0
2018-10-12 09:57:22 GMT 44.993065 4.566963 35,975 354 397 64
2018-10-12 09:57:19 GMT 44.987320 4.567893 35,975 354 397 64
2018-10-12 09:57:16 GMT 44.981705 4.568772 35,975 354 397 0
2018-10-12 09:57:12 GMT 44.976471 4.569659 35,975 354 397 0
2018-10-12 09:57:08 GMT 44.968018 4.571049 35,975 354 397 0
2018-10-12 09:57:05 GMT 44.960896 4.572188 35,975 354 397 0
2018-10-12 09:57:00 GMT 44.955231 4.573124 35,975 354 397 0
2018-10-12 09:56:57 GMT 44.948837 4.574198 35,975 354 397 0
2018-10-12 09:56:54 GMT 44.940674 4.575544 35,975 354 397 0
2018-10-12 09:56:51 GMT 44.928169 4.577614 35,975 354 396 0
2018-10-12 09:56:46 GMT 44.928169 4.577614 35,975 354 397 0
2018-10-12 09:56:43 GMT 44.920536 4.578820 35,975 354 396 0
2018-10-12 09:56:40 GMT 44.917740 4.579272 35,975 354 396 0
2018-10-12 09:56:36 GMT 44.908524 4.580763 35,975 354 396 0
2018-10-12 09:56:30 GMT 44.900299 4.582149 35,975 354 396 0
2018-10-12 09:56:25 GMT 44.889954 4.583849 35,975 354 396 0
2018-10-12 09:56:19 GMT 44.878738 4.585680 35,975 354 395 0
2018-10-12 09:56:14 GMT 44.871094 4.586988 35,975 354 395 0
2018-10-12 09:56:11 GMT 44.864628 4.588065 35,975 354 395 0
2018-10-12 09:56:08 GMT 44.859970 4.588819 35,975 354 395 0
2018-10-12 09:56:05 GMT 44.851498 4.590208 35,975 354 395 0
2018-10-12 09:55:59 GMT 44.841019 4.591893 35,975 354 395 -64
2018-10-12 09:55:54 GMT 44.833344 4.593156 35,975 354 395 0
2018-10-12 09:55:48 GMT 44.821007 4.595166 35,975 354 395 0
2018-10-12 09:55:43 GMT 44.814304 4.596305 36,000 354 395 0
2018-10-12 09:55:37 GMT 44.795914 4.599252 35,975 354 395 0
2018-10-12 09:55:34 GMT 44.791168 4.600067 36,000 354 395 0
2018-10-12 09:55:26 GMT 44.783798 4.601244 35,975 354 395 0
2018-10-12 09:55:23 GMT 44.777069 4.602356 36,000 354 395 0
2018-10-12 09:55:16 GMT 44.764847 4.604383 36,000 354 395 0
2018-10-12 09:55:12 GMT 44.755928 4.605817 36,000 354 395 0
2018-10-12 09:55:08 GMT 44.749687 4.606822 36,000 354 395 0
2018-10-12 09:55:05 GMT 44.745125 4.607626 36,000 354 395 0
2018-10-12 09:55:02 GMT 44.738701 4.608631 36,000 354 395 0
2018-10-12 09:54:55 GMT 44.726074 4.610726 36,000 354 395 0
2018-10-12 09:54:51 GMT 44.719616 4.611779 36,000 354 395 0
2018-10-12 09:54:47 GMT 44.711563 4.613081 36,000 354 395 0
2018-10-12 09:54:43 GMT 44.704193 4.614258 36,000 354 395 0
2018-10-12 09:54:40 GMT 44.699753 4.614977 36,000 354 395 0
2018-10-12 09:54:34 GMT 44.687775 4.616937 36,000 354 395 0
2018-10-12 09:54:30 GMT 44.681854 4.617920 36,000 354 395 0
2018-10-12 09:54:26 GMT 44.662766 4.620993 36,000 354 395 0
2018-10-12 09:54:21 GMT 44.662766 4.620993 36,000 354 395 0
2018-10-12 09:54:13 GMT 44.651138 4.622899 36,000 354 395 0
2018-10-12 09:54:10 GMT 44.639267 4.624842 36,000 354 395 0
2018-10-12 09:54:07 GMT 44.639267 4.624842 36,000 354 395 0
2018-10-12 09:54:02 GMT 44.630081 4.626356 36,000 354 395 0
2018-10-12 09:53:59 GMT 44.625347 4.627120 36,000 354 396 0
2018-10-12 09:53:52 GMT 44.611725 4.629299 36,000 354 395 0
2018-10-12 09:53:49 GMT 44.606445 4.630134 36,000 354 395 0
2018-10-12 09:53:41 GMT 44.591782 4.632479 36,000 354 395 0
2018-10-12 09:53:38 GMT 44.586456 4.633353 36,000 354 395 0
2018-10-12 09:53:33 GMT 44.577213 4.634891 36,000 354 395 0
2018-10-12 09:53:28 GMT 44.569290 4.636165 36,000 354 395 0
2018-10-12 09:53:22 GMT 44.557526 4.638062 36,000 354 395 0
2018-10-12 09:53:17 GMT 44.549187 4.639446 36,000 354 395 0
2018-10-12 09:53:11 GMT 44.537502 4.641389 36,000 354 396 0
2018-10-12 09:53:08 GMT 44.531219 4.642394 36,000 354 395 0
2018-10-12 09:53:02 GMT 44.521225 4.644012 36,000 354 395 0
2018-10-12 09:52:58 GMT 44.512226 4.645408 36,000 354 395 0
2018-10-12 09:52:50 GMT 44.498680 4.647619 36,000 354 396 0
2018-10-12 09:52:47 GMT 44.493374 4.648490 36,000 354 396 0
2018-10-12 09:52:39 GMT 44.479591 4.650700 36,000 354 396 0
2018-10-12 09:52:36 GMT 44.473213 4.651705 36,000 354 396 0
2018-10-12 09:52:29 GMT 44.460739 4.653648 36,025 354 396 0
2018-10-12 09:52:26 GMT 44.455013 4.654586 36,000 354 396 0
2018-10-12 09:52:20 GMT 44.444275 4.656307 36,025 354 396 0
2018-10-12 09:52:15 GMT 44.435600 4.657667 36,025 354 396 0
2018-10-12 09:52:09 GMT 44.424522 4.659476 36,025 354 396 0
2018-10-12 09:52:04 GMT 44.414791 4.661017 36,025 354 396 0
2018-10-12 09:51:56 GMT 44.399055 4.663562 36,000 354 396 0
2018-10-12 09:51:53 GMT 44.396313 4.664031 36,000 354 396 0
2018-10-12 09:51:48 GMT 44.376251 4.667293 36,000 354 396 64
2018-10-12 09:51:42 GMT 44.376251 4.667293 36,000 354 396 0
2018-10-12 09:51:38 GMT 44.367680 4.668654 36,000 354 396 0
2018-10-12 09:51:34 GMT 44.360596 4.669843 36,000 354 396 0
2018-10-12 09:51:31 GMT 44.356277 4.670529 36,000 354 396 0
2018-10-12 09:51:27 GMT 44.347942 4.671869 36,000 354 396 0
2018-10-12 09:51:24 GMT 44.341518 4.672874 36,000 354 396 0
2018-10-12 09:51:21 GMT 44.336472 4.673702 36,000 354 396 0
2018-10-12 09:51:15 GMT 44.324753 4.675598 36,000 354 396 0
2018-10-12 09:51:08 GMT 44.311539 4.677697 36,000 354 395 0
2018-10-12 09:51:03 GMT 44.303650 4.678933 36,000 354 395 0
2018-10-12 09:51:00 GMT 44.289520 4.681114 36,000 354 395 0
2018-10-12 09:50:55 GMT 44.289520 4.681114 36,000 354 395 0
2018-10-12 09:50:52 GMT 44.283794 4.682051 36,000 354 395 0
2018-10-12 09:50:48 GMT 44.277649 4.682988 36,000 354 395 0
2018-10-12 09:50:44 GMT 44.268337 4.684530 36,000 354 395 0
2018-10-12 09:50:41 GMT 44.262268 4.685473 36,000 354 395 0
2018-10-12 09:50:36 GMT 44.254837 4.686674 36,000 354 395 0
2018-10-12 09:50:33 GMT 44.249359 4.687565 36,000 354 395 0
2018-10-12 09:50:30 GMT 44.244003 4.688416 36,000 354 395 0
2018-10-12 09:50:27 GMT 44.238544 4.689286 36,000 354 395 0
2018-10-12 09:50:23 GMT 44.232262 4.690291 36,000 354 395 0
2018-10-12 09:50:20 GMT 44.226059 4.691293 36,000 354 395 0
2018-10-12 09:50:16 GMT 44.217598 4.692703 36,000 354 394 0
2018-10-12 09:50:13 GMT 44.212143 4.693582 36,000 354 394 0
2018-10-12 09:50:10 GMT 44.207355 4.694311 36,000 354 394 0
2018-10-12 09:50:07 GMT 44.202747 4.695048 36,000 354 394 0
2018-10-12 09:50:04 GMT 44.197311 4.695936 36,000 354 394 0
2018-10-12 09:50:01 GMT 44.190857 4.696975 36,000 354 394 0
2018-10-12 09:49:58 GMT 44.184731 4.697963 36,000 354 394 0
2018-10-12 09:49:52 GMT 44.173931 4.699663 36,000 354 394 0
2018-10-12 09:49:49 GMT 44.168335 4.700552 36,000 354 394 0
2018-10-12 09:49:44 GMT 44.160057 4.701887 36,000 354 394 0
2018-10-12 09:49:41 GMT 44.155125 4.702672 36,000 354 394 0
2018-10-12 09:49:38 GMT 44.148884 4.703653 36,000 354 394 0
2018-10-12 09:49:32 GMT 44.139221 4.705214 36,000 354 394 0
2018-10-12 09:49:29 GMT 44.133430 4.706138 36,000 354 394 0
2018-10-12 09:49:26 GMT 44.127148 4.707118 36,000 354 394 0
2018-10-12 09:49:21 GMT 44.118484 4.708536 36,000 354 394 0
2018-10-12 09:49:15 GMT 44.109081 4.710061 36,000 354 394 0
2018-10-12 09:49:09 GMT 44.095184 4.712241 36,000 354 393 0
2018-10-12 09:49:05 GMT 44.090462 4.713004 36,000 354 393 0
2018-10-12 09:48:58 GMT 44.077515 4.715115 36,000 354 393 0
2018-10-12 09:48:53 GMT 44.067902 4.716584 36,000 354 393 0
2018-10-12 09:48:50 GMT 44.062389 4.717451 35,975 354 393 0
2018-10-12 09:48:47 GMT 44.058479 4.718105 35,975 354 393 0
2018-10-12 09:48:43 GMT 44.050800 4.719347 36,000 354 393 0
2018-10-12 09:48:38 GMT 44.039349 4.721113 35,975 354 393 0
2018-10-12 09:48:35 GMT 44.036415 4.721571 36,000 354 393 0
2018-10-12 09:48:32 GMT 44.030960 4.722460 35,975 354 393 0
2018-10-12 09:48:27 GMT 44.021053 4.724056 36,000 354 393 0
2018-10-12 09:48:21 GMT 44.011230 4.725560 35,975 354 393 0
2018-10-12 09:48:16 GMT 44.001251 4.727123 35,975 354 393 0
2018-10-12 09:48:12 GMT 43.994202 4.728273 35,975 354 393 0
2018-10-12 09:48:06 GMT 43.982834 4.730072 36,000 354 393 0
2018-10-12 09:48:02 GMT 43.975525 4.731249 36,000 354 393 0
2018-10-12 09:47:56 GMT 43.963795 4.733080 36,000 354 393 0
2018-10-12 09:47:51 GMT 43.955475 4.734405 36,000 354 392 0
2018-10-12 09:47:45 GMT 43.945217 4.736023 35,975 354 392 0
2018-10-12 09:47:41 GMT 43.937668 4.737215 36,000 354 392 -64
2018-10-12 09:47:37 GMT 43.931999 4.738181 36,000 354 392 -64
2018-10-12 09:47:33 GMT 43.923805 4.739423 36,000 354 392 -64
2018-10-12 09:47:29 GMT 43.917336 4.740470 36,000 354 393 -64
2018-10-12 09:47:23 GMT 43.905075 4.742453 36,000 354 392 -64
2018-10-12 09:47:18 GMT 43.897476 4.743667 36,000 354 392 -64
2018-10-12 09:47:15 GMT 43.890610 4.744752 36,000 354 393 0
2018-10-12 09:47:12 GMT 43.885353 4.745571 36,000 354 392 0
2018-10-12 09:47:08 GMT 43.876881 4.746878 36,000 354 393 0
2018-10-12 09:47:04 GMT 43.869991 4.747990 36,000 354 393 0
2018-10-12 09:47:01 GMT 43.856689 4.749990 36,000 354 393 0
2018-10-12 09:46:56 GMT 43.856689 4.749990 36,000 354 393 0
2018-10-12 09:46:53 GMT 43.850967 4.750884 36,000 354 393 0
2018-10-12 09:46:50 GMT 43.845364 4.751783 36,000 354 393 0
2018-10-12 09:46:42 GMT 43.832108 4.753886 36,000 354 393 0
2018-10-12 09:46:37 GMT 43.820618 4.755739 36,000 354 393 0
2018-10-12 09:46:32 GMT 43.812500 4.757015 36,000 354 393 0
2018-10-12 09:46:28 GMT 43.801559 4.758780 36,000 354 394 0
2018-10-12 09:46:25 GMT 43.801559 4.758780 36,000 354 394 0
2018-10-12 09:46:21 GMT 43.794483 4.759892 36,000 354 394 0
2018-10-12 09:46:18 GMT 43.788025 4.760913 36,000 354 394 0
2018-10-12 09:46:15 GMT 43.782520 4.761789 36,000 354 394 0
2018-10-12 09:46:11 GMT 43.776096 4.762835 36,000 354 394 -64
2018-10-12 09:46:07 GMT 43.768181 4.764012 36,000 354 394 0
2018-10-12 09:46:02 GMT 43.757290 4.765712 36,000 354 394 0
2018-10-12 09:45:56 GMT 43.748016 4.767172 36,000 354 394 0
2018-10-12 09:45:50 GMT 43.736992 4.768917 36,000 354 394 0
2018-10-12 09:45:44 GMT 43.726959 4.770430 36,000 354 394 -64
2018-10-12 09:45:41 GMT 43.720642 4.771388 36,000 354 394 -64
2018-10-12 09:45:33 GMT 43.705215 4.773815 36,025 354 394 -64
2018-10-12 09:45:30 GMT 43.700634 4.774540 36,000 354 394 0
2018-10-12 09:45:23 GMT 43.688530 4.776502 36,025 354 393 0
2018-10-12 09:45:19 GMT 43.681499 4.777679 36,025 354 394 0
2018-10-12 09:45:13 GMT 43.670422 4.779445 36,025 355 394 64
2018-10-12 09:45:09 GMT 43.663158 4.780361 36,025 356 395 0
2018-10-12 09:44:59 GMT 43.644150 4.782055 36,025 359 395 0
2018-10-12 09:44:54 GMT 43.634808 4.782453 36,000 0 395 64
2018-10-12 09:44:48 GMT 43.624649 4.782630 36,000 0 395 0
2018-10-12 09:44:40 GMT 43.610138 4.782630 36,000 0 395 0
2018-10-12 09:44:37 GMT 43.605202 4.782649 36,000 0 395 0
2018-10-12 09:44:31 GMT 43.593063 4.782694 36,000 0 395 0
2018-10-12 09:44:27 GMT 43.586304 4.782780 36,000 0 395 0
2018-10-12 09:44:19 GMT 43.570770 4.782821 36,000 0 395 0
2018-10-12 09:44:16 GMT 43.566238 4.782821 36,000 0 395 -64
2018-10-12 09:44:08 GMT 43.547012 4.782911 36,000 0 395 0
2018-10-12 09:43:58 GMT 43.532627 4.782911 36,000 0 395 0
2018-10-12 09:43:55 GMT 43.528065 4.782976 36,000 0 395 0
2018-10-12 09:43:47 GMT 43.512405 4.782949 36,000 0 395 0
2018-10-12 09:43:44 GMT 43.489792 4.783013 36,000 0 395 -64
2018-10-12 09:43:34 GMT 43.489792 4.783013 36,000 0 395 0
2018-10-12 09:43:23 GMT 43.469082 4.783042 36,000 0 395 -64
2018-10-12 09:43:17 GMT 43.455769 4.783107 36,025 0 395 0
2018-10-12 09:43:13 GMT 43.451160 4.783107 36,025 0 395 0
2018-10-12 09:43:10 GMT 43.445015 4.783173 36,025 0 395 0
2018-10-12 09:43:05 GMT 43.436775 4.783173 36,025 0 395 0
2018-10-12 09:43:02 GMT 43.412888 4.783332 36,000 0 395 0
2018-10-12 09:42:52 GMT 43.412888 4.783332 36,025 0 395 0
2018-10-12 09:42:41 GMT 43.393391 4.783434 36,000 0 395 0
2018-10-12 09:42:31 GMT 43.374302 4.783434 36,000 0 395 0
2018-10-12 09:42:25 GMT 43.356239 4.783434 36,000 0 395 0
2018-10-12 09:42:21 GMT 43.356239 4.783434 36,000 0 395 0
2018-10-12 09:42:11 GMT 43.336990 4.783524 36,000 0 394 0
2018-10-12 09:42:08 GMT 43.332504 4.783524 36,000 0 394 0
2018-10-12 09:42:02 GMT 43.321426 4.783524 36,000 0 394 0
2018-10-12 09:41:59 GMT 43.314102 4.783588 36,000 0 394 0
2018-10-12 09:41:52 GMT 43.301586 4.783630 36,000 0 394 0
2018-10-12 09:41:49 GMT 43.296890 4.783652 36,000 0 394 0
2018-10-12 09:41:41 GMT 43.280869 4.783716 36,000 0 394 0
2018-10-12 09:41:38 GMT 43.276077 4.783696 36,000 0 394 0
2018-10-12 09:41:29 GMT 43.260948 4.783761 36,000 0 393 0
2018-10-12 09:41:26 GMT 43.256287 4.783779 36,000 0 393 0
2018-10-12 09:41:22 GMT 43.248322 4.783779 36,000 0 393 0
2018-10-12 09:41:19 GMT 43.243027 4.783827 36,000 0 393 0
2018-10-12 09:41:16 GMT 43.237289 4.783843 36,000 0 393 0
2018-10-12 09:41:08 GMT 43.222496 4.783827 36,000 0 393 0
2018-10-12 09:41:05 GMT 43.216827 4.783843 36,000 0 393 0
2018-10-12 09:40:59 GMT 43.206341 4.783892 36,000 0 393 -64
2018-10-12 09:40:55 GMT 43.199684 4.783957 36,000 0 393 0
2018-10-12 09:40:51 GMT 43.192608 4.783957 36,000 0 393 0
2018-10-12 09:40:47 GMT 43.177944 4.784023 36,000 0 393 0
2018-10-12 09:40:43 GMT 43.177944 4.784023 36,000 0 393 0
2018-10-12 09:40:35 GMT 43.162170 4.784099 36,000 0 392 64
2018-10-12 09:40:32 GMT 43.158371 4.784099 36,025 0 393 0
2018-10-12 09:40:25 GMT 43.143494 4.784163 36,000 0 392 64
2018-10-12 09:40:21 GMT 43.137585 4.784154 36,000 0 392 64
2018-10-12 09:40:14 GMT 43.124363 4.784154 36,000 0 392 64
2018-10-12 09:40:11 GMT 43.118683 4.784163 36,000 0 392 0
2018-10-12 09:40:06 GMT 43.109608 4.784219 36,000 0 392 0
2018-10-12 09:40:03 GMT 43.104126 4.784227 36,000 0 392 0
2018-10-12 09:40:00 GMT 43.098808 4.784219 36,000 0 392 0
2018-10-12 09:39:53 GMT 43.084095 4.784219 36,000 0 392 0
2018-10-12 09:39:48 GMT 43.078674 4.784290 36,000 0 392 0
2018-10-12 09:39:45 GMT 43.071533 4.784290 35,975 0 392 0
2018-10-12 09:39:42 GMT 43.066078 4.784284 36,000 0 392 0
2018-10-12 09:39:38 GMT 43.059052 4.784350 36,000 0 392 0
2018-10-12 09:39:34 GMT 43.052307 4.784354 35,975 0 392 0
2018-10-12 09:39:31 GMT 43.046669 4.784415 35,975 0 392 0
2018-10-12 09:39:27 GMT 43.039639 4.784415 36,000 0 391 0
2018-10-12 09:39:23 GMT 43.022964 4.784482 35,975 0 391 0
2018-10-12 09:39:19 GMT 43.022964 4.784482 35,975 0 391 0
2018-10-12 09:39:16 GMT 43.019394 4.784482 35,975 0 391 0
2018-10-12 09:39:13 GMT 43.014221 4.784481 35,975 0 391 0
2018-10-12 09:39:10 GMT 43.007008 4.784481 35,975 0 391 0
2018-10-12 09:39:03 GMT 42.995880 4.784546 35,975 0 391 0
2018-10-12 09:38:59 GMT 42.989315 4.784546 35,975 0 391 0
2018-10-12 09:38:52 GMT 42.975952 4.784674 35,975 0 391 0
2018-10-12 09:38:49 GMT 42.968460 4.784677 35,975 0 391 0
2018-10-12 09:38:43 GMT 42.959614 4.784742 35,975 0 391 0
2018-10-12 09:38:40 GMT 42.954391 4.784738 35,975 0 391 0
2018-10-12 09:38:37 GMT 42.948860 4.784742 35,975 0 391 0
2018-10-12 09:38:31 GMT 42.936447 4.784801 35,975 0 390 0
2018-10-12 09:38:28 GMT 42.927448 4.784807 35,975 0 390 0
2018-10-12 09:38:20 GMT 42.910858 4.784801 36,000 0 390 0
2018-10-12 09:38:17 GMT 42.910858 4.784801 36,000 0 390 0
2018-10-12 09:38:11 GMT 42.902077 4.784807 36,000 0 390 0
2018-10-12 09:38:08 GMT 42.894676 4.784873 36,000 0 390 0
2018-10-12 09:38:00 GMT 42.881546 4.784873 36,000 0 390 0
2018-10-12 09:37:57 GMT 42.876205 4.784865 36,000 0 390 0
2018-10-12 09:37:53 GMT 42.869862 4.784938 36,000 0 390 0
2018-10-12 09:37:48 GMT 42.860134 4.784938 36,000 0 390 0
2018-10-12 09:37:44 GMT 42.853683 4.784929 36,000 0 390 0
2018-10-12 09:37:39 GMT 42.843704 4.784993 36,000 0 390 0
2018-10-12 09:37:36 GMT 42.833923 4.785004 36,000 0 390 0
2018-10-12 09:37:27 GMT 42.822098 4.785057 36,000 0 390 0
2018-10-12 09:37:24 GMT 42.817429 4.785057 36,000 0 390 0
2018-10-12 09:37:16 GMT 42.803787 4.785108 36,000 0 390 0
2018-10-12 09:37:12 GMT 42.794773 4.785185 36,000 0 390 0
2018-10-12 09:37:05 GMT 42.782272 4.785233 36,000 0 391 0
2018-10-12 09:37:02 GMT 42.775040 4.785233 36,000 0 390 0
2018-10-12 09:36:56 GMT 42.766617 4.785295 36,000 0 391 0
2018-10-12 09:36:53 GMT 42.760208 4.785295 36,000 0 391 0
2018-10-12 09:36:49 GMT 42.754601 4.785312 36,000 0 391 0
2018-10-12 09:36:43 GMT 42.743984 4.785312 36,000 0 391 0
2018-10-12 09:36:40 GMT 42.737549 4.785357 36,000 0 391 0
2018-10-12 09:36:34 GMT 42.726837 4.785357 36,000 0 391 0
2018-10-12 09:36:30 GMT 42.718895 4.785376 36,000 0 391 0
2018-10-12 09:36:25 GMT 42.711399 4.785376 36,000 0 392 0
2018-10-12 09:36:18 GMT 42.698364 4.785420 36,000 0 391 0
2018-10-12 09:36:13 GMT 42.689194 4.785440 36,000 0 391 0
2018-10-12 09:36:07 GMT 42.678860 4.785504 36,000 0 391 0
2018-10-12 09:36:03 GMT 42.663685 4.785568 36,000 0 392 0
2018-10-12 09:36:00 GMT 42.663685 4.785568 36,000 0 392 0
2018-10-12 09:35:57 GMT 42.659771 4.785568 36,000 0 392 0
2018-10-12 09:35:53 GMT 42.652084 4.785607 36,000 0 392 0
2018-10-12 09:35:49 GMT 42.645035 4.785607 36,000 0 392 0
2018-10-12 09:35:43 GMT 42.629700 4.785670 36,025 0 392 0
2018-10-12 09:35:36 GMT 42.621460 4.785696 36,000 0 392 0
2018-10-12 09:35:33 GMT 42.610428 4.785760 36,000 0 392 0
2018-10-12 09:35:27 GMT 42.598137 4.785760 36,025 0 392 0
2018-10-12 09:35:20 GMT 42.592575 4.785794 36,000 0 392 0
2018-10-12 09:35:17 GMT 42.586899 4.785794 36,025 0 392 0
2018-10-12 09:35:14 GMT 42.582916 4.785794 36,000 0 392 0
2018-10-12 09:35:11 GMT 42.576675 4.785823 36,000 0 392 0
2018-10-12 09:35:08 GMT 42.571289 4.785857 36,000 0 392 0
2018-10-12 09:35:05 GMT 42.563873 4.785857 36,000 0 392 0
2018-10-12 09:35:02 GMT 42.558475 4.785887 36,000 0 392 0
2018-10-12 09:34:59 GMT 42.547256 4.785951 36,000 0 392 0
2018-10-12 09:34:55 GMT 42.547256 4.785951 36,000 0 392 0
2018-10-12 09:34:52 GMT 42.542496 4.785919 36,000 0 392 0
2018-10-12 09:34:49 GMT 42.536877 4.785951 36,000 0 392 0
2018-10-12 09:34:45 GMT 42.527573 4.785982 36,000 0 392 0
2018-10-12 09:34:41 GMT 42.520065 4.785982 36,000 0 392 0
2018-10-12 09:34:33 GMT 42.507732 4.786015 36,000 0 392 0
2018-10-12 09:34:27 GMT 42.496559 4.786079 36,025 0 392 0
2018-10-12 09:34:22 GMT 42.486134 4.786079 36,000 0 392 0
2018-10-12 09:34:17 GMT 42.478592 4.786143 36,000 0 392 0
2018-10-12 09:34:13 GMT 42.464581 4.786207 36,000 0 392 0
2018-10-12 09:34:09 GMT 42.464581 4.786207 36,000 0 392 0
2018-10-12 09:34:06 GMT 42.458954 4.786231 36,000 0 392 0
2018-10-12 09:34:03 GMT 42.452408 4.786294 36,000 0 392 0
2018-10-12 09:33:59 GMT 42.446842 4.786270 36,000 0 392 0
2018-10-12 09:33:56 GMT 42.440044 4.786334 36,000 0 392 0
2018-10-12 09:33:51 GMT 42.429749 4.786356 36,000 0 392 0
2018-10-12 09:33:47 GMT 42.424915 4.786334 36,000 0 392 0
2018-10-12 09:33:44 GMT 42.419174 4.786356 36,000 0 392 0
2018-10-12 09:33:41 GMT 42.413792 4.786334 36,000 0 392 0
2018-10-12 09:33:37 GMT 42.400269 4.786356 36,000 0 392 0
2018-10-12 09:33:34 GMT 42.400269 4.786356 36,000 0 392 0
2018-10-12 09:33:29 GMT 42.391212 4.786398 36,000 0 392 0
2018-10-12 09:33:24 GMT 42.383011 4.786356 36,000 0 392 0
2018-10-12 09:33:20 GMT 42.375687 4.786356 36,000 0 392 0
2018-10-12 09:33:16 GMT 42.368637 4.786356 36,000 0 392 0
2018-10-12 09:33:12 GMT 42.361633 4.786356 36,000 0 392 0
2018-10-12 09:33:09 GMT 42.353943 4.786356 36,000 0 391 0
2018-10-12 09:33:06 GMT 42.349960 4.786356 36,000 0 391 0
2018-10-12 09:33:03 GMT 42.345219 4.786334 36,000 0 391 0
2018-10-12 09:32:58 GMT 42.334789 4.786398 36,000 0 391 0
2018-10-12 09:32:55 GMT 42.330929 4.786398 36,000 0 391 0
2018-10-12 09:32:49 GMT 42.318375 4.786419 36,000 0 391 0
2018-10-12 09:32:45 GMT 42.311279 4.786481 36,000 0 391 0
2018-10-12 09:32:39 GMT 42.300064 4.786481 36,000 0 391 0
2018-10-12 09:32:34 GMT 42.292786 4.786543 36,000 0 391 0
2018-10-12 09:32:31 GMT 42.287167 4.786590 36,000 0 391 0
2018-10-12 09:32:28 GMT 42.280186 4.786590 36,000 0 392 0
2018-10-12 09:32:24 GMT 42.273064 4.786654 36,000 0 392 0
2018-10-12 09:32:20 GMT 42.267151 4.786668 36,000 0 392 0
2018-10-12 09:32:17 GMT 42.260284 4.786731 36,000 0 392 0
2018-10-12 09:32:14 GMT 42.247459 4.786781 36,000 0 393 0
2018-10-12 09:32:06 GMT 42.242111 4.786793 36,000 0 393 0
2018-10-12 09:32:03 GMT 42.235451 4.786845 36,000 0 393 0
2018-10-12 09:31:54 GMT 42.216660 4.786918 36,000 0 394 0
2018-10-12 09:31:44 GMT 42.199650 4.786909 36,000 0 395 0
2018-10-12 09:31:40 GMT 42.194733 4.786918 36,000 0 395 0
2018-10-12 09:31:35 GMT 42.178894 4.786918 36,000 0 396 64
2018-10-12 09:31:29 GMT 42.173347 4.786909 36,000 0 397 64
2018-10-12 09:31:25 GMT 42.164337 4.786918 35,975 0 397 128
2018-10-12 09:31:20 GMT 42.156876 4.786918 35,975 0 397 256
2018-10-12 09:31:16 GMT 42.149460 4.786856 35,950 0 397 384
2018-10-12 09:31:13 GMT 42.142914 4.786856 35,925 0 396 448
2018-10-12 09:31:10 GMT 42.138474 4.786856 35,925 0 396 512
2018-10-12 09:31:07 GMT 42.133221 4.786845 35,900 0 396 448
2018-10-12 09:31:02 GMT 42.122002 4.786781 35,825 0 395 576
2018-10-12 09:30:58 GMT 42.117142 4.786793 35,825 0 395 768
2018-10-12 09:30:50 GMT 42.101658 4.786781 35,725 0 395 768
2018-10-12 09:30:47 GMT 42.087753 4.786918 35,650 0 395 832
2018-10-12 09:30:43 GMT 42.087753 4.786918 35,625 0 395 832
2018-10-12 09:30:38 GMT 42.080017 4.786918 35,575 0 396 832
2018-10-12 09:30:35 GMT 42.075214 4.786909 35,525 1 397 832
2018-10-12 09:30:30 GMT 42.065598 4.786606 35,450 3 397 768
2018-10-12 09:30:27 GMT 42.060181 4.786207 35,425 5 397 704
2018-10-12 09:30:24 GMT 42.054474 4.785670 35,375 6 398 640
2018-10-12 09:30:21 GMT 42.047379 4.784796 35,325 7 398 640
2018-10-12 09:30:18 GMT 42.043003 4.784099 35,275 8 398 640
2018-10-12 09:30:13 GMT 42.034389 4.782438 35,250 9 398 640
2018-10-12 09:30:09 GMT 42.027313 4.780841 35,175 10 398 704
2018-10-12 09:30:06 GMT 42.022110 4.779490 35,175 14 398 768
2018-10-12 09:30:00 GMT 42.008423 4.775183 35,100 14 399 832
2018-10-12 09:29:57 GMT 41.997345 4.771063 34,950 16 399 960
2018-10-12 09:29:52 GMT 41.997345 4.771063 34,975 16 399 960
2018-10-12 09:29:48 GMT 41.990295 4.768254 34,875 16 400 960
2018-10-12 09:29:44 GMT 41.982742 4.765257 34,875 16 400 960
2018-10-12 09:29:39 GMT 41.973358 4.761487 34,725 16 400 960
2018-10-12 09:29:34 GMT 41.963211 4.757463 34,725 16 400 1024
2018-10-12 09:29:29 GMT 41.954819 4.754084 34,600 16 401 1216
2018-10-12 09:29:25 GMT 41.948593 4.751587 34,475 16 402 1472
2018-10-12 09:29:22 GMT 41.944290 4.749902 34,450 16 402 1472
2018-10-12 09:29:19 GMT 41.936920 4.746968 33,950 16 403 1536
2018-10-12 09:29:16 GMT 41.933258 4.745532 33,950 16 403 1536
2018-10-12 09:29:13 GMT 41.927227 4.743156 34,250 16 405 1536
2018-10-12 09:29:07 GMT 41.917171 4.739195 34,100 16 406 1280
2018-10-12 09:29:04 GMT 41.911652 4.736980 34,000 16 407 1152
2018-10-12 09:29:01 GMT 41.906372 4.734916 34,000 16 407 1152
2018-10-12 09:28:57 GMT 41.898457 4.731850 33,775 16 408 1024
2018-10-12 09:28:53 GMT 41.891891 4.729231 33,850 16 408 1024
2018-10-12 09:28:50 GMT 41.886292 4.726993 33,750 16 408 960
2018-10-12 09:28:46 GMT 41.877880 4.723738 33,700 16 408 896
2018-10-12 09:28:43 GMT 41.872513 4.721624 33,700 16 408 960
2018-10-12 09:28:40 GMT 41.867081 4.719458 33,600 16 408 960
2018-10-12 09:28:34 GMT 41.855255 4.714795 33,525 16 409 1216
2018-10-12 09:28:29 GMT 41.847435 4.711730 33,450 16 409 1216
2018-10-12 09:28:26 GMT 41.840687 4.709111 33,375 16 409 1216
2018-10-12 09:28:17 GMT 41.826813 4.703681 33,225 16 410 1088
2018-10-12 09:28:13 GMT 41.817719 4.700089 33,125 16 410 1088
2018-10-12 09:28:07 GMT 41.806915 4.695906 33,025 16 411 1280
2018-10-12 09:28:02 GMT 41.799271 4.692848 32,925 16 411 1280
2018-10-12 09:27:58 GMT 41.790596 4.689438 32,825 16 412 1408
2018-10-12 09:27:55 GMT 41.782867 4.686372 32,650 16 413 1472
2018-10-12 09:27:51 GMT 41.777481 4.684171 32,675 16 414 1408
2018-10-12 09:27:47 GMT 41.770523 4.681362 32,575 15 414 1408
2018-10-12 09:27:43 GMT 41.763268 4.678579 32,475 15 414 1408
2018-10-12 09:27:40 GMT 41.757843 4.676555 32,425 15 414 1408
2018-10-12 09:27:36 GMT 41.749954 4.673725 32,325 13 415 1408
2018-10-12 09:27:32 GMT 41.742966 4.671374 32,225 12 416 1152
2018-10-12 09:27:29 GMT 41.737991 4.669828 32,175 12 416 1088
2018-10-12 09:27:26 GMT 41.732437 4.668191 32,125 11 415 1024
2018-10-12 09:27:23 GMT 41.726353 4.666443 32,075 11 416 960
2018-10-12 09:27:20 GMT 41.720444 4.664882 32,025 10 416 704
2018-10-12 09:27:15 GMT 41.697281 4.659889 31,950 7 419 960
2018-10-12 09:27:08 GMT 41.697281 4.659889 31,925 7 420 576
2018-10-12 09:27:03 GMT 41.686798 4.657953 31,875 7 419 1152
2018-10-12 09:26:59 GMT 41.679989 4.656670 31,825 7 420 1344
2018-10-12 09:26:55 GMT 41.672215 4.655265 31,725 7 420 1280
2018-10-12 09:26:52 GMT 41.660110 4.653022 31,625 7 420 1152
2018-10-12 09:26:49 GMT 41.660110 4.653022 31,575 7 420 1152
2018-10-12 09:26:39 GMT 41.639740 4.649339 31,375 7 422 1344
2018-10-12 09:26:31 GMT 41.618679 4.645428 31,075 7 422 1344
2018-10-12 09:26:27 GMT 41.618679 4.645428 31,125 7 422 1344
2018-10-12 09:26:18 GMT 41.599453 4.641851 30,900 7 424 1216
2018-10-12 09:26:09 GMT 41.581421 4.638540 30,725 7 424 1088
2018-10-12 09:26:06 GMT 41.577484 4.637791 30,700 7 424 960
2018-10-12 09:26:00 GMT 41.564304 4.635336 30,575 7 424 960
2018-10-12 09:25:57 GMT 41.560020 4.634570 30,550 7 424 960
2018-10-12 09:25:51 GMT 41.548618 4.632398 30,450 7 423 1152
2018-10-12 09:25:46 GMT 41.537815 4.630418 30,225 7 423 1280
2018-10-12 09:25:41 GMT 41.529114 4.628821 30,250 7 424 1280
2018-10-12 09:25:36 GMT 41.511932 4.625681 30,075 7 424 1344
2018-10-12 09:25:30 GMT 41.505974 4.624542 30,000 7 425 1344
2018-10-12 09:25:27 GMT 41.499985 4.623434 29,925 7 425 1344
2018-10-12 09:25:19 GMT 41.485447 4.620773 29,750 7 427 1472
2018-10-12 09:25:15 GMT 41.477371 4.619252 29,725 7 427 1472
2018-10-12 09:25:08 GMT 41.465240 4.617004 29,525 7 428 1600
2018-10-12 09:25:02 GMT 41.451508 4.614513 29,375 7 429 1536
2018-10-12 09:24:58 GMT 41.444733 4.613259 29,250 7 429 1536
2018-10-12 09:24:54 GMT 41.435776 4.611639 29,125 7 430 1600
2018-10-12 09:24:47 GMT 41.423763 4.609403 28,975 7 432 1664
2018-10-12 09:24:43 GMT 41.414062 4.607641 28,850 7 433 1664
2018-10-12 09:24:38 GMT 41.403141 4.605635 28,700 7 434 1600
2018-10-12 09:24:32 GMT 41.393600 4.603896 28,625 7 435 1408
2018-10-12 09:24:26 GMT 41.380783 4.601562 28,450 7 435 1088
2018-10-12 09:24:21 GMT 41.370880 4.599713 28,350 7 435 960
2018-10-12 09:24:16 GMT 41.360962 4.597900 28,275 7 434 832
2018-10-12 09:24:10 GMT 41.349106 4.595764 28,200 7 432 832
2018-10-12 09:24:06 GMT 41.341003 4.594299 28,150 7 432 832
2018-10-12 09:24:02 GMT 41.330658 4.592407 28,025 7 431 896
2018-10-12 09:23:56 GMT 41.318893 4.590332 27,975 7 431 1024
2018-10-12 09:23:49 GMT 41.306808 4.588135 27,875 7 430 1088
2018-10-12 09:23:45 GMT 41.299843 4.586854 27,800 7 431 1216
2018-10-12 09:23:39 GMT 41.287552 4.584545 27,700 7 430 1216
2018-10-12 09:23:32 GMT 41.274536 4.582153 27,550 7 430 1216
2018-10-12 09:23:29 GMT 41.268185 4.580987 27,500 7 430 1088
2018-10-12 09:23:24 GMT 41.258011 4.579163 27,400 7 430 1024
2018-10-12 09:23:19 GMT 41.239655 4.575745 27,250 7 428 960
2018-10-12 09:23:12 GMT 41.235306 4.574951 27,225 7 428 960
2018-10-12 09:23:07 GMT 41.215988 4.571472 27,100 7 426 1024
2018-10-12 09:23:03 GMT 41.215988 4.571472 27,075 7 426 1024
2018-10-12 09:22:59 GMT 41.207291 4.569885 27,000 7 426 960
2018-10-12 09:22:53 GMT 41.196442 4.567932 26,900 7 425 1024
2018-10-12 09:22:49 GMT 41.187744 4.566406 26,825 7 424 1088
2018-10-12 09:22:43 GMT 41.175934 4.564209 26,725 7 423 1152
2018-10-12 09:22:35 GMT 41.162560 4.561823 26,425 7 423 1344
2018-10-12 09:22:32 GMT 41.155807 4.560575 26,500 7 423 1472
2018-10-12 09:22:26 GMT 41.144714 4.558594 26,300 7 424 1536
2018-10-12 09:22:22 GMT 41.135326 4.556892 26,250 7 424 1472
2018-10-12 09:22:15 GMT 41.124062 4.554832 26,100 7 423 1280
2018-10-12 09:22:11 GMT 41.115124 4.553209 26,025 7 424 1216
2018-10-12 09:22:05 GMT 41.102966 4.550964 25,900 7 423 1216
2018-10-12 09:22:00 GMT 41.094818 4.549438 25,800 7 423 1216
2018-10-12 09:21:54 GMT 41.083099 4.547302 25,700 7 423 1152
2018-10-12 09:21:49 GMT 41.072853 4.545468 25,600 7 422 1152
2018-10-12 09:21:46 GMT 41.067352 4.544434 25,325 7 422 1152
2018-10-12 09:21:43 GMT 41.061680 4.543408 25,325 7 422 1152
2018-10-12 09:21:40 GMT 41.054420 4.542098 25,425 7 421 1152
2018-10-12 09:21:33 GMT 41.042316 4.539975 25,250 7 420 1216
2018-10-12 09:21:30 GMT 41.034542 4.538540 25,225 7 420 1280
2018-10-12 09:21:23 GMT 41.021255 4.536194 25,075 7 419 1280
2018-10-12 09:21:19 GMT 41.014755 4.535044 25,000 7 419 1280
2018-10-12 09:21:15 GMT 41.006058 4.533447 24,925 7 419 1344
2018-10-12 09:21:08 GMT 40.994019 4.531250 24,775 7 418 1216
2018-10-12 09:21:03 GMT 40.981705 4.528992 24,650 7 417 1024
2018-10-12 09:20:58 GMT 40.974747 4.527710 24,600 7 417 896
2018-10-12 09:20:52 GMT 40.961918 4.525431 24,500 7 413 704
2018-10-12 09:20:48 GMT 40.954659 4.524120 24,475 7 413 704
2018-10-12 09:20:44 GMT 40.946884 4.522747 24,425 7 412 960
2018-10-12 09:20:41 GMT 40.941376 4.521729 24,375 7 411 1344
2018-10-12 09:20:38 GMT 40.934406 4.520499 24,300 7 411 1920
2018-10-12 09:20:34 GMT 40.927795 4.519313 24,200 7 411 2048
2018-10-12 09:20:30 GMT 40.920162 4.517940 24,050 7 412 2240
2018-10-12 09:20:27 GMT 40.914825 4.516968 23,950 7 413 2048
2018-10-12 09:20:23 GMT 40.907406 4.515631 23,825 7 414 1920
2018-10-12 09:20:20 GMT 40.899399 4.514160 23,700 7 414 1728
2018-10-12 09:20:16 GMT 40.894363 4.513245 23,625 7 414 1600
2018-10-12 09:20:13 GMT 40.888229 4.512146 23,550 7 414 1536
2018-10-12 09:20:09 GMT 40.881012 4.510824 23,325 7 414 1664
2018-10-12 09:20:05 GMT 40.874260 4.509638 23,375 7 414 1664
2018-10-12 09:20:02 GMT 40.868546 4.508606 23,275 7 414 1536
2018-10-12 09:19:56 GMT 40.855736 4.506330 23,125 7 414 1408
2018-10-12 09:19:52 GMT 40.847679 4.504894 23,025 7 413 1536
2018-10-12 09:19:48 GMT 40.840759 4.503662 22,925 7 413 1792
2018-10-12 09:19:45 GMT 40.836227 4.502834 22,850 7 413 1920
2018-10-12 09:19:42 GMT 40.829201 4.501586 22,750 7 414 2048
2018-10-12 09:19:37 GMT 40.818100 4.499573 22,550 7 414 2048
2018-10-12 09:19:34 GMT 40.815308 4.499084 22,500 7 415 1792
2018-10-12 09:19:28 GMT 40.802570 4.496841 22,275 7 414 1216
2018-10-12 09:19:22 GMT 40.789536 4.494469 22,200 7 413 1088
2018-10-12 09:19:18 GMT 40.781761 4.493096 22,125 7 411 1152
2018-10-12 09:19:14 GMT 40.776535 4.492126 22,075 7 411 1216
2018-10-12 09:19:10 GMT 40.769165 4.490784 22,000 7 410 1344
2018-10-12 09:19:07 GMT 40.762527 4.489624 21,925 7 409 1472
2018-10-12 09:19:03 GMT 40.756531 4.488477 21,850 7 409 1472
2018-10-12 09:19:00 GMT 40.749847 4.487305 21,775 7 408 1536
2018-10-12 09:18:53 GMT 40.736885 4.484919 21,600 7 407 1664
2018-10-12 09:18:46 GMT 40.723198 4.482484 21,400 7 407 1600
2018-10-12 09:18:43 GMT 40.716614 4.481323 21,325 7 406 1600
2018-10-12 09:18:39 GMT 40.711376 4.480362 21,250 7 406 1600
2018-10-12 09:18:34 GMT 40.701691 4.478638 20,975 7 405 1472
2018-10-12 09:18:29 GMT 40.691483 4.476807 20,975 7 404 1408
2018-10-12 09:18:22 GMT 40.679306 4.474609 20,825 7 403 1280
2018-10-12 09:18:19 GMT 40.673901 4.473620 20,775 7 402 1280
2018-10-12 09:18:13 GMT 40.662029 4.471498 20,650 7 401 1344
2018-10-12 09:18:09 GMT 40.654495 4.470154 20,550 7 400 1472
2018-10-12 09:18:03 GMT 40.644154 4.468314 20,300 7 399 1792
2018-10-12 09:17:58 GMT 40.635040 4.466675 20,325 7 399 1792
2018-10-12 09:17:52 GMT 40.624603 4.464844 20,125 7 399 1984
2018-10-12 09:17:48 GMT 40.616081 4.463321 19,975 7 399 1984
2018-10-12 09:17:41 GMT 40.602905 4.460938 19,725 7 399 2048
2018-10-12 09:17:37 GMT 40.597370 4.459950 19,700 7 399 2048
2018-10-12 09:17:31 GMT 40.585823 4.457890 19,425 7 400 1984
2018-10-12 09:17:27 GMT 40.578842 4.456641 19,300 7 400 1920
2018-10-12 09:17:20 GMT 40.565643 4.454285 19,075 7 400 1856
2018-10-12 09:17:16 GMT 40.556870 4.452771 19,025 7 400 1728
2018-10-12 09:17:10 GMT 40.547424 4.451111 18,800 7 397 1088
2018-10-12 09:17:06 GMT 40.538666 4.449588 18,700 7 397 1216
2018-10-12 09:16:56 GMT 40.520370 4.446342 18,525 7 393 832
2018-10-12 09:16:50 GMT 40.509060 4.444282 18,450 7 389 832
2018-10-12 09:16:45 GMT 40.501518 4.442971 18,400 7 386 1024
2018-10-12 09:16:35 GMT 40.483246 4.439636 18,175 7 383 2112
2018-10-12 09:16:28 GMT 40.469349 4.437166 17,900 6 382 2304
2018-10-12 09:16:25 GMT 40.464203 4.436401 17,800 5 382 2176
2018-10-12 09:16:15 GMT 40.448074 4.434731 17,475 2 382 2496
2018-10-12 09:16:04 GMT 40.429550 4.433533 17,050 2 384 2624
2018-10-12 09:15:56 GMT 40.414444 4.432617 16,650 2 385 1856
2018-10-12 09:15:45 GMT 40.395054 4.431485 16,350 2 384 1984
2018-10-12 09:15:34 GMT 40.375626 4.430359 15,450 2 384 2240
2018-10-12 09:15:23 GMT 40.355576 4.429238 15,625 2 384 2176
2018-10-12 09:15:13 GMT 40.337723 4.428223 15,275 2 383 1920
2018-10-12 09:15:03 GMT 40.320148 4.427116 14,975 2 382 2176
2018-10-12 09:14:52 GMT 40.301239 4.425964 14,575 2 381 2176
2018-10-12 09:14:42 GMT 40.282974 4.424866 14,250 2 379 1536
2018-10-12 09:14:30 GMT 40.262558 4.423645 13,825 2 373 1792
2018-10-12 09:14:17 GMT 40.240173 4.422309 13,600 2 371 1984
2018-10-12 09:14:10 GMT 40.228180 4.421570 13,325 2 369 1920
2018-10-12 09:14:00 GMT 40.211243 4.420654 12,900 2 367 1984
2018-10-12 09:13:50 GMT 40.193062 4.419625 12,725 2 365 2176
2018-10-12 09:13:47 GMT 40.181351 4.418945 12,475 2 363 1664
2018-10-12 09:13:38 GMT 40.172768 4.418501 12,250 2 360 1344
2018-10-12 09:13:28 GMT 40.156334 4.417565 12,125 2 355 960
2018-10-12 09:13:17 GMT 40.139389 4.416629 11,875 2 336 896
2018-10-12 09:13:07 GMT 40.123699 4.415692 11,800 2 339 960
2018-10-12 09:12:58 GMT 40.108150 4.414756 11,600 2 328 832
2018-10-12 09:12:48 GMT 40.093021 4.413820 11,500 2 321 832
2018-10-12 09:12:44 GMT 40.087154 4.413445 11,375 2 295 960
2018-10-12 09:12:37 GMT 40.077427 4.412946 11,350 2 312 832
2018-10-12 09:12:30 GMT 40.067459 4.412354 11,275 2 309 832
2018-10-12 09:12:26 GMT 40.061783 4.412048 11,200 2 303 832
2018-10-12 09:12:22 GMT 40.055595 4.411697 11,125 2 295 960
2018-10-12 09:12:16 GMT 40.048187 4.411194 11,050 2 292 1088
2018-10-12 09:12:10 GMT 40.039490 4.410645 10,950 2 287 1152
2018-10-12 09:12:06 GMT 40.034088 4.410278 10,850 2 283 1088
2018-10-12 09:12:02 GMT 40.027477 4.409887 10,750 2 278 960
2018-10-12 09:11:55 GMT 40.020355 4.409450 10,675 2 273 960
2018-10-12 09:11:52 GMT 40.016006 4.409180 10,625 2 272 1024
2018-10-12 09:11:46 GMT 40.007786 4.408639 10,500 2 265 1152
2018-10-12 09:11:43 GMT 40.003128 4.408327 10,425 2 262 1344
2018-10-12 09:11:34 GMT 39.994263 4.407776 10,225 2 259 2496
2018-10-12 09:11:31 GMT 39.990467 4.407578 10,100 1 259 2496
2018-10-12 09:11:22 GMT 39.978130 4.406891 9,700 2 259 2624
2018-10-12 09:11:14 GMT 39.969955 4.406433 9,400 4 260 2176
2018-10-12 09:11:10 GMT 39.964539 4.405830 9,250 9 261 1536
2018-10-12 09:11:03 GMT 39.956997 4.403395 9,025 25 259 1472
2018-10-12 09:11:00 GMT 39.953751 4.401611 8,750 36 258 1792
2018-10-12 09:10:53 GMT 39.946014 4.395508 8,675 38 257 1920
2018-10-12 09:10:50 GMT 39.942799 4.392097 8,550 41 258 2240
2018-10-12 09:10:42 GMT 39.936493 4.384766 8,275 42 257 2368
2018-10-12 09:10:36 GMT 39.931412 4.378845 8,075 42 256 2624
2018-10-12 09:10:32 GMT 39.927383 4.374084 7,875 42 256 2688
2018-10-12 09:10:28 GMT 39.923244 4.369250 7,675 42 256 2880
2018-10-12 09:10:19 GMT 39.915894 4.360557 7,275 41 259 2624
2018-10-12 09:10:10 GMT 39.908432 4.351840 6,900 41 259 2624
2018-10-12 09:10:00 GMT 39.899368 4.341451 6,500 40 258 2368
2018-10-12 09:09:50 GMT 39.889938 4.330882 6,100 40 255 2496
2018-10-12 09:09:36 GMT 39.877716 4.317567 5,575 39 252 2368
2018-10-12 09:09:29 GMT 39.871292 4.310608 5,300 39 250 2432
2018-10-12 09:09:19 GMT 39.861740 4.300371 4,875 39 247 2304
2018-10-12 09:09:08 GMT 39.852299 4.289978 4,500 40 243 1920
2018-10-12 09:08:57 GMT 39.843502 4.280334 4,250 36 233 1152
2018-10-12 09:08:47 GMT 39.834423 4.272949 4,125 19 221 1216
2018-10-12 09:08:36 GMT 39.822784 4.269531 3,975 6 213 960
2018-10-12 09:08:27 GMT 39.814312 4.268127 3,825 10 204 832
2018-10-12 09:08:13 GMT 39.802025 4.262817 3,625 31 192 128
2018-10-12 09:08:04 GMT 39.796692 4.256366 3,525 53 181 320
2018-10-12 09:07:55 GMT 39.793133 4.247925 3,400 72 173 704
2018-10-12 09:07:44 GMT 39.791336 4.236662 3,200 90 167 1024
2018-10-12 09:07:34 GMT 39.791931 4.226811 3,000 108 161 1088
2018-10-12 09:07:24 GMT 39.794540 4.217436 2,800 124 158 896
2018-10-12 09:07:14 GMT 39.799393 4.209853 2,650 148 153 1152

Making use of Plane Finder data

You are free to use the raw flight data, aircraft information and images provided in this report for your own purposes provided the data is correctly attributed to Plane Finder. We ask that you please credit Plane Finder and link to planefinder.net in close proximity to the content.

Optionally one of the following logos (no smaller then 150x24px) can be used and must link to planefinder.net

Embedding the Plane Finder map

You are welcome to embed the Plane Finder playback map on your website to offer visitors a more interactive experience. We suggest using the following HTML code:

<iframe src="//planefinder.net/data/report/MT1063-G-TCDB-7700-squawk-2018-10-12/map" width="800" height="600" seamless="seamless"></iframe>

Where our data comes from

Plane Finder has a global network of data feeds and antenna radars that receive data broadcast directly from aircraft. The primary technologies used are ADS-B and MLAT. We also show feeds from the FAA and a FLARM glider feed.

Click here to find out more about the Plane Finder network.

How we collect our data